<?xml version="1.0" encoding="UTF-8"?>
<gpx version="1.1" creator="Endomondo.com" xsi:schemaLocation="http://www.topografix.com/GPX/1/1 http://www.topografix.com/GPX/1/1/gpx.xsd http://www.garmin.com/xmlschemas/GpxExtensions/v3 http://www.garmin.com/xmlschemas/GpxExtensionsv3.xsd http://www.garmin.com/xmlschemas/TrackPointExtension/v1 http://www.garmin.com/xmlschemas/TrackPointExtensionv1.xsd" xmlns="http://www.topografix.com/GPX/1/1" xmlns:gpxtpx="http://www.garmin.com/xmlschemas/TrackPointExtension/v1" xmlns:gpxx="http://www.garmin.com/xmlschemas/GpxExtensions/v3" xmlns:xsi="http://www.w3.org/2001/XMLSchema-instance">
  <metadata>
    <author>
      <name>jose manuel</name>
      <email id="jmanuelguerrero" domain="gmail.com"/>
    </author>
    <link href="http://www.endomondo.com">
      <text>Endomondo</text>
    </link>
    <time>2016-08-24T09:32:36Z</time>
  </metadata>
  <trk>
    <src>http://www.endomondo.com/</src>
    <link href="https://www.endomondo.com/workouts/718425596/159315">
      <text>endomondo</text>
    </link>
    <type>HIKING</type>
    <trkseg>
      <trkpt lat="42.8734154" lon="-5.3749265">
        <time>2016-05-03T16:27:55Z</time>
      </trkpt>
      <trkpt lat="42.8734154" lon="-5.3749265">
        <ele>1530.7</ele>
        <time>2016-05-03T16:27:58Z</time>
      </trkpt>
      <trkpt lat="42.87339" lon="-5.3748708">
        <ele>1548.7</ele>
        <time>2016-05-03T16:30:33Z</time>
      </trkpt>
      <trkpt lat="42.8732773" lon="-5.3748463">
        <ele>1547.8</ele>
        <time>2016-05-03T16:33:46Z</time>
      </trkpt>
      <trkpt lat="42.8731406" lon="-5.3747823">
        <ele>1547.8</ele>
        <time>2016-05-03T16:33:49Z</time>
      </trkpt>
      <trkpt lat="42.8730134" lon="-5.3747039">
        <ele>1547.8</ele>
        <time>2016-05-03T16:33:51Z</time>
      </trkpt>
      <trkpt lat="42.8729" lon="-5.3746998">
        <ele>1547.8</ele>
        <time>2016-05-03T16:33:53Z</time>
      </trkpt>
      <trkpt lat="42.8727876" lon="-5.3747305">
        <ele>1547.8</ele>
        <time>2016-05-03T16:33:55Z</time>
      </trkpt>
      <trkpt lat="42.8726909" lon="-5.3748264">
        <ele>1547.8</ele>
        <time>2016-05-03T16:33:57Z</time>
      </trkpt>
      <trkpt lat="42.8726128" lon="-5.3750591">
        <ele>1547.7</ele>
        <time>2016-05-03T16:34:00Z</time>
      </trkpt>
      <trkpt lat="42.8724812" lon="-5.3749931">
        <ele>1547.7</ele>
        <time>2016-05-03T16:34:04Z</time>
      </trkpt>
      <trkpt lat="42.8725521" lon="-5.374769">
        <ele>1547.6</ele>
        <time>2016-05-03T16:34:06Z</time>
      </trkpt>
      <trkpt lat="42.8726623" lon="-5.3746091">
        <ele>1547.3</ele>
        <time>2016-05-03T16:34:08Z</time>
      </trkpt>
      <trkpt lat="42.8727969" lon="-5.3744086">
        <ele>1547.0</ele>
        <time>2016-05-03T16:34:11Z</time>
      </trkpt>
      <trkpt lat="42.8728794" lon="-5.3742275">
        <ele>1546.9</ele>
        <time>2016-05-03T16:34:13Z</time>
      </trkpt>
      <trkpt lat="42.8729682" lon="-5.3739991">
        <ele>1546.7</ele>
        <time>2016-05-03T16:34:16Z</time>
      </trkpt>
      <trkpt lat="42.8729252" lon="-5.3737171">
        <ele>1546.5</ele>
        <time>2016-05-03T16:34:19Z</time>
      </trkpt>
      <trkpt lat="42.8727809" lon="-5.3735872">
        <ele>1546.4</ele>
        <time>2016-05-03T16:34:22Z</time>
      </trkpt>
      <trkpt lat="42.8726287" lon="-5.373521">
        <ele>1546.4</ele>
        <time>2016-05-03T16:34:26Z</time>
      </trkpt>
      <trkpt lat="42.8726299" lon="-5.3733163">
        <ele>1546.4</ele>
        <time>2016-05-03T16:34:29Z</time>
      </trkpt>
      <trkpt lat="42.8726842" lon="-5.373143">
        <ele>1546.4</ele>
        <time>2016-05-03T16:34:31Z</time>
      </trkpt>
      <trkpt lat="42.8725903" lon="-5.3729086">
        <ele>1546.4</ele>
        <time>2016-05-03T16:34:34Z</time>
      </trkpt>
      <trkpt lat="42.8724586" lon="-5.3728579">
        <ele>1546.4</ele>
        <time>2016-05-03T16:34:37Z</time>
      </trkpt>
      <trkpt lat="42.8722844" lon="-5.3730468">
        <ele>1546.4</ele>
        <time>2016-05-03T16:34:40Z</time>
      </trkpt>
      <trkpt lat="42.8721841" lon="-5.3732189">
        <ele>1546.4</ele>
        <time>2016-05-03T16:34:42Z</time>
      </trkpt>
      <trkpt lat="42.8721616" lon="-5.3734999">
        <ele>1546.4</ele>
        <time>2016-05-03T16:34:44Z</time>
      </trkpt>
      <trkpt lat="42.872228" lon="-5.3737773">
        <ele>1546.4</ele>
        <time>2016-05-03T16:34:46Z</time>
      </trkpt>
      <trkpt lat="42.8723302" lon="-5.3739922">
        <ele>1546.5</ele>
        <time>2016-05-03T16:34:48Z</time>
      </trkpt>
      <trkpt lat="42.8725021" lon="-5.3741065">
        <ele>1546.8</ele>
        <time>2016-05-03T16:34:50Z</time>
      </trkpt>
      <trkpt lat="42.8726363" lon="-5.3741273">
        <ele>1546.9</ele>
        <time>2016-05-03T16:34:51Z</time>
      </trkpt>
      <trkpt lat="42.8729788" lon="-5.3741096">
        <ele>1547.8</ele>
        <time>2016-05-03T16:34:54Z</time>
      </trkpt>
      <trkpt lat="42.8730829" lon="-5.3738612">
        <ele>1548.5</ele>
        <time>2016-05-03T16:34:56Z</time>
      </trkpt>
      <trkpt lat="42.8731699" lon="-5.3736791">
        <ele>1548.8</ele>
        <time>2016-05-03T16:34:58Z</time>
      </trkpt>
      <trkpt lat="42.8731083" lon="-5.37348">
        <ele>1549.1</ele>
        <time>2016-05-03T16:34:59Z</time>
      </trkpt>
      <trkpt lat="42.8729297" lon="-5.3733885">
        <ele>1549.4</ele>
        <time>2016-05-03T16:35:02Z</time>
      </trkpt>
      <trkpt lat="42.872824" lon="-5.3734092">
        <ele>1551.7</ele>
        <time>2016-05-03T16:35:05Z</time>
      </trkpt>
      <trkpt lat="42.872733" lon="-5.3734461">
        <ele>1555.3</ele>
        <time>2016-05-03T16:35:07Z</time>
      </trkpt>
      <trkpt lat="42.8726545" lon="-5.3735599">
        <ele>1558.1</ele>
        <time>2016-05-03T16:35:09Z</time>
      </trkpt>
      <trkpt lat="42.8725654" lon="-5.3737685">
        <ele>1560.4</ele>
        <time>2016-05-03T16:35:11Z</time>
      </trkpt>
      <trkpt lat="42.8725104" lon="-5.3739897">
        <ele>1562.0</ele>
        <time>2016-05-03T16:35:13Z</time>
      </trkpt>
      <trkpt lat="42.8724441" lon="-5.3742087">
        <ele>1563.2</ele>
        <time>2016-05-03T16:35:15Z</time>
      </trkpt>
      <trkpt lat="42.8723257" lon="-5.3743837">
        <ele>1565.3</ele>
        <time>2016-05-03T16:35:17Z</time>
      </trkpt>
      <trkpt lat="42.8721656" lon="-5.3744415">
        <ele>1568.6</ele>
        <time>2016-05-03T16:35:20Z</time>
      </trkpt>
      <trkpt lat="42.8720986" lon="-5.3742782">
        <ele>1570.5</ele>
        <time>2016-05-03T16:35:23Z</time>
      </trkpt>
      <trkpt lat="42.8721792" lon="-5.3740533">
        <ele>1572.6</ele>
        <time>2016-05-03T16:35:26Z</time>
      </trkpt>
      <trkpt lat="42.8722955" lon="-5.3739238">
        <ele>1574.7</ele>
        <time>2016-05-03T16:35:28Z</time>
      </trkpt>
      <trkpt lat="42.8724305" lon="-5.3737966">
        <ele>1575.8</ele>
        <time>2016-05-03T16:35:30Z</time>
      </trkpt>
      <trkpt lat="42.8725345" lon="-5.3736515">
        <ele>1576.2</ele>
        <time>2016-05-03T16:35:32Z</time>
      </trkpt>
      <trkpt lat="42.8726124" lon="-5.3734891">
        <ele>1579.4</ele>
        <time>2016-05-03T16:35:34Z</time>
      </trkpt>
      <trkpt lat="42.8725859" lon="-5.3732871">
        <ele>1581.0</ele>
        <time>2016-05-03T16:35:37Z</time>
      </trkpt>
      <trkpt lat="42.8724887" lon="-5.3732201">
        <ele>1581.2</ele>
        <time>2016-05-03T16:35:39Z</time>
      </trkpt>
      <trkpt lat="42.8722829" lon="-5.3731897">
        <ele>1581.3</ele>
        <time>2016-05-03T16:35:42Z</time>
      </trkpt>
      <trkpt lat="42.8721643" lon="-5.3731691">
        <ele>1581.3</ele>
        <time>2016-05-03T16:35:44Z</time>
      </trkpt>
      <trkpt lat="42.8720505" lon="-5.3731638">
        <ele>1581.3</ele>
        <time>2016-05-03T16:35:46Z</time>
      </trkpt>
      <trkpt lat="42.8719223" lon="-5.3731602">
        <ele>1581.3</ele>
        <time>2016-05-03T16:35:48Z</time>
      </trkpt>
      <trkpt lat="42.8718283" lon="-5.3732366">
        <ele>1581.3</ele>
        <time>2016-05-03T16:35:50Z</time>
      </trkpt>
      <trkpt lat="42.8717339" lon="-5.3733756">
        <ele>1581.3</ele>
        <time>2016-05-03T16:35:52Z</time>
      </trkpt>
      <trkpt lat="42.8716416" lon="-5.373556">
        <ele>1581.3</ele>
        <time>2016-05-03T16:35:54Z</time>
      </trkpt>
      <trkpt lat="42.871575" lon="-5.3737214">
        <ele>1581.3</ele>
        <time>2016-05-03T16:35:56Z</time>
      </trkpt>
      <trkpt lat="42.8715275" lon="-5.3739352">
        <ele>1581.3</ele>
        <time>2016-05-03T16:35:58Z</time>
      </trkpt>
      <trkpt lat="42.8714699" lon="-5.3741535">
        <ele>1581.3</ele>
        <time>2016-05-03T16:36:00Z</time>
      </trkpt>
      <trkpt lat="42.8714496" lon="-5.374388">
        <ele>1581.3</ele>
        <time>2016-05-03T16:36:02Z</time>
      </trkpt>
      <trkpt lat="42.8714642" lon="-5.3746403">
        <ele>1581.3</ele>
        <time>2016-05-03T16:36:04Z</time>
      </trkpt>
      <trkpt lat="42.8714884" lon="-5.3748953">
        <ele>1579.4</ele>
        <time>2016-05-03T16:36:06Z</time>
      </trkpt>
      <trkpt lat="42.8714702" lon="-5.3751093">
        <ele>1577.9</ele>
        <time>2016-05-03T16:36:08Z</time>
      </trkpt>
      <trkpt lat="42.871396" lon="-5.3753459">
        <ele>1577.4</ele>
        <time>2016-05-03T16:36:11Z</time>
      </trkpt>
      <trkpt lat="42.8712359" lon="-5.3753579">
        <ele>1577.4</ele>
        <time>2016-05-03T16:36:16Z</time>
      </trkpt>
      <trkpt lat="42.8711338" lon="-5.375121">
        <ele>1577.4</ele>
        <time>2016-05-03T16:36:19Z</time>
      </trkpt>
      <trkpt lat="42.8711527" lon="-5.3749372">
        <ele>1577.4</ele>
        <time>2016-05-03T16:36:21Z</time>
      </trkpt>
      <trkpt lat="42.8712268" lon="-5.374696">
        <ele>1577.4</ele>
        <time>2016-05-03T16:36:24Z</time>
      </trkpt>
      <trkpt lat="42.8713009" lon="-5.3744707">
        <ele>1577.4</ele>
        <time>2016-05-03T16:36:26Z</time>
      </trkpt>
      <trkpt lat="42.8713562" lon="-5.3742983">
        <ele>1577.4</ele>
        <time>2016-05-03T16:36:28Z</time>
      </trkpt>
      <trkpt lat="42.8712942" lon="-5.3740698">
        <ele>1577.4</ele>
        <time>2016-05-03T16:36:31Z</time>
      </trkpt>
      <trkpt lat="42.8711717" lon="-5.3739122">
        <ele>1577.4</ele>
        <time>2016-05-03T16:36:34Z</time>
      </trkpt>
      <trkpt lat="42.8710996" lon="-5.3738382">
        <ele>1577.4</ele>
        <time>2016-05-03T16:36:36Z</time>
      </trkpt>
      <trkpt lat="42.8709499" lon="-5.3737302">
        <ele>1582.6</ele>
        <time>2016-05-03T16:36:39Z</time>
      </trkpt>
      <trkpt lat="42.8708544" lon="-5.3736593">
        <ele>1588.7</ele>
        <time>2016-05-03T16:36:41Z</time>
      </trkpt>
      <trkpt lat="42.8707152" lon="-5.3735631">
        <ele>1599.7</ele>
        <time>2016-05-03T16:36:44Z</time>
      </trkpt>
      <trkpt lat="42.8706234" lon="-5.373495">
        <ele>1606.0</ele>
        <time>2016-05-03T16:36:46Z</time>
      </trkpt>
      <trkpt lat="42.8705378" lon="-5.3732993">
        <ele>1613.3</ele>
        <time>2016-05-03T16:36:49Z</time>
      </trkpt>
      <trkpt lat="42.8705167" lon="-5.373077">
        <ele>1625.1</ele>
        <time>2016-05-03T16:36:52Z</time>
      </trkpt>
      <trkpt lat="42.8705246" lon="-5.3727941">
        <ele>1634.0</ele>
        <time>2016-05-03T16:36:55Z</time>
      </trkpt>
      <trkpt lat="42.8705542" lon="-5.3726025">
        <ele>1637.8</ele>
        <time>2016-05-03T16:36:57Z</time>
      </trkpt>
      <trkpt lat="42.870585" lon="-5.3724139">
        <ele>1639.6</ele>
        <time>2016-05-03T16:36:59Z</time>
      </trkpt>
      <trkpt lat="42.8706067" lon="-5.3722212">
        <ele>1640.7</ele>
        <time>2016-05-03T16:37:01Z</time>
      </trkpt>
      <trkpt lat="42.8706498" lon="-5.3720206">
        <ele>1641.2</ele>
        <time>2016-05-03T16:37:03Z</time>
      </trkpt>
      <trkpt lat="42.8707232" lon="-5.3718318">
        <ele>1641.4</ele>
        <time>2016-05-03T16:37:05Z</time>
      </trkpt>
      <trkpt lat="42.8708014" lon="-5.3715822">
        <ele>1642.2</ele>
        <time>2016-05-03T16:37:08Z</time>
      </trkpt>
      <trkpt lat="42.8708273" lon="-5.3713474">
        <ele>1642.6</ele>
        <time>2016-05-03T16:37:11Z</time>
      </trkpt>
      <trkpt lat="42.8707954" lon="-5.3711368">
        <ele>1642.8</ele>
        <time>2016-05-03T16:37:14Z</time>
      </trkpt>
      <trkpt lat="42.8707368" lon="-5.3709597">
        <ele>1643.6</ele>
        <time>2016-05-03T16:37:17Z</time>
      </trkpt>
      <trkpt lat="42.8705244" lon="-5.3709925">
        <ele>1646.0</ele>
        <time>2016-05-03T16:37:20Z</time>
      </trkpt>
      <trkpt lat="42.8704094" lon="-5.3711137">
        <ele>1647.1</ele>
        <time>2016-05-03T16:37:22Z</time>
      </trkpt>
      <trkpt lat="42.8703259" lon="-5.3712674">
        <ele>1648.3</ele>
        <time>2016-05-03T16:37:24Z</time>
      </trkpt>
      <trkpt lat="42.8702483" lon="-5.3714643">
        <ele>1648.9</ele>
        <time>2016-05-03T16:37:26Z</time>
      </trkpt>
      <trkpt lat="42.870185" lon="-5.3716663">
        <ele>1649.4</ele>
        <time>2016-05-03T16:37:28Z</time>
      </trkpt>
      <trkpt lat="42.8701222" lon="-5.3718779">
        <ele>1649.8</ele>
        <time>2016-05-03T16:37:30Z</time>
      </trkpt>
      <trkpt lat="42.8700519" lon="-5.3720543">
        <ele>1650.0</ele>
        <time>2016-05-03T16:37:32Z</time>
      </trkpt>
      <trkpt lat="42.8698715" lon="-5.3720591">
        <ele>1650.5</ele>
        <time>2016-05-03T16:37:35Z</time>
      </trkpt>
      <trkpt lat="42.8697689" lon="-5.3719214">
        <ele>1651.1</ele>
        <time>2016-05-03T16:37:37Z</time>
      </trkpt>
      <trkpt lat="42.8697389" lon="-5.3717149">
        <ele>1652.0</ele>
        <time>2016-05-03T16:37:39Z</time>
      </trkpt>
      <trkpt lat="42.8697875" lon="-5.371485">
        <ele>1652.9</ele>
        <time>2016-05-03T16:37:41Z</time>
      </trkpt>
      <trkpt lat="42.8698393" lon="-5.3712793">
        <ele>1653.5</ele>
        <time>2016-05-03T16:37:43Z</time>
      </trkpt>
      <trkpt lat="42.8699158" lon="-5.371075">
        <ele>1654.7</ele>
        <time>2016-05-03T16:37:45Z</time>
      </trkpt>
      <trkpt lat="42.8700211" lon="-5.3708959">
        <ele>1655.7</ele>
        <time>2016-05-03T16:37:47Z</time>
      </trkpt>
      <trkpt lat="42.8701954" lon="-5.3707561">
        <ele>1656.8</ele>
        <time>2016-05-03T16:37:49Z</time>
      </trkpt>
      <trkpt lat="42.870346" lon="-5.3705849">
        <ele>1657.6</ele>
        <time>2016-05-03T16:37:51Z</time>
      </trkpt>
      <trkpt lat="42.8704487" lon="-5.3703527">
        <ele>1658.1</ele>
        <time>2016-05-03T16:37:53Z</time>
      </trkpt>
      <trkpt lat="42.8704735" lon="-5.3701631">
        <ele>1658.6</ele>
        <time>2016-05-03T16:37:55Z</time>
      </trkpt>
      <trkpt lat="42.8703426" lon="-5.3700212">
        <ele>1659.4</ele>
        <time>2016-05-03T16:37:58Z</time>
      </trkpt>
      <trkpt lat="42.8701686" lon="-5.3699671">
        <ele>1660.1</ele>
        <time>2016-05-03T16:38:01Z</time>
      </trkpt>
      <trkpt lat="42.8700642" lon="-5.3699635">
        <ele>1660.3</ele>
        <time>2016-05-03T16:38:03Z</time>
      </trkpt>
      <trkpt lat="42.869942" lon="-5.3699384">
        <ele>1663.7</ele>
        <time>2016-05-03T16:38:05Z</time>
      </trkpt>
      <trkpt lat="42.8698124" lon="-5.3698894">
        <ele>1663.7</ele>
        <time>2016-05-03T16:38:07Z</time>
      </trkpt>
      <trkpt lat="42.8697122" lon="-5.3698493">
        <ele>1665.8</ele>
        <time>2016-05-03T16:38:09Z</time>
      </trkpt>
      <trkpt lat="42.8696042" lon="-5.3698211">
        <ele>1668.1</ele>
        <time>2016-05-03T16:38:11Z</time>
      </trkpt>
      <trkpt lat="42.86948" lon="-5.3697717">
        <ele>1671.6</ele>
        <time>2016-05-03T16:38:13Z</time>
      </trkpt>
      <trkpt lat="42.869361" lon="-5.3697283">
        <ele>1674.6</ele>
        <time>2016-05-03T16:38:15Z</time>
      </trkpt>
      <trkpt lat="42.8692683" lon="-5.3696757">
        <ele>1679.8</ele>
        <time>2016-05-03T16:38:17Z</time>
      </trkpt>
      <trkpt lat="42.8692285" lon="-5.3696228">
        <ele>1679.8</ele>
        <time>2016-05-03T16:38:18Z</time>
      </trkpt>
      <trkpt lat="42.8691709" lon="-5.369558">
        <ele>1679.8</ele>
        <time>2016-05-03T16:38:19Z</time>
      </trkpt>
      <trkpt lat="42.869121" lon="-5.369466">
        <ele>1679.8</ele>
        <time>2016-05-03T16:38:20Z</time>
      </trkpt>
      <trkpt lat="42.8690693" lon="-5.3693944">
        <ele>1679.8</ele>
        <time>2016-05-03T16:38:21Z</time>
      </trkpt>
      <trkpt lat="42.8689779" lon="-5.3692561">
        <ele>1681.1</ele>
        <time>2016-05-03T16:38:23Z</time>
      </trkpt>
      <trkpt lat="42.8688864" lon="-5.3691159">
        <ele>1683.8</ele>
        <time>2016-05-03T16:38:25Z</time>
      </trkpt>
      <trkpt lat="42.8687681" lon="-5.3689264">
        <ele>1687.4</ele>
        <time>2016-05-03T16:38:28Z</time>
      </trkpt>
      <trkpt lat="42.8686538" lon="-5.3687339">
        <ele>1688.4</ele>
        <time>2016-05-03T16:38:31Z</time>
      </trkpt>
      <trkpt lat="42.8685515" lon="-5.3685621">
        <ele>1690.4</ele>
        <time>2016-05-03T16:38:34Z</time>
      </trkpt>
      <trkpt lat="42.8684515" lon="-5.3683517">
        <ele>1693.3</ele>
        <time>2016-05-03T16:38:37Z</time>
      </trkpt>
      <trkpt lat="42.8683882" lon="-5.3680912">
        <ele>1694.8</ele>
        <time>2016-05-03T16:38:40Z</time>
      </trkpt>
      <trkpt lat="42.8683664" lon="-5.3678732">
        <ele>1695.4</ele>
        <time>2016-05-03T16:38:42Z</time>
      </trkpt>
      <trkpt lat="42.8683532" lon="-5.3676703">
        <ele>1696.0</ele>
        <time>2016-05-03T16:38:44Z</time>
      </trkpt>
      <trkpt lat="42.8683272" lon="-5.3674711">
        <ele>1697.5</ele>
        <time>2016-05-03T16:38:46Z</time>
      </trkpt>
      <trkpt lat="42.8683106" lon="-5.3672768">
        <ele>1699.3</ele>
        <time>2016-05-03T16:38:48Z</time>
      </trkpt>
      <trkpt lat="42.8682979" lon="-5.3670245">
        <ele>1699.9</ele>
        <time>2016-05-03T16:38:50Z</time>
      </trkpt>
      <trkpt lat="42.8683096" lon="-5.3667692">
        <ele>1700.5</ele>
        <time>2016-05-03T16:38:52Z</time>
      </trkpt>
      <trkpt lat="42.8682907" lon="-5.3665788">
        <ele>1702.3</ele>
        <time>2016-05-03T16:38:54Z</time>
      </trkpt>
      <trkpt lat="42.8682503" lon="-5.3663895">
        <ele>1705.2</ele>
        <time>2016-05-03T16:38:56Z</time>
      </trkpt>
      <trkpt lat="42.8681941" lon="-5.3661909">
        <ele>1709.2</ele>
        <time>2016-05-03T16:38:58Z</time>
      </trkpt>
      <trkpt lat="42.8681728" lon="-5.3659819">
        <ele>1714.0</ele>
        <time>2016-05-03T16:39:00Z</time>
      </trkpt>
      <trkpt lat="42.8681413" lon="-5.3657658">
        <ele>1719.3</ele>
        <time>2016-05-03T16:39:02Z</time>
      </trkpt>
      <trkpt lat="42.8681164" lon="-5.3655452">
        <ele>1724.2</ele>
        <time>2016-05-03T16:39:04Z</time>
      </trkpt>
      <trkpt lat="42.8680921" lon="-5.3653294">
        <ele>1728.5</ele>
        <time>2016-05-03T16:39:06Z</time>
      </trkpt>
      <trkpt lat="42.8680706" lon="-5.3650989">
        <ele>1733.1</ele>
        <time>2016-05-03T16:39:08Z</time>
      </trkpt>
      <trkpt lat="42.8680638" lon="-5.3648752">
        <ele>1736.3</ele>
        <time>2016-05-03T16:39:10Z</time>
      </trkpt>
      <trkpt lat="42.8680794" lon="-5.3646508">
        <ele>1738.0</ele>
        <time>2016-05-03T16:39:12Z</time>
      </trkpt>
      <trkpt lat="42.868131" lon="-5.3644602">
        <ele>1740.5</ele>
        <time>2016-05-03T16:39:14Z</time>
      </trkpt>
      <trkpt lat="42.8681056" lon="-5.364261">
        <ele>1741.1</ele>
        <time>2016-05-03T16:39:16Z</time>
      </trkpt>
      <trkpt lat="42.8680763" lon="-5.3640537">
        <ele>1741.2</ele>
        <time>2016-05-03T16:39:18Z</time>
      </trkpt>
      <trkpt lat="42.8680384" lon="-5.3638554">
        <ele>1741.3</ele>
        <time>2016-05-03T16:39:20Z</time>
      </trkpt>
      <trkpt lat="42.8680024" lon="-5.3636538">
        <ele>1741.3</ele>
        <time>2016-05-03T16:39:22Z</time>
      </trkpt>
      <trkpt lat="42.8679675" lon="-5.3634378">
        <ele>1741.3</ele>
        <time>2016-05-03T16:39:24Z</time>
      </trkpt>
      <trkpt lat="42.8679581" lon="-5.363188">
        <ele>1741.3</ele>
        <time>2016-05-03T16:39:26Z</time>
      </trkpt>
      <trkpt lat="42.8679386" lon="-5.3629627">
        <ele>1741.3</ele>
        <time>2016-05-03T16:39:28Z</time>
      </trkpt>
      <trkpt lat="42.8679315" lon="-5.3627643">
        <ele>1741.3</ele>
        <time>2016-05-03T16:39:30Z</time>
      </trkpt>
      <trkpt lat="42.8678966" lon="-5.3625593">
        <ele>1741.3</ele>
        <time>2016-05-03T16:39:32Z</time>
      </trkpt>
      <trkpt lat="42.8677402" lon="-5.3624112">
        <ele>1741.3</ele>
        <time>2016-05-03T16:39:35Z</time>
      </trkpt>
      <trkpt lat="42.867651" lon="-5.3623531">
        <ele>1741.3</ele>
        <time>2016-05-03T16:39:37Z</time>
      </trkpt>
      <trkpt lat="42.867542" lon="-5.3623042">
        <ele>1741.3</ele>
        <time>2016-05-03T16:39:39Z</time>
      </trkpt>
      <trkpt lat="42.867312" lon="-5.3622624">
        <ele>1741.3</ele>
        <time>2016-05-03T16:39:43Z</time>
      </trkpt>
      <trkpt lat="42.8671933" lon="-5.3622427">
        <ele>1736.6</ele>
        <time>2016-05-03T16:39:45Z</time>
      </trkpt>
      <trkpt lat="42.8671269" lon="-5.3622209">
        <ele>1736.6</ele>
        <time>2016-05-03T16:39:46Z</time>
      </trkpt>
      <trkpt lat="42.8670701" lon="-5.3621882">
        <ele>1736.6</ele>
        <time>2016-05-03T16:39:47Z</time>
      </trkpt>
      <trkpt lat="42.8670096" lon="-5.3621514">
        <ele>1736.6</ele>
        <time>2016-05-03T16:39:48Z</time>
      </trkpt>
      <trkpt lat="42.8669586" lon="-5.3621209">
        <ele>1736.6</ele>
        <time>2016-05-03T16:39:49Z</time>
      </trkpt>
      <trkpt lat="42.8667879" lon="-5.3620303">
        <ele>1732.3</ele>
        <time>2016-05-03T16:39:52Z</time>
      </trkpt>
      <trkpt lat="42.8665534" lon="-5.3618914">
        <ele>1726.9</ele>
        <time>2016-05-03T16:39:56Z</time>
      </trkpt>
      <trkpt lat="42.8663921" lon="-5.3617652">
        <ele>1724.9</ele>
        <time>2016-05-03T16:39:59Z</time>
      </trkpt>
      <trkpt lat="42.8663244" lon="-5.3616017">
        <ele>1724.6</ele>
        <time>2016-05-03T16:40:01Z</time>
      </trkpt>
      <trkpt lat="42.8663057" lon="-5.3613751">
        <ele>1724.4</ele>
        <time>2016-05-03T16:40:03Z</time>
      </trkpt>
      <trkpt lat="42.866356" lon="-5.3611179">
        <ele>1723.3</ele>
        <time>2016-05-03T16:40:05Z</time>
      </trkpt>
      <trkpt lat="42.8664686" lon="-5.3608819">
        <ele>1723.0</ele>
        <time>2016-05-03T16:40:07Z</time>
      </trkpt>
      <trkpt lat="42.8666374" lon="-5.360707">
        <ele>1722.8</ele>
        <time>2016-05-03T16:40:09Z</time>
      </trkpt>
      <trkpt lat="42.866849" lon="-5.360595">
        <ele>1722.7</ele>
        <time>2016-05-03T16:40:11Z</time>
      </trkpt>
      <trkpt lat="42.867086" lon="-5.3605612">
        <ele>1722.6</ele>
        <time>2016-05-03T16:40:13Z</time>
      </trkpt>
      <trkpt lat="42.8673925" lon="-5.3605956">
        <ele>1720.7</ele>
        <time>2016-05-03T16:40:16Z</time>
      </trkpt>
      <trkpt lat="42.8675743" lon="-5.3607112">
        <ele>1717.7</ele>
        <time>2016-05-03T16:40:18Z</time>
      </trkpt>
      <trkpt lat="42.8677329" lon="-5.3608882">
        <ele>1714.6</ele>
        <time>2016-05-03T16:40:20Z</time>
      </trkpt>
      <trkpt lat="42.8678616" lon="-5.3611022">
        <ele>1711.3</ele>
        <time>2016-05-03T16:40:22Z</time>
      </trkpt>
      <trkpt lat="42.8679489" lon="-5.3612961">
        <ele>1707.3</ele>
        <time>2016-05-03T16:40:24Z</time>
      </trkpt>
      <trkpt lat="42.8680159" lon="-5.3615145">
        <ele>1703.6</ele>
        <time>2016-05-03T16:40:26Z</time>
      </trkpt>
      <trkpt lat="42.868084" lon="-5.3617253">
        <ele>1700.3</ele>
        <time>2016-05-03T16:40:28Z</time>
      </trkpt>
      <trkpt lat="42.868145" lon="-5.3619458">
        <ele>1697.7</ele>
        <time>2016-05-03T16:40:30Z</time>
      </trkpt>
      <trkpt lat="42.8681786" lon="-5.3621585">
        <ele>1694.6</ele>
        <time>2016-05-03T16:40:32Z</time>
      </trkpt>
      <trkpt lat="42.8681255" lon="-5.362347">
        <ele>1691.7</ele>
        <time>2016-05-03T16:40:34Z</time>
      </trkpt>
      <trkpt lat="42.8680053" lon="-5.3625432">
        <ele>1685.2</ele>
        <time>2016-05-03T16:40:37Z</time>
      </trkpt>
      <trkpt lat="42.8678825" lon="-5.3626408">
        <ele>1681.0</ele>
        <time>2016-05-03T16:40:39Z</time>
      </trkpt>
      <trkpt lat="42.867695" lon="-5.362715">
        <ele>1675.7</ele>
        <time>2016-05-03T16:40:42Z</time>
      </trkpt>
      <trkpt lat="42.8676085" lon="-5.3628106">
        <ele>1672.3</ele>
        <time>2016-05-03T16:40:44Z</time>
      </trkpt>
      <trkpt lat="42.8675186" lon="-5.362974">
        <ele>1670.0</ele>
        <time>2016-05-03T16:40:46Z</time>
      </trkpt>
      <trkpt lat="42.8674611" lon="-5.3631826">
        <ele>1667.8</ele>
        <time>2016-05-03T16:40:48Z</time>
      </trkpt>
      <trkpt lat="42.8674703" lon="-5.363382">
        <ele>1665.8</ele>
        <time>2016-05-03T16:40:50Z</time>
      </trkpt>
      <trkpt lat="42.8675063" lon="-5.3636204">
        <ele>1663.7</ele>
        <time>2016-05-03T16:40:52Z</time>
      </trkpt>
      <trkpt lat="42.8675232" lon="-5.3638481">
        <ele>1660.6</ele>
        <time>2016-05-03T16:40:54Z</time>
      </trkpt>
      <trkpt lat="42.8675789" lon="-5.3641283">
        <ele>1658.0</ele>
        <time>2016-05-03T16:40:56Z</time>
      </trkpt>
      <trkpt lat="42.8676387" lon="-5.3643886">
        <ele>1656.0</ele>
        <time>2016-05-03T16:40:58Z</time>
      </trkpt>
      <trkpt lat="42.8677052" lon="-5.3646516">
        <ele>1654.5</ele>
        <time>2016-05-03T16:41:00Z</time>
      </trkpt>
      <trkpt lat="42.867829" lon="-5.3649113">
        <ele>1652.8</ele>
        <time>2016-05-03T16:41:02Z</time>
      </trkpt>
      <trkpt lat="42.867955" lon="-5.3651122">
        <ele>1651.1</ele>
        <time>2016-05-03T16:41:04Z</time>
      </trkpt>
      <trkpt lat="42.8680747" lon="-5.3653227">
        <ele>1650.0</ele>
        <time>2016-05-03T16:41:06Z</time>
      </trkpt>
      <trkpt lat="42.8682259" lon="-5.3655405">
        <ele>1648.9</ele>
        <time>2016-05-03T16:41:08Z</time>
      </trkpt>
      <trkpt lat="42.8683865" lon="-5.3657734">
        <ele>1644.3</ele>
        <time>2016-05-03T16:41:10Z</time>
      </trkpt>
      <trkpt lat="42.8685209" lon="-5.3659922">
        <ele>1640.1</ele>
        <time>2016-05-03T16:41:12Z</time>
      </trkpt>
      <trkpt lat="42.8686339" lon="-5.3662242">
        <ele>1637.4</ele>
        <time>2016-05-03T16:41:14Z</time>
      </trkpt>
      <trkpt lat="42.8687723" lon="-5.3664532">
        <ele>1633.1</ele>
        <time>2016-05-03T16:41:16Z</time>
      </trkpt>
      <trkpt lat="42.8689151" lon="-5.3666718">
        <ele>1628.1</ele>
        <time>2016-05-03T16:41:18Z</time>
      </trkpt>
      <trkpt lat="42.8690854" lon="-5.3668606">
        <ele>1624.0</ele>
        <time>2016-05-03T16:41:20Z</time>
      </trkpt>
      <trkpt lat="42.8692701" lon="-5.3670616">
        <ele>1620.5</ele>
        <time>2016-05-03T16:41:22Z</time>
      </trkpt>
      <trkpt lat="42.8694054" lon="-5.3672431">
        <ele>1616.3</ele>
        <time>2016-05-03T16:41:24Z</time>
      </trkpt>
      <trkpt lat="42.8695749" lon="-5.3674545">
        <ele>1611.7</ele>
        <time>2016-05-03T16:41:26Z</time>
      </trkpt>
      <trkpt lat="42.8697641" lon="-5.3676693">
        <ele>1608.0</ele>
        <time>2016-05-03T16:41:28Z</time>
      </trkpt>
      <trkpt lat="42.8699078" lon="-5.3678904">
        <ele>1605.6</ele>
        <time>2016-05-03T16:41:30Z</time>
      </trkpt>
      <trkpt lat="42.8700767" lon="-5.3680906">
        <ele>1603.6</ele>
        <time>2016-05-03T16:41:32Z</time>
      </trkpt>
      <trkpt lat="42.8702372" lon="-5.3682584">
        <ele>1603.0</ele>
        <time>2016-05-03T16:41:34Z</time>
      </trkpt>
      <trkpt lat="42.8703371" lon="-5.3684895">
        <ele>1602.9</ele>
        <time>2016-05-03T16:41:36Z</time>
      </trkpt>
      <trkpt lat="42.8703983" lon="-5.3687425">
        <ele>1602.9</ele>
        <time>2016-05-03T16:41:38Z</time>
      </trkpt>
      <trkpt lat="42.8703527" lon="-5.3689851">
        <ele>1602.9</ele>
        <time>2016-05-03T16:41:40Z</time>
      </trkpt>
      <trkpt lat="42.8702086" lon="-5.3691182">
        <ele>1602.9</ele>
        <time>2016-05-03T16:41:42Z</time>
      </trkpt>
      <trkpt lat="42.8700699" lon="-5.3691417">
        <ele>1602.9</ele>
        <time>2016-05-03T16:41:44Z</time>
      </trkpt>
      <trkpt lat="42.8699007" lon="-5.36911">
        <ele>1602.9</ele>
        <time>2016-05-03T16:41:47Z</time>
      </trkpt>
      <trkpt lat="42.8697788" lon="-5.3691127">
        <ele>1602.9</ele>
        <time>2016-05-03T16:41:49Z</time>
      </trkpt>
      <trkpt lat="42.8697329" lon="-5.3691002">
        <ele>1602.9</ele>
        <time>2016-05-03T16:41:50Z</time>
      </trkpt>
      <trkpt lat="42.8696926" lon="-5.3690648">
        <ele>1602.9</ele>
        <time>2016-05-03T16:41:51Z</time>
      </trkpt>
      <trkpt lat="42.8696538" lon="-5.3690246">
        <ele>1602.9</ele>
        <time>2016-05-03T16:41:52Z</time>
      </trkpt>
      <trkpt lat="42.8696198" lon="-5.3689754">
        <ele>1602.9</ele>
        <time>2016-05-03T16:41:53Z</time>
      </trkpt>
      <trkpt lat="42.869498" lon="-5.3688443">
        <ele>1602.9</ele>
        <time>2016-05-03T16:41:56Z</time>
      </trkpt>
      <trkpt lat="42.8693701" lon="-5.3687225">
        <ele>1602.9</ele>
        <time>2016-05-03T16:41:59Z</time>
      </trkpt>
      <trkpt lat="42.8692615" lon="-5.3685573">
        <ele>1602.9</ele>
        <time>2016-05-03T16:42:02Z</time>
      </trkpt>
      <trkpt lat="42.869139" lon="-5.3684133">
        <ele>1604.7</ele>
        <time>2016-05-03T16:42:05Z</time>
      </trkpt>
      <trkpt lat="42.869037" lon="-5.3682052">
        <ele>1607.2</ele>
        <time>2016-05-03T16:42:08Z</time>
      </trkpt>
      <trkpt lat="42.8689671" lon="-5.3680119">
        <ele>1610.8</ele>
        <time>2016-05-03T16:42:11Z</time>
      </trkpt>
      <trkpt lat="42.8688591" lon="-5.3678295">
        <ele>1615.4</ele>
        <time>2016-05-03T16:42:14Z</time>
      </trkpt>
      <trkpt lat="42.868767" lon="-5.3676246">
        <ele>1620.9</ele>
        <time>2016-05-03T16:42:17Z</time>
      </trkpt>
      <trkpt lat="42.8687013" lon="-5.3674293">
        <ele>1626.2</ele>
        <time>2016-05-03T16:42:20Z</time>
      </trkpt>
      <trkpt lat="42.8686318" lon="-5.3672266">
        <ele>1631.0</ele>
        <time>2016-05-03T16:42:23Z</time>
      </trkpt>
      <trkpt lat="42.8685671" lon="-5.3669784">
        <ele>1635.2</ele>
        <time>2016-05-03T16:42:26Z</time>
      </trkpt>
      <trkpt lat="42.8684994" lon="-5.366757">
        <ele>1637.4</ele>
        <time>2016-05-03T16:42:29Z</time>
      </trkpt>
      <trkpt lat="42.8684144" lon="-5.3665609">
        <ele>1641.0</ele>
        <time>2016-05-03T16:42:32Z</time>
      </trkpt>
      <trkpt lat="42.8683833" lon="-5.3663766">
        <ele>1642.7</ele>
        <time>2016-05-03T16:42:34Z</time>
      </trkpt>
      <trkpt lat="42.8683684" lon="-5.3661883">
        <ele>1643.5</ele>
        <time>2016-05-03T16:42:36Z</time>
      </trkpt>
      <trkpt lat="42.8683548" lon="-5.3660053">
        <ele>1644.2</ele>
        <time>2016-05-03T16:42:38Z</time>
      </trkpt>
      <trkpt lat="42.8683926" lon="-5.3657861">
        <ele>1647.0</ele>
        <time>2016-05-03T16:42:40Z</time>
      </trkpt>
      <trkpt lat="42.8684632" lon="-5.3656037">
        <ele>1648.9</ele>
        <time>2016-05-03T16:42:42Z</time>
      </trkpt>
      <trkpt lat="42.8685494" lon="-5.3654322">
        <ele>1649.4</ele>
        <time>2016-05-03T16:42:44Z</time>
      </trkpt>
      <trkpt lat="42.8686263" lon="-5.3652148">
        <ele>1649.5</ele>
        <time>2016-05-03T16:42:46Z</time>
      </trkpt>
      <trkpt lat="42.8687025" lon="-5.3649885">
        <ele>1649.5</ele>
        <time>2016-05-03T16:42:48Z</time>
      </trkpt>
      <trkpt lat="42.8687731" lon="-5.364804">
        <ele>1649.5</ele>
        <time>2016-05-03T16:42:50Z</time>
      </trkpt>
      <trkpt lat="42.8688358" lon="-5.364619">
        <ele>1649.5</ele>
        <time>2016-05-03T16:42:52Z</time>
      </trkpt>
      <trkpt lat="42.8688854" lon="-5.3644202">
        <ele>1649.5</ele>
        <time>2016-05-03T16:42:54Z</time>
      </trkpt>
      <trkpt lat="42.8689322" lon="-5.3642197">
        <ele>1649.5</ele>
        <time>2016-05-03T16:42:56Z</time>
      </trkpt>
      <trkpt lat="42.8690085" lon="-5.3640299">
        <ele>1649.5</ele>
        <time>2016-05-03T16:42:58Z</time>
      </trkpt>
      <trkpt lat="42.8690869" lon="-5.3638224">
        <ele>1649.5</ele>
        <time>2016-05-03T16:43:00Z</time>
      </trkpt>
      <trkpt lat="42.8691711" lon="-5.3636155">
        <ele>1649.5</ele>
        <time>2016-05-03T16:43:02Z</time>
      </trkpt>
      <trkpt lat="42.8692565" lon="-5.3634176">
        <ele>1649.5</ele>
        <time>2016-05-03T16:43:04Z</time>
      </trkpt>
      <trkpt lat="42.8693314" lon="-5.3632018">
        <ele>1649.5</ele>
        <time>2016-05-03T16:43:06Z</time>
      </trkpt>
      <trkpt lat="42.8694037" lon="-5.3629875">
        <ele>1649.5</ele>
        <time>2016-05-03T16:43:08Z</time>
      </trkpt>
      <trkpt lat="42.8694855" lon="-5.3627761">
        <ele>1649.5</ele>
        <time>2016-05-03T16:43:10Z</time>
      </trkpt>
      <trkpt lat="42.8695906" lon="-5.3625759">
        <ele>1649.1</ele>
        <time>2016-05-03T16:43:12Z</time>
      </trkpt>
      <trkpt lat="42.86972" lon="-5.3623547">
        <ele>1648.5</ele>
        <time>2016-05-03T16:43:14Z</time>
      </trkpt>
      <trkpt lat="42.8698589" lon="-5.3621407">
        <ele>1647.4</ele>
        <time>2016-05-03T16:43:16Z</time>
      </trkpt>
      <trkpt lat="42.8699809" lon="-5.3619249">
        <ele>1646.7</ele>
        <time>2016-05-03T16:43:18Z</time>
      </trkpt>
      <trkpt lat="42.8700669" lon="-5.3617025">
        <ele>1646.4</ele>
        <time>2016-05-03T16:43:20Z</time>
      </trkpt>
      <trkpt lat="42.8701116" lon="-5.3615018">
        <ele>1646.2</ele>
        <time>2016-05-03T16:43:22Z</time>
      </trkpt>
      <trkpt lat="42.8700965" lon="-5.3612396">
        <ele>1644.4</ele>
        <time>2016-05-03T16:43:25Z</time>
      </trkpt>
      <trkpt lat="42.8700087" lon="-5.361053">
        <ele>1641.9</ele>
        <time>2016-05-03T16:43:28Z</time>
      </trkpt>
      <trkpt lat="42.8699139" lon="-5.3610473">
        <ele>1641.2</ele>
        <time>2016-05-03T16:43:30Z</time>
      </trkpt>
      <trkpt lat="42.8698121" lon="-5.3611791">
        <ele>1640.0</ele>
        <time>2016-05-03T16:43:33Z</time>
      </trkpt>
      <trkpt lat="42.8697508" lon="-5.3613888">
        <ele>1637.5</ele>
        <time>2016-05-03T16:43:36Z</time>
      </trkpt>
      <trkpt lat="42.8696851" lon="-5.3615694">
        <ele>1633.7</ele>
        <time>2016-05-03T16:43:38Z</time>
      </trkpt>
      <trkpt lat="42.8696327" lon="-5.3617558">
        <ele>1631.2</ele>
        <time>2016-05-03T16:43:40Z</time>
      </trkpt>
      <trkpt lat="42.8695719" lon="-5.3620006">
        <ele>1626.3</ele>
        <time>2016-05-03T16:43:42Z</time>
      </trkpt>
      <trkpt lat="42.8695288" lon="-5.3622118">
        <ele>1622.3</ele>
        <time>2016-05-03T16:43:44Z</time>
      </trkpt>
      <trkpt lat="42.8695075" lon="-5.3624167">
        <ele>1618.7</ele>
        <time>2016-05-03T16:43:46Z</time>
      </trkpt>
      <trkpt lat="42.8695031" lon="-5.3626631">
        <ele>1616.3</ele>
        <time>2016-05-03T16:43:48Z</time>
      </trkpt>
      <trkpt lat="42.8694939" lon="-5.3628831">
        <ele>1615.3</ele>
        <time>2016-05-03T16:43:50Z</time>
      </trkpt>
      <trkpt lat="42.8694943" lon="-5.3630915">
        <ele>1614.6</ele>
        <time>2016-05-03T16:43:52Z</time>
      </trkpt>
      <trkpt lat="42.8694964" lon="-5.3632949">
        <ele>1614.2</ele>
        <time>2016-05-03T16:43:54Z</time>
      </trkpt>
      <trkpt lat="42.8694981" lon="-5.3635249">
        <ele>1614.0</ele>
        <time>2016-05-03T16:43:56Z</time>
      </trkpt>
      <trkpt lat="42.8694931" lon="-5.3637647">
        <ele>1613.7</ele>
        <time>2016-05-03T16:43:58Z</time>
      </trkpt>
      <trkpt lat="42.8694873" lon="-5.3639619">
        <ele>1612.6</ele>
        <time>2016-05-03T16:44:00Z</time>
      </trkpt>
      <trkpt lat="42.8694748" lon="-5.3641953">
        <ele>1611.1</ele>
        <time>2016-05-03T16:44:02Z</time>
      </trkpt>
      <trkpt lat="42.869478" lon="-5.3644819">
        <ele>1609.1</ele>
        <time>2016-05-03T16:44:04Z</time>
      </trkpt>
      <trkpt lat="42.8694983" lon="-5.3647329">
        <ele>1606.3</ele>
        <time>2016-05-03T16:44:06Z</time>
      </trkpt>
      <trkpt lat="42.869515" lon="-5.3649502">
        <ele>1603.0</ele>
        <time>2016-05-03T16:44:08Z</time>
      </trkpt>
      <trkpt lat="42.8695421" lon="-5.3651866">
        <ele>1599.4</ele>
        <time>2016-05-03T16:44:10Z</time>
      </trkpt>
      <trkpt lat="42.8695794" lon="-5.3654382">
        <ele>1596.2</ele>
        <time>2016-05-03T16:44:12Z</time>
      </trkpt>
      <trkpt lat="42.8696065" lon="-5.3656839">
        <ele>1593.5</ele>
        <time>2016-05-03T16:44:14Z</time>
      </trkpt>
      <trkpt lat="42.8696206" lon="-5.3659259">
        <ele>1591.1</ele>
        <time>2016-05-03T16:44:16Z</time>
      </trkpt>
      <trkpt lat="42.8696338" lon="-5.3661549">
        <ele>1590.1</ele>
        <time>2016-05-03T16:44:18Z</time>
      </trkpt>
      <trkpt lat="42.8696566" lon="-5.3663803">
        <ele>1589.3</ele>
        <time>2016-05-03T16:44:20Z</time>
      </trkpt>
      <trkpt lat="42.8696621" lon="-5.3666251">
        <ele>1588.6</ele>
        <time>2016-05-03T16:44:22Z</time>
      </trkpt>
      <trkpt lat="42.8696404" lon="-5.3668809">
        <ele>1588.1</ele>
        <time>2016-05-03T16:44:24Z</time>
      </trkpt>
      <trkpt lat="42.8696059" lon="-5.3671064">
        <ele>1587.8</ele>
        <time>2016-05-03T16:44:26Z</time>
      </trkpt>
      <trkpt lat="42.8695941" lon="-5.3673265">
        <ele>1587.4</ele>
        <time>2016-05-03T16:44:28Z</time>
      </trkpt>
      <trkpt lat="42.8695875" lon="-5.3675465">
        <ele>1587.2</ele>
        <time>2016-05-03T16:44:30Z</time>
      </trkpt>
      <trkpt lat="42.8695784" lon="-5.3677689">
        <ele>1586.7</ele>
        <time>2016-05-03T16:44:32Z</time>
      </trkpt>
      <trkpt lat="42.8695803" lon="-5.3680282">
        <ele>1586.3</ele>
        <time>2016-05-03T16:44:34Z</time>
      </trkpt>
      <trkpt lat="42.8696057" lon="-5.3683295">
        <ele>1586.0</ele>
        <time>2016-05-03T16:44:36Z</time>
      </trkpt>
      <trkpt lat="42.8696368" lon="-5.3686061">
        <ele>1585.6</ele>
        <time>2016-05-03T16:44:38Z</time>
      </trkpt>
      <trkpt lat="42.8696547" lon="-5.368871">
        <ele>1584.9</ele>
        <time>2016-05-03T16:44:40Z</time>
      </trkpt>
      <trkpt lat="42.869667" lon="-5.3691124">
        <ele>1583.9</ele>
        <time>2016-05-03T16:44:42Z</time>
      </trkpt>
      <trkpt lat="42.8696568" lon="-5.3693501">
        <ele>1581.8</ele>
        <time>2016-05-03T16:44:44Z</time>
      </trkpt>
      <trkpt lat="42.869634" lon="-5.3695651">
        <ele>1580.9</ele>
        <time>2016-05-03T16:44:46Z</time>
      </trkpt>
      <trkpt lat="42.8696161" lon="-5.3697958">
        <ele>1579.7</ele>
        <time>2016-05-03T16:44:48Z</time>
      </trkpt>
      <trkpt lat="42.8696176" lon="-5.3700539">
        <ele>1578.1</ele>
        <time>2016-05-03T16:44:50Z</time>
      </trkpt>
      <trkpt lat="42.8696" lon="-5.3702861">
        <ele>1575.5</ele>
        <time>2016-05-03T16:44:52Z</time>
      </trkpt>
      <trkpt lat="42.8695295" lon="-5.3704645">
        <ele>1574.3</ele>
        <time>2016-05-03T16:44:54Z</time>
      </trkpt>
      <trkpt lat="42.8693925" lon="-5.3705499">
        <ele>1574.0</ele>
        <time>2016-05-03T16:44:56Z</time>
      </trkpt>
      <trkpt lat="42.8692236" lon="-5.3705139">
        <ele>1573.9</ele>
        <time>2016-05-03T16:44:59Z</time>
      </trkpt>
      <trkpt lat="42.8690948" lon="-5.3703888">
        <ele>1573.3</ele>
        <time>2016-05-03T16:45:02Z</time>
      </trkpt>
      <trkpt lat="42.8689784" lon="-5.3702009">
        <ele>1572.2</ele>
        <time>2016-05-03T16:45:05Z</time>
      </trkpt>
      <trkpt lat="42.8690034" lon="-5.3699775">
        <ele>1571.7</ele>
        <time>2016-05-03T16:45:07Z</time>
      </trkpt>
      <trkpt lat="42.8691194" lon="-5.3697883">
        <ele>1570.6</ele>
        <time>2016-05-03T16:45:09Z</time>
      </trkpt>
      <trkpt lat="42.8693123" lon="-5.3696478">
        <ele>1569.9</ele>
        <time>2016-05-03T16:45:11Z</time>
      </trkpt>
      <trkpt lat="42.8696586" lon="-5.369756">
        <ele>1569.0</ele>
        <time>2016-05-03T16:45:14Z</time>
      </trkpt>
      <trkpt lat="42.8697947" lon="-5.369977">
        <ele>1568.4</ele>
        <time>2016-05-03T16:45:16Z</time>
      </trkpt>
      <trkpt lat="42.8698469" lon="-5.3702217">
        <ele>1568.2</ele>
        <time>2016-05-03T16:45:18Z</time>
      </trkpt>
      <trkpt lat="42.8698085" lon="-5.3704176">
        <ele>1567.5</ele>
        <time>2016-05-03T16:45:20Z</time>
      </trkpt>
      <trkpt lat="42.8696458" lon="-5.3705708">
        <ele>1566.6</ele>
        <time>2016-05-03T16:45:23Z</time>
      </trkpt>
      <trkpt lat="42.8695107" lon="-5.3707159">
        <ele>1566.0</ele>
        <time>2016-05-03T16:45:26Z</time>
      </trkpt>
      <trkpt lat="42.8693656" lon="-5.3707739">
        <ele>1565.6</ele>
        <time>2016-05-03T16:45:28Z</time>
      </trkpt>
      <trkpt lat="42.8692356" lon="-5.3707672">
        <ele>1565.2</ele>
        <time>2016-05-03T16:45:30Z</time>
      </trkpt>
      <trkpt lat="42.8690931" lon="-5.3707849">
        <ele>1564.2</ele>
        <time>2016-05-03T16:45:32Z</time>
      </trkpt>
      <trkpt lat="42.8687443" lon="-5.3708619">
        <ele>1562.4</ele>
        <time>2016-05-03T16:45:37Z</time>
      </trkpt>
      <trkpt lat="42.8686336" lon="-5.3709167">
        <ele>1560.8</ele>
        <time>2016-05-03T16:45:39Z</time>
      </trkpt>
      <trkpt lat="42.8685115" lon="-5.3709861">
        <ele>1553.5</ele>
        <time>2016-05-03T16:45:41Z</time>
      </trkpt>
      <trkpt lat="42.8684486" lon="-5.3710076">
        <ele>1553.5</ele>
        <time>2016-05-03T16:45:42Z</time>
      </trkpt>
      <trkpt lat="42.8683866" lon="-5.3710127">
        <ele>1553.5</ele>
        <time>2016-05-03T16:45:43Z</time>
      </trkpt>
      <trkpt lat="42.8683322" lon="-5.3710148">
        <ele>1553.5</ele>
        <time>2016-05-03T16:45:44Z</time>
      </trkpt>
      <trkpt lat="42.8681519" lon="-5.3710121">
        <ele>1548.5</ele>
        <time>2016-05-03T16:45:48Z</time>
      </trkpt>
      <trkpt lat="42.8680278" lon="-5.3710541">
        <ele>1545.8</ele>
        <time>2016-05-03T16:45:50Z</time>
      </trkpt>
      <trkpt lat="42.8679161" lon="-5.3711075">
        <ele>1543.5</ele>
        <time>2016-05-03T16:45:52Z</time>
      </trkpt>
      <trkpt lat="42.8678146" lon="-5.3711593">
        <ele>1541.8</ele>
        <time>2016-05-03T16:45:54Z</time>
      </trkpt>
      <trkpt lat="42.8675953" lon="-5.3712917">
        <ele>1536.9</ele>
        <time>2016-05-03T16:45:59Z</time>
      </trkpt>
      <trkpt lat="42.8674161" lon="-5.3714049">
        <ele>1534.4</ele>
        <time>2016-05-03T16:46:02Z</time>
      </trkpt>
      <trkpt lat="42.8672765" lon="-5.3713108">
        <ele>1534.1</ele>
        <time>2016-05-03T16:46:05Z</time>
      </trkpt>
      <trkpt lat="42.8671463" lon="-5.3711651">
        <ele>1534.1</ele>
        <time>2016-05-03T16:46:08Z</time>
      </trkpt>
      <trkpt lat="42.8669593" lon="-5.3710861">
        <ele>1534.0</ele>
        <time>2016-05-03T16:46:11Z</time>
      </trkpt>
      <trkpt lat="42.866836" lon="-5.3710944">
        <ele>1534.0</ele>
        <time>2016-05-03T16:46:13Z</time>
      </trkpt>
      <trkpt lat="42.8667111" lon="-5.3711202">
        <ele>1534.0</ele>
        <time>2016-05-03T16:46:15Z</time>
      </trkpt>
      <trkpt lat="42.8666519" lon="-5.3711168">
        <ele>1534.0</ele>
        <time>2016-05-03T16:46:16Z</time>
      </trkpt>
      <trkpt lat="42.8665952" lon="-5.3710964">
        <ele>1534.0</ele>
        <time>2016-05-03T16:46:17Z</time>
      </trkpt>
      <trkpt lat="42.8665453" lon="-5.3710547">
        <ele>1534.0</ele>
        <time>2016-05-03T16:46:18Z</time>
      </trkpt>
      <trkpt lat="42.8664999" lon="-5.371016">
        <ele>1534.0</ele>
        <time>2016-05-03T16:46:19Z</time>
      </trkpt>
      <trkpt lat="42.866365" lon="-5.3709071">
        <ele>1534.0</ele>
        <time>2016-05-03T16:46:22Z</time>
      </trkpt>
      <trkpt lat="42.8662431" lon="-5.3707597">
        <ele>1534.0</ele>
        <time>2016-05-03T16:46:25Z</time>
      </trkpt>
      <trkpt lat="42.8661104" lon="-5.3705998">
        <ele>1534.0</ele>
        <time>2016-05-03T16:46:28Z</time>
      </trkpt>
      <trkpt lat="42.865951" lon="-5.3704832">
        <ele>1535.0</ele>
        <time>2016-05-03T16:46:31Z</time>
      </trkpt>
      <trkpt lat="42.865831" lon="-5.3704627">
        <ele>1536.9</ele>
        <time>2016-05-03T16:46:33Z</time>
      </trkpt>
      <trkpt lat="42.8657287" lon="-5.3704602">
        <ele>1538.6</ele>
        <time>2016-05-03T16:46:35Z</time>
      </trkpt>
      <trkpt lat="42.8656246" lon="-5.370488">
        <ele>1539.9</ele>
        <time>2016-05-03T16:46:37Z</time>
      </trkpt>
      <trkpt lat="42.8653492" lon="-5.3706518">
        <ele>1541.7</ele>
        <time>2016-05-03T16:46:42Z</time>
      </trkpt>
      <trkpt lat="42.8652596" lon="-5.3708278">
        <ele>1543.1</ele>
        <time>2016-05-03T16:46:44Z</time>
      </trkpt>
      <trkpt lat="42.8652016" lon="-5.3710593">
        <ele>1545.0</ele>
        <time>2016-05-03T16:46:47Z</time>
      </trkpt>
      <trkpt lat="42.8652194" lon="-5.3713385">
        <ele>1546.4</ele>
        <time>2016-05-03T16:46:49Z</time>
      </trkpt>
      <trkpt lat="42.8651824" lon="-5.3715989">
        <ele>1547.9</ele>
        <time>2016-05-03T16:46:51Z</time>
      </trkpt>
      <trkpt lat="42.8650995" lon="-5.3717936">
        <ele>1549.5</ele>
        <time>2016-05-03T16:46:53Z</time>
      </trkpt>
      <trkpt lat="42.8649738" lon="-5.3719581">
        <ele>1550.4</ele>
        <time>2016-05-03T16:46:55Z</time>
      </trkpt>
      <trkpt lat="42.864836" lon="-5.3720653">
        <ele>1550.9</ele>
        <time>2016-05-03T16:46:57Z</time>
      </trkpt>
      <trkpt lat="42.8647048" lon="-5.3721549">
        <ele>1551.0</ele>
        <time>2016-05-03T16:46:59Z</time>
      </trkpt>
      <trkpt lat="42.8645775" lon="-5.3722668">
        <ele>1551.2</ele>
        <time>2016-05-03T16:47:01Z</time>
      </trkpt>
      <trkpt lat="42.8644081" lon="-5.3723746">
        <ele>1551.5</ele>
        <time>2016-05-03T16:47:04Z</time>
      </trkpt>
      <trkpt lat="42.8642919" lon="-5.3724364">
        <ele>1551.9</ele>
        <time>2016-05-03T16:47:06Z</time>
      </trkpt>
      <trkpt lat="42.864174" lon="-5.3725104">
        <ele>1552.3</ele>
        <time>2016-05-03T16:47:08Z</time>
      </trkpt>
      <trkpt lat="42.8640532" lon="-5.3725891">
        <ele>1552.6</ele>
        <time>2016-05-03T16:47:10Z</time>
      </trkpt>
      <trkpt lat="42.8639447" lon="-5.3726688">
        <ele>1552.8</ele>
        <time>2016-05-03T16:47:12Z</time>
      </trkpt>
      <trkpt lat="42.8636614" lon="-5.3728277">
        <ele>1553.3</ele>
        <time>2016-05-03T16:47:16Z</time>
      </trkpt>
      <trkpt lat="42.8634697" lon="-5.3729129">
        <ele>1554.0</ele>
        <time>2016-05-03T16:47:19Z</time>
      </trkpt>
      <trkpt lat="42.863287" lon="-5.3730358">
        <ele>1554.4</ele>
        <time>2016-05-03T16:47:22Z</time>
      </trkpt>
      <trkpt lat="42.8631738" lon="-5.373148">
        <ele>1554.8</ele>
        <time>2016-05-03T16:47:24Z</time>
      </trkpt>
      <trkpt lat="42.8630337" lon="-5.3733095">
        <ele>1558.8</ele>
        <time>2016-05-03T16:47:27Z</time>
      </trkpt>
      <trkpt lat="42.8629305" lon="-5.3734308">
        <ele>1562.2</ele>
        <time>2016-05-03T16:47:29Z</time>
      </trkpt>
      <trkpt lat="42.8628224" lon="-5.3735681">
        <ele>1565.6</ele>
        <time>2016-05-03T16:47:31Z</time>
      </trkpt>
      <trkpt lat="42.8626721" lon="-5.3737747">
        <ele>1568.4</ele>
        <time>2016-05-03T16:47:34Z</time>
      </trkpt>
      <trkpt lat="42.8625532" lon="-5.373938">
        <ele>1570.6</ele>
        <time>2016-05-03T16:47:37Z</time>
      </trkpt>
      <trkpt lat="42.8623998" lon="-5.3741267">
        <ele>1573.5</ele>
        <time>2016-05-03T16:47:40Z</time>
      </trkpt>
      <trkpt lat="42.8623046" lon="-5.3742948">
        <ele>1575.8</ele>
        <time>2016-05-03T16:47:43Z</time>
      </trkpt>
      <trkpt lat="42.8621811" lon="-5.3744052">
        <ele>1577.7</ele>
        <time>2016-05-03T16:47:46Z</time>
      </trkpt>
      <trkpt lat="42.862022" lon="-5.3744789">
        <ele>1586.2</ele>
        <time>2016-05-03T16:47:50Z</time>
      </trkpt>
      <trkpt lat="42.8618855" lon="-5.3744642">
        <ele>1587.6</ele>
        <time>2016-05-03T16:47:53Z</time>
      </trkpt>
      <trkpt lat="42.8617581" lon="-5.3743265">
        <ele>1593.9</ele>
        <time>2016-05-03T16:47:56Z</time>
      </trkpt>
      <trkpt lat="42.8616668" lon="-5.3741611">
        <ele>1598.6</ele>
        <time>2016-05-03T16:47:58Z</time>
      </trkpt>
      <trkpt lat="42.8615811" lon="-5.3739453">
        <ele>1601.9</ele>
        <time>2016-05-03T16:48:00Z</time>
      </trkpt>
      <trkpt lat="42.8615113" lon="-5.3737648">
        <ele>1605.6</ele>
        <time>2016-05-03T16:48:02Z</time>
      </trkpt>
      <trkpt lat="42.8614333" lon="-5.373526">
        <ele>1611.7</ele>
        <time>2016-05-03T16:48:05Z</time>
      </trkpt>
      <trkpt lat="42.8613587" lon="-5.3732795">
        <ele>1618.8</ele>
        <time>2016-05-03T16:48:08Z</time>
      </trkpt>
      <trkpt lat="42.8612895" lon="-5.3730848">
        <ele>1622.3</ele>
        <time>2016-05-03T16:48:10Z</time>
      </trkpt>
      <trkpt lat="42.8611716" lon="-5.3729081">
        <ele>1629.7</ele>
        <time>2016-05-03T16:48:13Z</time>
      </trkpt>
      <trkpt lat="42.8610494" lon="-5.3728537">
        <ele>1634.8</ele>
        <time>2016-05-03T16:48:16Z</time>
      </trkpt>
      <trkpt lat="42.8609509" lon="-5.3728661">
        <ele>1638.6</ele>
        <time>2016-05-03T16:48:19Z</time>
      </trkpt>
      <trkpt lat="42.860856" lon="-5.372961">
        <ele>1645.7</ele>
        <time>2016-05-03T16:48:22Z</time>
      </trkpt>
      <trkpt lat="42.8607079" lon="-5.3730111">
        <ele>1648.2</ele>
        <time>2016-05-03T16:48:27Z</time>
      </trkpt>
      <trkpt lat="42.8605809" lon="-5.3728376">
        <ele>1648.3</ele>
        <time>2016-05-03T16:48:30Z</time>
      </trkpt>
      <trkpt lat="42.8605545" lon="-5.3726123">
        <ele>1648.3</ele>
        <time>2016-05-03T16:48:32Z</time>
      </trkpt>
      <trkpt lat="42.8605919" lon="-5.3723439">
        <ele>1648.3</ele>
        <time>2016-05-03T16:48:34Z</time>
      </trkpt>
      <trkpt lat="42.8606751" lon="-5.3721445">
        <ele>1648.3</ele>
        <time>2016-05-03T16:48:36Z</time>
      </trkpt>
      <trkpt lat="42.860719" lon="-5.371925">
        <ele>1648.3</ele>
        <time>2016-05-03T16:48:38Z</time>
      </trkpt>
      <trkpt lat="42.8607521" lon="-5.3716874">
        <ele>1648.3</ele>
        <time>2016-05-03T16:48:40Z</time>
      </trkpt>
      <trkpt lat="42.8608193" lon="-5.3714767">
        <ele>1648.3</ele>
        <time>2016-05-03T16:48:42Z</time>
      </trkpt>
      <trkpt lat="42.8608924" lon="-5.3712902">
        <ele>1648.3</ele>
        <time>2016-05-03T16:48:44Z</time>
      </trkpt>
      <trkpt lat="42.8609742" lon="-5.3710634">
        <ele>1648.3</ele>
        <time>2016-05-03T16:48:46Z</time>
      </trkpt>
      <trkpt lat="42.8610447" lon="-5.3708128">
        <ele>1648.3</ele>
        <time>2016-05-03T16:48:48Z</time>
      </trkpt>
      <trkpt lat="42.8610927" lon="-5.3705807">
        <ele>1648.3</ele>
        <time>2016-05-03T16:48:50Z</time>
      </trkpt>
      <trkpt lat="42.8611212" lon="-5.3703242">
        <ele>1648.3</ele>
        <time>2016-05-03T16:48:52Z</time>
      </trkpt>
      <trkpt lat="42.8611685" lon="-5.3700275">
        <ele>1647.6</ele>
        <time>2016-05-03T16:48:54Z</time>
      </trkpt>
      <trkpt lat="42.8612187" lon="-5.3697378">
        <ele>1646.9</ele>
        <time>2016-05-03T16:48:56Z</time>
      </trkpt>
      <trkpt lat="42.8612293" lon="-5.3694851">
        <ele>1646.5</ele>
        <time>2016-05-03T16:48:58Z</time>
      </trkpt>
      <trkpt lat="42.8612169" lon="-5.369233">
        <ele>1646.2</ele>
        <time>2016-05-03T16:49:00Z</time>
      </trkpt>
      <trkpt lat="42.8612089" lon="-5.3689399">
        <ele>1645.9</ele>
        <time>2016-05-03T16:49:02Z</time>
      </trkpt>
      <trkpt lat="42.8611808" lon="-5.3687203">
        <ele>1645.4</ele>
        <time>2016-05-03T16:49:04Z</time>
      </trkpt>
      <trkpt lat="42.861187" lon="-5.368491">
        <ele>1644.4</ele>
        <time>2016-05-03T16:49:06Z</time>
      </trkpt>
      <trkpt lat="42.8611561" lon="-5.3682903">
        <ele>1643.2</ele>
        <time>2016-05-03T16:49:08Z</time>
      </trkpt>
      <trkpt lat="42.8611045" lon="-5.3681067">
        <ele>1642.7</ele>
        <time>2016-05-03T16:49:10Z</time>
      </trkpt>
      <trkpt lat="42.8610821" lon="-5.3679026">
        <ele>1642.5</ele>
        <time>2016-05-03T16:49:12Z</time>
      </trkpt>
      <trkpt lat="42.8610486" lon="-5.3676841">
        <ele>1642.3</ele>
        <time>2016-05-03T16:49:14Z</time>
      </trkpt>
      <trkpt lat="42.8610153" lon="-5.3674786">
        <ele>1642.1</ele>
        <time>2016-05-03T16:49:16Z</time>
      </trkpt>
      <trkpt lat="42.8609881" lon="-5.367283">
        <ele>1641.8</ele>
        <time>2016-05-03T16:49:18Z</time>
      </trkpt>
      <trkpt lat="42.8609464" lon="-5.3670929">
        <ele>1641.8</ele>
        <time>2016-05-03T16:49:20Z</time>
      </trkpt>
      <trkpt lat="42.8608995" lon="-5.3668916">
        <ele>1641.8</ele>
        <time>2016-05-03T16:49:22Z</time>
      </trkpt>
      <trkpt lat="42.8608745" lon="-5.3666839">
        <ele>1641.7</ele>
        <time>2016-05-03T16:49:24Z</time>
      </trkpt>
      <trkpt lat="42.8608753" lon="-5.3664625">
        <ele>1641.7</ele>
        <time>2016-05-03T16:49:26Z</time>
      </trkpt>
      <trkpt lat="42.8608691" lon="-5.3662728">
        <ele>1641.8</ele>
        <time>2016-05-03T16:49:28Z</time>
      </trkpt>
      <trkpt lat="42.8608571" lon="-5.3660804">
        <ele>1642.1</ele>
        <time>2016-05-03T16:49:30Z</time>
      </trkpt>
      <trkpt lat="42.8608639" lon="-5.3658829">
        <ele>1642.3</ele>
        <time>2016-05-03T16:49:32Z</time>
      </trkpt>
      <trkpt lat="42.8608369" lon="-5.3656762">
        <ele>1642.4</ele>
        <time>2016-05-03T16:49:34Z</time>
      </trkpt>
      <trkpt lat="42.8608024" lon="-5.3654949">
        <ele>1642.4</ele>
        <time>2016-05-03T16:49:36Z</time>
      </trkpt>
      <trkpt lat="42.8607175" lon="-5.3652535">
        <ele>1642.4</ele>
        <time>2016-05-03T16:49:39Z</time>
      </trkpt>
      <trkpt lat="42.860693" lon="-5.3650689">
        <ele>1642.4</ele>
        <time>2016-05-03T16:49:41Z</time>
      </trkpt>
      <trkpt lat="42.8607155" lon="-5.3648054">
        <ele>1642.4</ele>
        <time>2016-05-03T16:49:44Z</time>
      </trkpt>
      <trkpt lat="42.8606519" lon="-5.3646128">
        <ele>1642.3</ele>
        <time>2016-05-03T16:49:46Z</time>
      </trkpt>
      <trkpt lat="42.8606004" lon="-5.3644226">
        <ele>1641.9</ele>
        <time>2016-05-03T16:49:48Z</time>
      </trkpt>
      <trkpt lat="42.8604689" lon="-5.3642218">
        <ele>1641.7</ele>
        <time>2016-05-03T16:49:51Z</time>
      </trkpt>
      <trkpt lat="42.8603607" lon="-5.3640643">
        <ele>1641.2</ele>
        <time>2016-05-03T16:49:53Z</time>
      </trkpt>
      <trkpt lat="42.8602593" lon="-5.3639198">
        <ele>1641.0</ele>
        <time>2016-05-03T16:49:55Z</time>
      </trkpt>
      <trkpt lat="42.8601931" lon="-5.3637343">
        <ele>1640.9</ele>
        <time>2016-05-03T16:49:57Z</time>
      </trkpt>
      <trkpt lat="42.8601348" lon="-5.3635465">
        <ele>1640.9</ele>
        <time>2016-05-03T16:49:59Z</time>
      </trkpt>
      <trkpt lat="42.8600638" lon="-5.3633478">
        <ele>1640.9</ele>
        <time>2016-05-03T16:50:01Z</time>
      </trkpt>
      <trkpt lat="42.8600239" lon="-5.3631321">
        <ele>1640.9</ele>
        <time>2016-05-03T16:50:03Z</time>
      </trkpt>
      <trkpt lat="42.8600041" lon="-5.3629112">
        <ele>1640.9</ele>
        <time>2016-05-03T16:50:05Z</time>
      </trkpt>
      <trkpt lat="42.8599849" lon="-5.3626727">
        <ele>1639.4</ele>
        <time>2016-05-03T16:50:07Z</time>
      </trkpt>
      <trkpt lat="42.8599798" lon="-5.3624261">
        <ele>1637.6</ele>
        <time>2016-05-03T16:50:10Z</time>
      </trkpt>
      <trkpt lat="42.8599882" lon="-5.3622077">
        <ele>1636.6</ele>
        <time>2016-05-03T16:50:12Z</time>
      </trkpt>
      <trkpt lat="42.8600081" lon="-5.3619726">
        <ele>1636.2</ele>
        <time>2016-05-03T16:50:14Z</time>
      </trkpt>
      <trkpt lat="42.8600191" lon="-5.3617471">
        <ele>1635.9</ele>
        <time>2016-05-03T16:50:16Z</time>
      </trkpt>
      <trkpt lat="42.860043" lon="-5.3615407">
        <ele>1635.6</ele>
        <time>2016-05-03T16:50:18Z</time>
      </trkpt>
      <trkpt lat="42.8600793" lon="-5.3613438">
        <ele>1635.4</ele>
        <time>2016-05-03T16:50:20Z</time>
      </trkpt>
      <trkpt lat="42.8601113" lon="-5.3611265">
        <ele>1635.1</ele>
        <time>2016-05-03T16:50:22Z</time>
      </trkpt>
      <trkpt lat="42.8601386" lon="-5.3609276">
        <ele>1634.9</ele>
        <time>2016-05-03T16:50:24Z</time>
      </trkpt>
      <trkpt lat="42.8601711" lon="-5.3607277">
        <ele>1634.8</ele>
        <time>2016-05-03T16:50:26Z</time>
      </trkpt>
      <trkpt lat="42.8602027" lon="-5.3605001">
        <ele>1634.7</ele>
        <time>2016-05-03T16:50:28Z</time>
      </trkpt>
      <trkpt lat="42.8602442" lon="-5.360265">
        <ele>1634.5</ele>
        <time>2016-05-03T16:50:30Z</time>
      </trkpt>
      <trkpt lat="42.860286" lon="-5.36005">
        <ele>1633.4</ele>
        <time>2016-05-03T16:50:32Z</time>
      </trkpt>
      <trkpt lat="42.8603073" lon="-5.3598545">
        <ele>1630.8</ele>
        <time>2016-05-03T16:50:34Z</time>
      </trkpt>
      <trkpt lat="42.8603302" lon="-5.3596383">
        <ele>1628.2</ele>
        <time>2016-05-03T16:50:36Z</time>
      </trkpt>
      <trkpt lat="42.8603499" lon="-5.3594324">
        <ele>1623.9</ele>
        <time>2016-05-03T16:50:38Z</time>
      </trkpt>
      <trkpt lat="42.8603409" lon="-5.3592306">
        <ele>1618.7</ele>
        <time>2016-05-03T16:50:40Z</time>
      </trkpt>
      <trkpt lat="42.8603228" lon="-5.3590349">
        <ele>1614.0</ele>
        <time>2016-05-03T16:50:42Z</time>
      </trkpt>
      <trkpt lat="42.860331" lon="-5.3587514">
        <ele>1607.3</ele>
        <time>2016-05-03T16:50:45Z</time>
      </trkpt>
      <trkpt lat="42.8603761" lon="-5.3585305">
        <ele>1604.3</ele>
        <time>2016-05-03T16:50:47Z</time>
      </trkpt>
      <trkpt lat="42.8604623" lon="-5.3582976">
        <ele>1602.5</ele>
        <time>2016-05-03T16:50:49Z</time>
      </trkpt>
      <trkpt lat="42.8605628" lon="-5.3580623">
        <ele>1600.4</ele>
        <time>2016-05-03T16:50:51Z</time>
      </trkpt>
      <trkpt lat="42.8606594" lon="-5.35784">
        <ele>1596.5</ele>
        <time>2016-05-03T16:50:53Z</time>
      </trkpt>
      <trkpt lat="42.8607413" lon="-5.3576047">
        <ele>1593.2</ele>
        <time>2016-05-03T16:50:55Z</time>
      </trkpt>
      <trkpt lat="42.8608155" lon="-5.3573583">
        <ele>1590.0</ele>
        <time>2016-05-03T16:50:57Z</time>
      </trkpt>
      <trkpt lat="42.8608621" lon="-5.3571166">
        <ele>1585.7</ele>
        <time>2016-05-03T16:50:59Z</time>
      </trkpt>
      <trkpt lat="42.8608766" lon="-5.3568603">
        <ele>1582.0</ele>
        <time>2016-05-03T16:51:01Z</time>
      </trkpt>
      <trkpt lat="42.8608681" lon="-5.35666">
        <ele>1580.1</ele>
        <time>2016-05-03T16:51:03Z</time>
      </trkpt>
      <trkpt lat="42.8607231" lon="-5.3565661">
        <ele>1579.3</ele>
        <time>2016-05-03T16:51:06Z</time>
      </trkpt>
      <trkpt lat="42.8606191" lon="-5.3565775">
        <ele>1578.7</ele>
        <time>2016-05-03T16:51:09Z</time>
      </trkpt>
      <trkpt lat="42.8605413" lon="-5.3566491">
        <ele>1578.0</ele>
        <time>2016-05-03T16:51:11Z</time>
      </trkpt>
      <trkpt lat="42.8604872" lon="-5.3568871">
        <ele>1577.1</ele>
        <time>2016-05-03T16:51:14Z</time>
      </trkpt>
      <trkpt lat="42.8605169" lon="-5.3571026">
        <ele>1576.8</ele>
        <time>2016-05-03T16:51:16Z</time>
      </trkpt>
      <trkpt lat="42.8605866" lon="-5.3573489">
        <ele>1576.3</ele>
        <time>2016-05-03T16:51:18Z</time>
      </trkpt>
      <trkpt lat="42.8606841" lon="-5.3575925">
        <ele>1575.7</ele>
        <time>2016-05-03T16:51:20Z</time>
      </trkpt>
      <trkpt lat="42.8607775" lon="-5.3578209">
        <ele>1574.8</ele>
        <time>2016-05-03T16:51:22Z</time>
      </trkpt>
      <trkpt lat="42.860898" lon="-5.3580312">
        <ele>1572.9</ele>
        <time>2016-05-03T16:51:24Z</time>
      </trkpt>
      <trkpt lat="42.8610073" lon="-5.3582505">
        <ele>1570.1</ele>
        <time>2016-05-03T16:51:26Z</time>
      </trkpt>
      <trkpt lat="42.8611525" lon="-5.3584415">
        <ele>1565.1</ele>
        <time>2016-05-03T16:51:28Z</time>
      </trkpt>
      <trkpt lat="42.8612935" lon="-5.3585828">
        <ele>1562.6</ele>
        <time>2016-05-03T16:51:29Z</time>
      </trkpt>
      <trkpt lat="42.861395" lon="-5.3588032">
        <ele>1558.1</ele>
        <time>2016-05-03T16:51:31Z</time>
      </trkpt>
      <trkpt lat="42.8615226" lon="-5.3590247">
        <ele>1554.2</ele>
        <time>2016-05-03T16:51:33Z</time>
      </trkpt>
      <trkpt lat="42.86163" lon="-5.3592361">
        <ele>1550.8</ele>
        <time>2016-05-03T16:51:35Z</time>
      </trkpt>
      <trkpt lat="42.8617535" lon="-5.3594679">
        <ele>1546.9</ele>
        <time>2016-05-03T16:51:37Z</time>
      </trkpt>
      <trkpt lat="42.8618753" lon="-5.359695">
        <ele>1543.3</ele>
        <time>2016-05-03T16:51:39Z</time>
      </trkpt>
      <trkpt lat="42.8619898" lon="-5.3599152">
        <ele>1538.4</ele>
        <time>2016-05-03T16:51:41Z</time>
      </trkpt>
      <trkpt lat="42.8621188" lon="-5.3601632">
        <ele>1532.6</ele>
        <time>2016-05-03T16:51:43Z</time>
      </trkpt>
      <trkpt lat="42.8622117" lon="-5.3603037">
        <ele>1529.9</ele>
        <time>2016-05-03T16:51:44Z</time>
      </trkpt>
      <trkpt lat="42.8623444" lon="-5.3605313">
        <ele>1524.2</ele>
        <time>2016-05-03T16:51:46Z</time>
      </trkpt>
      <trkpt lat="42.8624601" lon="-5.3607401">
        <ele>1518.6</ele>
        <time>2016-05-03T16:51:48Z</time>
      </trkpt>
      <trkpt lat="42.8625787" lon="-5.3609805">
        <ele>1516.0</ele>
        <time>2016-05-03T16:51:50Z</time>
      </trkpt>
      <trkpt lat="42.8627074" lon="-5.3612319">
        <ele>1511.6</ele>
        <time>2016-05-03T16:51:52Z</time>
      </trkpt>
      <trkpt lat="42.8628147" lon="-5.3614484">
        <ele>1506.4</ele>
        <time>2016-05-03T16:51:54Z</time>
      </trkpt>
      <trkpt lat="42.8629121" lon="-5.3616734">
        <ele>1502.9</ele>
        <time>2016-05-03T16:51:56Z</time>
      </trkpt>
      <trkpt lat="42.8630183" lon="-5.3619374">
        <ele>1501.3</ele>
        <time>2016-05-03T16:51:58Z</time>
      </trkpt>
      <trkpt lat="42.8631308" lon="-5.362175">
        <ele>1498.3</ele>
        <time>2016-05-03T16:52:00Z</time>
      </trkpt>
      <trkpt lat="42.8632464" lon="-5.3623956">
        <ele>1495.7</ele>
        <time>2016-05-03T16:52:02Z</time>
      </trkpt>
      <trkpt lat="42.8633813" lon="-5.3626234">
        <ele>1494.7</ele>
        <time>2016-05-03T16:52:04Z</time>
      </trkpt>
      <trkpt lat="42.8634946" lon="-5.3628554">
        <ele>1493.9</ele>
        <time>2016-05-03T16:52:06Z</time>
      </trkpt>
      <trkpt lat="42.8636077" lon="-5.3631146">
        <ele>1493.5</ele>
        <time>2016-05-03T16:52:08Z</time>
      </trkpt>
      <trkpt lat="42.8637165" lon="-5.3633922">
        <ele>1493.3</ele>
        <time>2016-05-03T16:52:10Z</time>
      </trkpt>
      <trkpt lat="42.8638151" lon="-5.3636289">
        <ele>1493.2</ele>
        <time>2016-05-03T16:52:12Z</time>
      </trkpt>
      <trkpt lat="42.8639038" lon="-5.3638591">
        <ele>1493.1</ele>
        <time>2016-05-03T16:52:14Z</time>
      </trkpt>
      <trkpt lat="42.8639725" lon="-5.3641187">
        <ele>1492.9</ele>
        <time>2016-05-03T16:52:16Z</time>
      </trkpt>
      <trkpt lat="42.8640122" lon="-5.3643813">
        <ele>1492.6</ele>
        <time>2016-05-03T16:52:18Z</time>
      </trkpt>
      <trkpt lat="42.8640547" lon="-5.3646035">
        <ele>1492.3</ele>
        <time>2016-05-03T16:52:20Z</time>
      </trkpt>
      <trkpt lat="42.8640982" lon="-5.364839">
        <ele>1491.2</ele>
        <time>2016-05-03T16:52:22Z</time>
      </trkpt>
      <trkpt lat="42.8641287" lon="-5.3651071">
        <ele>1490.7</ele>
        <time>2016-05-03T16:52:24Z</time>
      </trkpt>
      <trkpt lat="42.8641806" lon="-5.3653515">
        <ele>1490.3</ele>
        <time>2016-05-03T16:52:26Z</time>
      </trkpt>
      <trkpt lat="42.864264" lon="-5.3655768">
        <ele>1488.3</ele>
        <time>2016-05-03T16:52:28Z</time>
      </trkpt>
      <trkpt lat="42.8643664" lon="-5.3658391">
        <ele>1486.0</ele>
        <time>2016-05-03T16:52:30Z</time>
      </trkpt>
      <trkpt lat="42.8644442" lon="-5.3660959">
        <ele>1484.0</ele>
        <time>2016-05-03T16:52:32Z</time>
      </trkpt>
      <trkpt lat="42.8645184" lon="-5.3663218">
        <ele>1480.3</ele>
        <time>2016-05-03T16:52:34Z</time>
      </trkpt>
      <trkpt lat="42.8645942" lon="-5.3665561">
        <ele>1475.0</ele>
        <time>2016-05-03T16:52:36Z</time>
      </trkpt>
      <trkpt lat="42.8646718" lon="-5.3668096">
        <ele>1469.1</ele>
        <time>2016-05-03T16:52:38Z</time>
      </trkpt>
      <trkpt lat="42.8647095" lon="-5.3670508">
        <ele>1463.8</ele>
        <time>2016-05-03T16:52:40Z</time>
      </trkpt>
      <trkpt lat="42.8647706" lon="-5.3672837">
        <ele>1461.2</ele>
        <time>2016-05-03T16:52:42Z</time>
      </trkpt>
      <trkpt lat="42.8648082" lon="-5.3675229">
        <ele>1460.1</ele>
        <time>2016-05-03T16:52:44Z</time>
      </trkpt>
      <trkpt lat="42.8648343" lon="-5.367769">
        <ele>1458.3</ele>
        <time>2016-05-03T16:52:46Z</time>
      </trkpt>
      <trkpt lat="42.8648521" lon="-5.3680052">
        <ele>1456.7</ele>
        <time>2016-05-03T16:52:48Z</time>
      </trkpt>
      <trkpt lat="42.8648627" lon="-5.3682222">
        <ele>1455.9</ele>
        <time>2016-05-03T16:52:50Z</time>
      </trkpt>
      <trkpt lat="42.8648815" lon="-5.3684219">
        <ele>1454.6</ele>
        <time>2016-05-03T16:52:52Z</time>
      </trkpt>
      <trkpt lat="42.864889" lon="-5.3686359">
        <ele>1452.5</ele>
        <time>2016-05-03T16:52:54Z</time>
      </trkpt>
      <trkpt lat="42.8649147" lon="-5.3688592">
        <ele>1452.0</ele>
        <time>2016-05-03T16:52:56Z</time>
      </trkpt>
      <trkpt lat="42.8649654" lon="-5.3690735">
        <ele>1451.9</ele>
        <time>2016-05-03T16:52:58Z</time>
      </trkpt>
      <trkpt lat="42.8649419" lon="-5.3693199">
        <ele>1451.8</ele>
        <time>2016-05-03T16:53:01Z</time>
      </trkpt>
      <trkpt lat="42.8648866" lon="-5.3695272">
        <ele>1451.8</ele>
        <time>2016-05-03T16:53:03Z</time>
      </trkpt>
      <trkpt lat="42.8647441" lon="-5.3696713">
        <ele>1451.8</ele>
        <time>2016-05-03T16:53:06Z</time>
      </trkpt>
      <trkpt lat="42.8646046" lon="-5.3695634">
        <ele>1451.8</ele>
        <time>2016-05-03T16:53:09Z</time>
      </trkpt>
      <trkpt lat="42.864584" lon="-5.3693349">
        <ele>1451.8</ele>
        <time>2016-05-03T16:53:12Z</time>
      </trkpt>
      <trkpt lat="42.8646251" lon="-5.3691535">
        <ele>1451.8</ele>
        <time>2016-05-03T16:53:14Z</time>
      </trkpt>
      <trkpt lat="42.8646588" lon="-5.3688784">
        <ele>1451.8</ele>
        <time>2016-05-03T16:53:17Z</time>
      </trkpt>
      <trkpt lat="42.8646833" lon="-5.3686812">
        <ele>1451.8</ele>
        <time>2016-05-03T16:53:19Z</time>
      </trkpt>
      <trkpt lat="42.8646619" lon="-5.368431">
        <ele>1451.8</ele>
        <time>2016-05-03T16:53:22Z</time>
      </trkpt>
      <trkpt lat="42.8644969" lon="-5.3683251">
        <ele>1452.5</ele>
        <time>2016-05-03T16:53:25Z</time>
      </trkpt>
      <trkpt lat="42.8643994" lon="-5.3684177">
        <ele>1452.9</ele>
        <time>2016-05-03T16:53:27Z</time>
      </trkpt>
      <trkpt lat="42.8642906" lon="-5.368647">
        <ele>1456.2</ele>
        <time>2016-05-03T16:53:30Z</time>
      </trkpt>
      <trkpt lat="42.864245" lon="-5.3689173">
        <ele>1457.2</ele>
        <time>2016-05-03T16:53:33Z</time>
      </trkpt>
      <trkpt lat="42.8642124" lon="-5.3691812">
        <ele>1459.3</ele>
        <time>2016-05-03T16:53:35Z</time>
      </trkpt>
      <trkpt lat="42.8641781" lon="-5.3694105">
        <ele>1460.9</ele>
        <time>2016-05-03T16:53:37Z</time>
      </trkpt>
      <trkpt lat="42.8641389" lon="-5.3696276">
        <ele>1462.3</ele>
        <time>2016-05-03T16:53:39Z</time>
      </trkpt>
      <trkpt lat="42.8640756" lon="-5.3698436">
        <ele>1463.5</ele>
        <time>2016-05-03T16:53:41Z</time>
      </trkpt>
      <trkpt lat="42.8640116" lon="-5.3700323">
        <ele>1465.0</ele>
        <time>2016-05-03T16:53:43Z</time>
      </trkpt>
      <trkpt lat="42.8639071" lon="-5.3702636">
        <ele>1468.9</ele>
        <time>2016-05-03T16:53:46Z</time>
      </trkpt>
      <trkpt lat="42.8638153" lon="-5.3704492">
        <ele>1470.5</ele>
        <time>2016-05-03T16:53:48Z</time>
      </trkpt>
      <trkpt lat="42.8637544" lon="-5.3706356">
        <ele>1471.2</ele>
        <time>2016-05-03T16:53:50Z</time>
      </trkpt>
      <trkpt lat="42.8636525" lon="-5.3708692">
        <ele>1472.5</ele>
        <time>2016-05-03T16:53:53Z</time>
      </trkpt>
      <trkpt lat="42.8635733" lon="-5.371025">
        <ele>1472.9</ele>
        <time>2016-05-03T16:53:55Z</time>
      </trkpt>
      <trkpt lat="42.8634921" lon="-5.371194">
        <ele>1473.4</ele>
        <time>2016-05-03T16:53:57Z</time>
      </trkpt>
      <trkpt lat="42.8633476" lon="-5.3713687">
        <ele>1474.0</ele>
        <time>2016-05-03T16:54:00Z</time>
      </trkpt>
      <trkpt lat="42.8632404" lon="-5.3715621">
        <ele>1474.4</ele>
        <time>2016-05-03T16:54:03Z</time>
      </trkpt>
      <trkpt lat="42.8631519" lon="-5.3717488">
        <ele>1474.7</ele>
        <time>2016-05-03T16:54:06Z</time>
      </trkpt>
      <trkpt lat="42.8630785" lon="-5.3719197">
        <ele>1475.7</ele>
        <time>2016-05-03T16:54:08Z</time>
      </trkpt>
      <trkpt lat="42.8630305" lon="-5.3720917">
        <ele>1477.5</ele>
        <time>2016-05-03T16:54:10Z</time>
      </trkpt>
      <trkpt lat="42.8629869" lon="-5.3722852">
        <ele>1479.3</ele>
        <time>2016-05-03T16:54:12Z</time>
      </trkpt>
      <trkpt lat="42.8629528" lon="-5.3724975">
        <ele>1481.0</ele>
        <time>2016-05-03T16:54:14Z</time>
      </trkpt>
      <trkpt lat="42.8629261" lon="-5.372679">
        <ele>1482.3</ele>
        <time>2016-05-03T16:54:16Z</time>
      </trkpt>
      <trkpt lat="42.8629169" lon="-5.3729001">
        <ele>1484.2</ele>
        <time>2016-05-03T16:54:18Z</time>
      </trkpt>
      <trkpt lat="42.8629122" lon="-5.3731237">
        <ele>1485.4</ele>
        <time>2016-05-03T16:54:20Z</time>
      </trkpt>
      <trkpt lat="42.8628988" lon="-5.3733325">
        <ele>1486.1</ele>
        <time>2016-05-03T16:54:22Z</time>
      </trkpt>
      <trkpt lat="42.8628848" lon="-5.3735204">
        <ele>1486.4</ele>
        <time>2016-05-03T16:54:24Z</time>
      </trkpt>
      <trkpt lat="42.8628434" lon="-5.3737019">
        <ele>1486.5</ele>
        <time>2016-05-03T16:54:26Z</time>
      </trkpt>
      <trkpt lat="42.8628185" lon="-5.3738826">
        <ele>1486.5</ele>
        <time>2016-05-03T16:54:28Z</time>
      </trkpt>
      <trkpt lat="42.8628215" lon="-5.3740912">
        <ele>1486.5</ele>
        <time>2016-05-03T16:54:30Z</time>
      </trkpt>
      <trkpt lat="42.8628595" lon="-5.3743021">
        <ele>1486.5</ele>
        <time>2016-05-03T16:54:32Z</time>
      </trkpt>
      <trkpt lat="42.8628872" lon="-5.3745431">
        <ele>1486.5</ele>
        <time>2016-05-03T16:54:34Z</time>
      </trkpt>
      <trkpt lat="42.8629348" lon="-5.3747735">
        <ele>1486.5</ele>
        <time>2016-05-03T16:54:36Z</time>
      </trkpt>
      <trkpt lat="42.8630101" lon="-5.3749796">
        <ele>1486.5</ele>
        <time>2016-05-03T16:54:38Z</time>
      </trkpt>
      <trkpt lat="42.8630798" lon="-5.3751978">
        <ele>1486.5</ele>
        <time>2016-05-03T16:54:40Z</time>
      </trkpt>
      <trkpt lat="42.8631207" lon="-5.3754472">
        <ele>1486.5</ele>
        <time>2016-05-03T16:54:42Z</time>
      </trkpt>
      <trkpt lat="42.8631027" lon="-5.3756826">
        <ele>1486.5</ele>
        <time>2016-05-03T16:54:44Z</time>
      </trkpt>
      <trkpt lat="42.8630572" lon="-5.3759084">
        <ele>1486.5</ele>
        <time>2016-05-03T16:54:46Z</time>
      </trkpt>
      <trkpt lat="42.8630128" lon="-5.3761131">
        <ele>1486.5</ele>
        <time>2016-05-03T16:54:48Z</time>
      </trkpt>
      <trkpt lat="42.8629592" lon="-5.3763018">
        <ele>1486.5</ele>
        <time>2016-05-03T16:54:50Z</time>
      </trkpt>
      <trkpt lat="42.8629068" lon="-5.3764743">
        <ele>1486.2</ele>
        <time>2016-05-03T16:54:52Z</time>
      </trkpt>
      <trkpt lat="42.8628345" lon="-5.3766443">
        <ele>1485.7</ele>
        <time>2016-05-03T16:54:54Z</time>
      </trkpt>
      <trkpt lat="42.8627675" lon="-5.3768201">
        <ele>1484.1</ele>
        <time>2016-05-03T16:54:56Z</time>
      </trkpt>
      <trkpt lat="42.8626828" lon="-5.377048">
        <ele>1481.7</ele>
        <time>2016-05-03T16:54:59Z</time>
      </trkpt>
      <trkpt lat="42.8625568" lon="-5.3771711">
        <ele>1480.8</ele>
        <time>2016-05-03T16:55:02Z</time>
      </trkpt>
      <trkpt lat="42.8624176" lon="-5.3772758">
        <ele>1479.8</ele>
        <time>2016-05-03T16:55:05Z</time>
      </trkpt>
      <trkpt lat="42.8623001" lon="-5.3773796">
        <ele>1478.8</ele>
        <time>2016-05-03T16:55:08Z</time>
      </trkpt>
      <trkpt lat="42.8621544" lon="-5.3774131">
        <ele>1478.3</ele>
        <time>2016-05-03T16:55:11Z</time>
      </trkpt>
      <trkpt lat="42.8620505" lon="-5.3773533">
        <ele>1473.9</ele>
        <time>2016-05-03T16:55:13Z</time>
      </trkpt>
      <trkpt lat="42.862005" lon="-5.3773078">
        <ele>1473.9</ele>
        <time>2016-05-03T16:55:14Z</time>
      </trkpt>
      <trkpt lat="42.8619687" lon="-5.3772396">
        <ele>1473.9</ele>
        <time>2016-05-03T16:55:15Z</time>
      </trkpt>
      <trkpt lat="42.8619317" lon="-5.3771589">
        <ele>1473.9</ele>
        <time>2016-05-03T16:55:16Z</time>
      </trkpt>
      <trkpt lat="42.8618944" lon="-5.3770822">
        <ele>1473.9</ele>
        <time>2016-05-03T16:55:17Z</time>
      </trkpt>
      <trkpt lat="42.8618179" lon="-5.3769017">
        <ele>1473.2</ele>
        <time>2016-05-03T16:55:19Z</time>
      </trkpt>
      <trkpt lat="42.8617521" lon="-5.3766882">
        <ele>1472.2</ele>
        <time>2016-05-03T16:55:21Z</time>
      </trkpt>
      <trkpt lat="42.8616959" lon="-5.3764722">
        <ele>1470.5</ele>
        <time>2016-05-03T16:55:23Z</time>
      </trkpt>
      <trkpt lat="42.8616126" lon="-5.3762323">
        <ele>1468.9</ele>
        <time>2016-05-03T16:55:25Z</time>
      </trkpt>
      <trkpt lat="42.8615589" lon="-5.37601">
        <ele>1468.2</ele>
        <time>2016-05-03T16:55:27Z</time>
      </trkpt>
      <trkpt lat="42.8614743" lon="-5.3758106">
        <ele>1467.6</ele>
        <time>2016-05-03T16:55:29Z</time>
      </trkpt>
      <trkpt lat="42.8614035" lon="-5.3756069">
        <ele>1465.7</ele>
        <time>2016-05-03T16:55:31Z</time>
      </trkpt>
      <trkpt lat="42.8613213" lon="-5.3754039">
        <ele>1463.0</ele>
        <time>2016-05-03T16:55:33Z</time>
      </trkpt>
      <trkpt lat="42.8612595" lon="-5.3751921">
        <ele>1460.1</ele>
        <time>2016-05-03T16:55:35Z</time>
      </trkpt>
      <trkpt lat="42.8611988" lon="-5.3749936">
        <ele>1456.7</ele>
        <time>2016-05-03T16:55:37Z</time>
      </trkpt>
      <trkpt lat="42.8610963" lon="-5.3748708">
        <ele>1453.2</ele>
        <time>2016-05-03T16:55:39Z</time>
      </trkpt>
      <trkpt lat="42.8610702" lon="-5.3747445">
        <ele>1451.2</ele>
        <time>2016-05-03T16:55:40Z</time>
      </trkpt>
      <trkpt lat="42.8611044" lon="-5.3744287">
        <ele>1444.6</ele>
        <time>2016-05-03T16:55:43Z</time>
      </trkpt>
      <trkpt lat="42.8611464" lon="-5.3741799">
        <ele>1440.6</ele>
        <time>2016-05-03T16:55:45Z</time>
      </trkpt>
      <trkpt lat="42.8611929" lon="-5.37395">
        <ele>1436.1</ele>
        <time>2016-05-03T16:55:47Z</time>
      </trkpt>
      <trkpt lat="42.8612802" lon="-5.3737077">
        <ele>1430.1</ele>
        <time>2016-05-03T16:55:49Z</time>
      </trkpt>
      <trkpt lat="42.8613812" lon="-5.3734893">
        <ele>1424.9</ele>
        <time>2016-05-03T16:55:51Z</time>
      </trkpt>
      <trkpt lat="42.8614615" lon="-5.3732851">
        <ele>1422.3</ele>
        <time>2016-05-03T16:55:53Z</time>
      </trkpt>
      <trkpt lat="42.861537" lon="-5.3731111">
        <ele>1418.4</ele>
        <time>2016-05-03T16:55:55Z</time>
      </trkpt>
      <trkpt lat="42.8616183" lon="-5.3729284">
        <ele>1415.3</ele>
        <time>2016-05-03T16:55:57Z</time>
      </trkpt>
      <trkpt lat="42.8616928" lon="-5.3727231">
        <ele>1412.8</ele>
        <time>2016-05-03T16:55:59Z</time>
      </trkpt>
      <trkpt lat="42.8617589" lon="-5.3725528">
        <ele>1410.3</ele>
        <time>2016-05-03T16:56:01Z</time>
      </trkpt>
      <trkpt lat="42.8618278" lon="-5.3723905">
        <ele>1407.6</ele>
        <time>2016-05-03T16:56:03Z</time>
      </trkpt>
      <trkpt lat="42.8619259" lon="-5.3722257">
        <ele>1404.4</ele>
        <time>2016-05-03T16:56:05Z</time>
      </trkpt>
      <trkpt lat="42.8620964" lon="-5.3720649">
        <ele>1402.7</ele>
        <time>2016-05-03T16:56:07Z</time>
      </trkpt>
      <trkpt lat="42.8622306" lon="-5.3719093">
        <ele>1402.2</ele>
        <time>2016-05-03T16:56:09Z</time>
      </trkpt>
      <trkpt lat="42.8621811" lon="-5.3716781">
        <ele>1401.0</ele>
        <time>2016-05-03T16:56:11Z</time>
      </trkpt>
      <trkpt lat="42.8621295" lon="-5.3714511">
        <ele>1399.4</ele>
        <time>2016-05-03T16:56:13Z</time>
      </trkpt>
      <trkpt lat="42.8619648" lon="-5.3715577">
        <ele>1399.1</ele>
        <time>2016-05-03T16:56:15Z</time>
      </trkpt>
      <trkpt lat="42.861863" lon="-5.3717835">
        <ele>1399.0</ele>
        <time>2016-05-03T16:56:18Z</time>
      </trkpt>
      <trkpt lat="42.8618797" lon="-5.3720306">
        <ele>1398.9</ele>
        <time>2016-05-03T16:56:20Z</time>
      </trkpt>
      <trkpt lat="42.8619474" lon="-5.3723357">
        <ele>1398.9</ele>
        <time>2016-05-03T16:56:22Z</time>
      </trkpt>
      <trkpt lat="42.8621223" lon="-5.372516">
        <ele>1398.9</ele>
        <time>2016-05-03T16:56:24Z</time>
      </trkpt>
      <trkpt lat="42.8623193" lon="-5.3725873">
        <ele>1398.9</ele>
        <time>2016-05-03T16:56:26Z</time>
      </trkpt>
      <trkpt lat="42.862422" lon="-5.3725817">
        <ele>1398.9</ele>
        <time>2016-05-03T16:56:27Z</time>
      </trkpt>
      <trkpt lat="42.8625185" lon="-5.3725269">
        <ele>1398.9</ele>
        <time>2016-05-03T16:56:28Z</time>
      </trkpt>
      <trkpt lat="42.8625848" lon="-5.3724556">
        <ele>1398.9</ele>
        <time>2016-05-03T16:56:29Z</time>
      </trkpt>
      <trkpt lat="42.8626338" lon="-5.372363">
        <ele>1398.9</ele>
        <time>2016-05-03T16:56:30Z</time>
      </trkpt>
      <trkpt lat="42.8626631" lon="-5.3722995">
        <ele>1398.9</ele>
        <time>2016-05-03T16:56:31Z</time>
      </trkpt>
      <trkpt lat="42.8626822" lon="-5.3720938">
        <ele>1398.9</ele>
        <time>2016-05-03T16:56:33Z</time>
      </trkpt>
      <trkpt lat="42.8626475" lon="-5.3719068">
        <ele>1398.9</ele>
        <time>2016-05-03T16:56:35Z</time>
      </trkpt>
      <trkpt lat="42.8624986" lon="-5.371921">
        <ele>1398.9</ele>
        <time>2016-05-03T16:56:37Z</time>
      </trkpt>
      <trkpt lat="42.8623759" lon="-5.3720265">
        <ele>1398.9</ele>
        <time>2016-05-03T16:56:39Z</time>
      </trkpt>
      <trkpt lat="42.8623515" lon="-5.3722121">
        <ele>1398.9</ele>
        <time>2016-05-03T16:56:41Z</time>
      </trkpt>
      <trkpt lat="42.8623574" lon="-5.3724578">
        <ele>1400.2</ele>
        <time>2016-05-03T16:56:43Z</time>
      </trkpt>
      <trkpt lat="42.8624374" lon="-5.3727862">
        <ele>1403.4</ele>
        <time>2016-05-03T16:56:45Z</time>
      </trkpt>
      <trkpt lat="42.8625904" lon="-5.3730117">
        <ele>1405.2</ele>
        <time>2016-05-03T16:56:47Z</time>
      </trkpt>
      <trkpt lat="42.8627946" lon="-5.3731212">
        <ele>1407.2</ele>
        <time>2016-05-03T16:56:49Z</time>
      </trkpt>
      <trkpt lat="42.8631358" lon="-5.3731196">
        <ele>1408.3</ele>
        <time>2016-05-03T16:56:52Z</time>
      </trkpt>
      <trkpt lat="42.8632228" lon="-5.3730829">
        <ele>1412.7</ele>
        <time>2016-05-03T16:56:53Z</time>
      </trkpt>
      <trkpt lat="42.8632995" lon="-5.3730335">
        <ele>1412.7</ele>
        <time>2016-05-03T16:56:54Z</time>
      </trkpt>
      <trkpt lat="42.8633703" lon="-5.3729761">
        <ele>1412.7</ele>
        <time>2016-05-03T16:56:55Z</time>
      </trkpt>
      <trkpt lat="42.8634303" lon="-5.3728936">
        <ele>1412.7</ele>
        <time>2016-05-03T16:56:56Z</time>
      </trkpt>
      <trkpt lat="42.8634775" lon="-5.3727914">
        <ele>1412.7</ele>
        <time>2016-05-03T16:56:57Z</time>
      </trkpt>
      <trkpt lat="42.8635093" lon="-5.3725405">
        <ele>1413.5</ele>
        <time>2016-05-03T16:56:59Z</time>
      </trkpt>
      <trkpt lat="42.8634709" lon="-5.3723184">
        <ele>1415.2</ele>
        <time>2016-05-03T16:57:01Z</time>
      </trkpt>
      <trkpt lat="42.8633582" lon="-5.3721968">
        <ele>1418.9</ele>
        <time>2016-05-03T16:57:04Z</time>
      </trkpt>
      <trkpt lat="42.8632311" lon="-5.3721897">
        <ele>1421.9</ele>
        <time>2016-05-03T16:57:06Z</time>
      </trkpt>
      <trkpt lat="42.8631228" lon="-5.3722556">
        <ele>1423.0</ele>
        <time>2016-05-03T16:57:08Z</time>
      </trkpt>
      <trkpt lat="42.8630399" lon="-5.3723645">
        <ele>1426.1</ele>
        <time>2016-05-03T16:57:10Z</time>
      </trkpt>
      <trkpt lat="42.8629956" lon="-5.3725929">
        <ele>1429.1</ele>
        <time>2016-05-03T16:57:12Z</time>
      </trkpt>
      <trkpt lat="42.8630687" lon="-5.3728087">
        <ele>1430.3</ele>
        <time>2016-05-03T16:57:14Z</time>
      </trkpt>
      <trkpt lat="42.8631525" lon="-5.3730527">
        <ele>1430.9</ele>
        <time>2016-05-03T16:57:16Z</time>
      </trkpt>
      <trkpt lat="42.8632824" lon="-5.3732843">
        <ele>1432.0</ele>
        <time>2016-05-03T16:57:18Z</time>
      </trkpt>
      <trkpt lat="42.8634717" lon="-5.3734369">
        <ele>1433.7</ele>
        <time>2016-05-03T16:57:20Z</time>
      </trkpt>
      <trkpt lat="42.8636992" lon="-5.3734906">
        <ele>1434.9</ele>
        <time>2016-05-03T16:57:22Z</time>
      </trkpt>
      <trkpt lat="42.8637942" lon="-5.3734829">
        <ele>1439.2</ele>
        <time>2016-05-03T16:57:23Z</time>
      </trkpt>
      <trkpt lat="42.8638721" lon="-5.3734388">
        <ele>1439.2</ele>
        <time>2016-05-03T16:57:24Z</time>
      </trkpt>
      <trkpt lat="42.8639488" lon="-5.3733779">
        <ele>1439.2</ele>
        <time>2016-05-03T16:57:25Z</time>
      </trkpt>
      <trkpt lat="42.8640095" lon="-5.3732834">
        <ele>1439.2</ele>
        <time>2016-05-03T16:57:26Z</time>
      </trkpt>
      <trkpt lat="42.8640594" lon="-5.373167">
        <ele>1439.2</ele>
        <time>2016-05-03T16:57:27Z</time>
      </trkpt>
      <trkpt lat="42.8640896" lon="-5.3729482">
        <ele>1439.9</ele>
        <time>2016-05-03T16:57:29Z</time>
      </trkpt>
      <trkpt lat="42.8639973" lon="-5.3727161">
        <ele>1443.5</ele>
        <time>2016-05-03T16:57:32Z</time>
      </trkpt>
      <trkpt lat="42.8639338" lon="-5.3725532">
        <ele>1447.4</ele>
        <time>2016-05-03T16:57:34Z</time>
      </trkpt>
      <trkpt lat="42.8638508" lon="-5.3723619">
        <ele>1449.0</ele>
        <time>2016-05-03T16:57:36Z</time>
      </trkpt>
      <trkpt lat="42.8637929" lon="-5.3721828">
        <ele>1452.1</ele>
        <time>2016-05-03T16:57:38Z</time>
      </trkpt>
      <trkpt lat="42.8637323" lon="-5.3720145">
        <ele>1455.6</ele>
        <time>2016-05-03T16:57:40Z</time>
      </trkpt>
      <trkpt lat="42.8637375" lon="-5.3717643">
        <ele>1459.6</ele>
        <time>2016-05-03T16:57:43Z</time>
      </trkpt>
      <trkpt lat="42.8637796" lon="-5.371563">
        <ele>1463.0</ele>
        <time>2016-05-03T16:57:45Z</time>
      </trkpt>
      <trkpt lat="42.8638567" lon="-5.3713629">
        <ele>1465.6</ele>
        <time>2016-05-03T16:57:47Z</time>
      </trkpt>
      <trkpt lat="42.8639218" lon="-5.3711338">
        <ele>1467.4</ele>
        <time>2016-05-03T16:57:49Z</time>
      </trkpt>
      <trkpt lat="42.8639506" lon="-5.3709068">
        <ele>1468.4</ele>
        <time>2016-05-03T16:57:51Z</time>
      </trkpt>
      <trkpt lat="42.8639776" lon="-5.3706598">
        <ele>1469.6</ele>
        <time>2016-05-03T16:57:53Z</time>
      </trkpt>
      <trkpt lat="42.8640378" lon="-5.3704163">
        <ele>1470.8</ele>
        <time>2016-05-03T16:57:55Z</time>
      </trkpt>
      <trkpt lat="42.864101" lon="-5.3701779">
        <ele>1471.4</ele>
        <time>2016-05-03T16:57:57Z</time>
      </trkpt>
      <trkpt lat="42.8642141" lon="-5.3699616">
        <ele>1472.4</ele>
        <time>2016-05-03T16:57:59Z</time>
      </trkpt>
      <trkpt lat="42.8643972" lon="-5.3698367">
        <ele>1473.8</ele>
        <time>2016-05-03T16:58:01Z</time>
      </trkpt>
      <trkpt lat="42.8647183" lon="-5.3698913">
        <ele>1477.3</ele>
        <time>2016-05-03T16:58:04Z</time>
      </trkpt>
      <trkpt lat="42.8648708" lon="-5.3700907">
        <ele>1479.8</ele>
        <time>2016-05-03T16:58:06Z</time>
      </trkpt>
      <trkpt lat="42.8649113" lon="-5.3703432">
        <ele>1483.3</ele>
        <time>2016-05-03T16:58:08Z</time>
      </trkpt>
      <trkpt lat="42.8648878" lon="-5.3705779">
        <ele>1486.0</ele>
        <time>2016-05-03T16:58:10Z</time>
      </trkpt>
      <trkpt lat="42.8648432" lon="-5.3707806">
        <ele>1489.5</ele>
        <time>2016-05-03T16:58:12Z</time>
      </trkpt>
      <trkpt lat="42.8647965" lon="-5.370964">
        <ele>1492.3</ele>
        <time>2016-05-03T16:58:14Z</time>
      </trkpt>
      <trkpt lat="42.8647649" lon="-5.3711702">
        <ele>1494.7</ele>
        <time>2016-05-03T16:58:16Z</time>
      </trkpt>
      <trkpt lat="42.864748" lon="-5.3713536">
        <ele>1495.9</ele>
        <time>2016-05-03T16:58:18Z</time>
      </trkpt>
      <trkpt lat="42.8647129" lon="-5.3715522">
        <ele>1497.4</ele>
        <time>2016-05-03T16:58:20Z</time>
      </trkpt>
      <trkpt lat="42.8646957" lon="-5.3717417">
        <ele>1499.0</ele>
        <time>2016-05-03T16:58:22Z</time>
      </trkpt>
      <trkpt lat="42.8646383" lon="-5.3719213">
        <ele>1500.4</ele>
        <time>2016-05-03T16:58:24Z</time>
      </trkpt>
      <trkpt lat="42.8645009" lon="-5.3720569">
        <ele>1502.7</ele>
        <time>2016-05-03T16:58:27Z</time>
      </trkpt>
      <trkpt lat="42.8643632" lon="-5.3719913">
        <ele>1504.6</ele>
        <time>2016-05-03T16:58:30Z</time>
      </trkpt>
      <trkpt lat="42.8642943" lon="-5.3717352">
        <ele>1505.1</ele>
        <time>2016-05-03T16:58:33Z</time>
      </trkpt>
      <trkpt lat="42.8643367" lon="-5.3715567">
        <ele>1505.5</ele>
        <time>2016-05-03T16:58:35Z</time>
      </trkpt>
      <trkpt lat="42.8644737" lon="-5.3713658">
        <ele>1506.1</ele>
        <time>2016-05-03T16:58:37Z</time>
      </trkpt>
      <trkpt lat="42.8646625" lon="-5.3712634">
        <ele>1506.8</ele>
        <time>2016-05-03T16:58:39Z</time>
      </trkpt>
      <trkpt lat="42.8648815" lon="-5.3712515">
        <ele>1507.1</ele>
        <time>2016-05-03T16:58:41Z</time>
      </trkpt>
      <trkpt lat="42.865082" lon="-5.3713768">
        <ele>1508.1</ele>
        <time>2016-05-03T16:58:43Z</time>
      </trkpt>
      <trkpt lat="42.8652039" lon="-5.3715863">
        <ele>1509.7</ele>
        <time>2016-05-03T16:58:45Z</time>
      </trkpt>
      <trkpt lat="42.8652732" lon="-5.3718113">
        <ele>1512.6</ele>
        <time>2016-05-03T16:58:47Z</time>
      </trkpt>
      <trkpt lat="42.8652718" lon="-5.3720166">
        <ele>1515.9</ele>
        <time>2016-05-03T16:58:49Z</time>
      </trkpt>
      <trkpt lat="42.8651772" lon="-5.3721632">
        <ele>1518.6</ele>
        <time>2016-05-03T16:58:51Z</time>
      </trkpt>
      <trkpt lat="42.8650182" lon="-5.3722688">
        <ele>1520.7</ele>
        <time>2016-05-03T16:58:54Z</time>
      </trkpt>
      <trkpt lat="42.8649112" lon="-5.3722507">
        <ele>1528.3</ele>
        <time>2016-05-03T16:58:56Z</time>
      </trkpt>
      <trkpt lat="42.8648502" lon="-5.372221">
        <ele>1528.3</ele>
        <time>2016-05-03T16:58:57Z</time>
      </trkpt>
      <trkpt lat="42.864784" lon="-5.3721692">
        <ele>1528.3</ele>
        <time>2016-05-03T16:58:58Z</time>
      </trkpt>
      <trkpt lat="42.8647308" lon="-5.3721045">
        <ele>1528.3</ele>
        <time>2016-05-03T16:58:59Z</time>
      </trkpt>
      <trkpt lat="42.8646767" lon="-5.372031">
        <ele>1528.3</ele>
        <time>2016-05-03T16:59:00Z</time>
      </trkpt>
      <trkpt lat="42.864645" lon="-5.3718347">
        <ele>1531.0</ele>
        <time>2016-05-03T16:59:02Z</time>
      </trkpt>
      <trkpt lat="42.8646744" lon="-5.3716343">
        <ele>1532.7</ele>
        <time>2016-05-03T16:59:04Z</time>
      </trkpt>
      <trkpt lat="42.8647575" lon="-5.3714566">
        <ele>1535.1</ele>
        <time>2016-05-03T16:59:06Z</time>
      </trkpt>
      <trkpt lat="42.8648941" lon="-5.3712973">
        <ele>1538.4</ele>
        <time>2016-05-03T16:59:08Z</time>
      </trkpt>
      <trkpt lat="42.8650959" lon="-5.3711906">
        <ele>1541.3</ele>
        <time>2016-05-03T16:59:10Z</time>
      </trkpt>
      <trkpt lat="42.8653309" lon="-5.3711742">
        <ele>1543.7</ele>
        <time>2016-05-03T16:59:12Z</time>
      </trkpt>
      <trkpt lat="42.865509" lon="-5.3712935">
        <ele>1545.6</ele>
        <time>2016-05-03T16:59:14Z</time>
      </trkpt>
      <trkpt lat="42.8656031" lon="-5.3715273">
        <ele>1548.4</ele>
        <time>2016-05-03T16:59:16Z</time>
      </trkpt>
      <trkpt lat="42.8656355" lon="-5.3717526">
        <ele>1550.3</ele>
        <time>2016-05-03T16:59:18Z</time>
      </trkpt>
      <trkpt lat="42.865595" lon="-5.3719475">
        <ele>1551.6</ele>
        <time>2016-05-03T16:59:20Z</time>
      </trkpt>
      <trkpt lat="42.8654468" lon="-5.3721047">
        <ele>1555.0</ele>
        <time>2016-05-03T16:59:23Z</time>
      </trkpt>
      <trkpt lat="42.8652788" lon="-5.3720319">
        <ele>1560.1</ele>
        <time>2016-05-03T16:59:26Z</time>
      </trkpt>
      <trkpt lat="42.865189" lon="-5.3718087">
        <ele>1563.2</ele>
        <time>2016-05-03T16:59:29Z</time>
      </trkpt>
      <trkpt lat="42.8651954" lon="-5.3716062">
        <ele>1566.3</ele>
        <time>2016-05-03T16:59:31Z</time>
      </trkpt>
      <trkpt lat="42.8653028" lon="-5.3714069">
        <ele>1569.7</ele>
        <time>2016-05-03T16:59:33Z</time>
      </trkpt>
      <trkpt lat="42.8654665" lon="-5.3712432">
        <ele>1573.8</ele>
        <time>2016-05-03T16:59:35Z</time>
      </trkpt>
      <trkpt lat="42.8656836" lon="-5.3711716">
        <ele>1576.4</ele>
        <time>2016-05-03T16:59:37Z</time>
      </trkpt>
      <trkpt lat="42.8659084" lon="-5.3712275">
        <ele>1577.4</ele>
        <time>2016-05-03T16:59:39Z</time>
      </trkpt>
      <trkpt lat="42.8660774" lon="-5.3713779">
        <ele>1578.1</ele>
        <time>2016-05-03T16:59:41Z</time>
      </trkpt>
      <trkpt lat="42.8661812" lon="-5.3715896">
        <ele>1580.5</ele>
        <time>2016-05-03T16:59:43Z</time>
      </trkpt>
      <trkpt lat="42.8662194" lon="-5.3718083">
        <ele>1583.3</ele>
        <time>2016-05-03T16:59:45Z</time>
      </trkpt>
      <trkpt lat="42.8661355" lon="-5.371956">
        <ele>1586.5</ele>
        <time>2016-05-03T16:59:47Z</time>
      </trkpt>
      <trkpt lat="42.8659476" lon="-5.3719702">
        <ele>1591.1</ele>
        <time>2016-05-03T16:59:50Z</time>
      </trkpt>
      <trkpt lat="42.865817" lon="-5.3717709">
        <ele>1595.4</ele>
        <time>2016-05-03T16:59:53Z</time>
      </trkpt>
      <trkpt lat="42.8658208" lon="-5.3715577">
        <ele>1598.6</ele>
        <time>2016-05-03T16:59:55Z</time>
      </trkpt>
      <trkpt lat="42.8659075" lon="-5.37134">
        <ele>1600.7</ele>
        <time>2016-05-03T16:59:57Z</time>
      </trkpt>
      <trkpt lat="42.866091" lon="-5.3712116">
        <ele>1604.6</ele>
        <time>2016-05-03T16:59:59Z</time>
      </trkpt>
      <trkpt lat="42.8663372" lon="-5.3711586">
        <ele>1608.6</ele>
        <time>2016-05-03T17:00:01Z</time>
      </trkpt>
      <trkpt lat="42.8665535" lon="-5.3712018">
        <ele>1610.9</ele>
        <time>2016-05-03T17:00:03Z</time>
      </trkpt>
      <trkpt lat="42.8667304" lon="-5.3713363">
        <ele>1612.5</ele>
        <time>2016-05-03T17:00:05Z</time>
      </trkpt>
      <trkpt lat="42.8668416" lon="-5.3715307">
        <ele>1613.5</ele>
        <time>2016-05-03T17:00:07Z</time>
      </trkpt>
      <trkpt lat="42.86686" lon="-5.3717571">
        <ele>1615.1</ele>
        <time>2016-05-03T17:00:09Z</time>
      </trkpt>
      <trkpt lat="42.8667747" lon="-5.3719369">
        <ele>1618.4</ele>
        <time>2016-05-03T17:00:11Z</time>
      </trkpt>
      <trkpt lat="42.866587" lon="-5.3719596">
        <ele>1624.4</ele>
        <time>2016-05-03T17:00:14Z</time>
      </trkpt>
      <trkpt lat="42.866469" lon="-5.3718987">
        <ele>1634.3</ele>
        <time>2016-05-03T17:00:16Z</time>
      </trkpt>
      <trkpt lat="42.8664121" lon="-5.3718367">
        <ele>1634.3</ele>
        <time>2016-05-03T17:00:17Z</time>
      </trkpt>
      <trkpt lat="42.8663792" lon="-5.3717581">
        <ele>1634.3</ele>
        <time>2016-05-03T17:00:18Z</time>
      </trkpt>
      <trkpt lat="42.8663456" lon="-5.3716631">
        <ele>1634.3</ele>
        <time>2016-05-03T17:00:19Z</time>
      </trkpt>
      <trkpt lat="42.8663249" lon="-5.3715525">
        <ele>1634.3</ele>
        <time>2016-05-03T17:00:20Z</time>
      </trkpt>
      <trkpt lat="42.8663083" lon="-5.3713493">
        <ele>1637.9</ele>
        <time>2016-05-03T17:00:22Z</time>
      </trkpt>
      <trkpt lat="42.8663101" lon="-5.3711444">
        <ele>1641.4</ele>
        <time>2016-05-03T17:00:24Z</time>
      </trkpt>
      <trkpt lat="42.8663355" lon="-5.3709177">
        <ele>1644.1</ele>
        <time>2016-05-03T17:00:26Z</time>
      </trkpt>
      <trkpt lat="42.8663817" lon="-5.3707102">
        <ele>1647.2</ele>
        <time>2016-05-03T17:00:28Z</time>
      </trkpt>
      <trkpt lat="42.8664436" lon="-5.3704695">
        <ele>1649.6</ele>
        <time>2016-05-03T17:00:30Z</time>
      </trkpt>
      <trkpt lat="42.8665228" lon="-5.3702372">
        <ele>1651.5</ele>
        <time>2016-05-03T17:00:32Z</time>
      </trkpt>
      <trkpt lat="42.8666031" lon="-5.370013">
        <ele>1654.2</ele>
        <time>2016-05-03T17:00:34Z</time>
      </trkpt>
      <trkpt lat="42.8667528" lon="-5.3698203">
        <ele>1657.7</ele>
        <time>2016-05-03T17:00:36Z</time>
      </trkpt>
      <trkpt lat="42.866961" lon="-5.3697272">
        <ele>1660.5</ele>
        <time>2016-05-03T17:00:38Z</time>
      </trkpt>
      <trkpt lat="42.8671888" lon="-5.3696919">
        <ele>1662.9</ele>
        <time>2016-05-03T17:00:39Z</time>
      </trkpt>
      <trkpt lat="42.8674166" lon="-5.3697294">
        <ele>1667.1</ele>
        <time>2016-05-03T17:00:41Z</time>
      </trkpt>
      <trkpt lat="42.8676397" lon="-5.3698563">
        <ele>1671.5</ele>
        <time>2016-05-03T17:00:43Z</time>
      </trkpt>
      <trkpt lat="42.8678169" lon="-5.370024">
        <ele>1675.1</ele>
        <time>2016-05-03T17:00:45Z</time>
      </trkpt>
      <trkpt lat="42.867951" lon="-5.370223">
        <ele>1678.5</ele>
        <time>2016-05-03T17:00:47Z</time>
      </trkpt>
      <trkpt lat="42.8680166" lon="-5.3704641">
        <ele>1681.2</ele>
        <time>2016-05-03T17:00:49Z</time>
      </trkpt>
      <trkpt lat="42.8680423" lon="-5.3706909">
        <ele>1685.0</ele>
        <time>2016-05-03T17:00:51Z</time>
      </trkpt>
      <trkpt lat="42.8679928" lon="-5.3709201">
        <ele>1690.4</ele>
        <time>2016-05-03T17:00:54Z</time>
      </trkpt>
      <trkpt lat="42.8678562" lon="-5.3710432">
        <ele>1692.9</ele>
        <time>2016-05-03T17:00:57Z</time>
      </trkpt>
      <trkpt lat="42.8677202" lon="-5.3709869">
        <ele>1694.9</ele>
        <time>2016-05-03T17:01:00Z</time>
      </trkpt>
      <trkpt lat="42.867679" lon="-5.3707546">
        <ele>1695.7</ele>
        <time>2016-05-03T17:01:03Z</time>
      </trkpt>
      <trkpt lat="42.8677597" lon="-5.3705568">
        <ele>1697.4</ele>
        <time>2016-05-03T17:01:05Z</time>
      </trkpt>
      <trkpt lat="42.8679047" lon="-5.3703434">
        <ele>1700.4</ele>
        <time>2016-05-03T17:01:07Z</time>
      </trkpt>
      <trkpt lat="42.8680952" lon="-5.3702207">
        <ele>1701.7</ele>
        <time>2016-05-03T17:01:09Z</time>
      </trkpt>
      <trkpt lat="42.8683055" lon="-5.3701943">
        <ele>1702.8</ele>
        <time>2016-05-03T17:01:11Z</time>
      </trkpt>
      <trkpt lat="42.8685303" lon="-5.3702595">
        <ele>1703.6</ele>
        <time>2016-05-03T17:01:13Z</time>
      </trkpt>
      <trkpt lat="42.868731" lon="-5.3703989">
        <ele>1704.9</ele>
        <time>2016-05-03T17:01:15Z</time>
      </trkpt>
      <trkpt lat="42.8688632" lon="-5.3706056">
        <ele>1706.7</ele>
        <time>2016-05-03T17:01:17Z</time>
      </trkpt>
      <trkpt lat="42.8689197" lon="-5.3708278">
        <ele>1708.3</ele>
        <time>2016-05-03T17:01:19Z</time>
      </trkpt>
      <trkpt lat="42.8689485" lon="-5.3710438">
        <ele>1710.1</ele>
        <time>2016-05-03T17:01:21Z</time>
      </trkpt>
      <trkpt lat="42.868916" lon="-5.3712444">
        <ele>1712.6</ele>
        <time>2016-05-03T17:01:23Z</time>
      </trkpt>
      <trkpt lat="42.8688373" lon="-5.3714153">
        <ele>1714.2</ele>
        <time>2016-05-03T17:01:25Z</time>
      </trkpt>
      <trkpt lat="42.868764" lon="-5.37158">
        <ele>1716.2</ele>
        <time>2016-05-03T17:01:27Z</time>
      </trkpt>
      <trkpt lat="42.8687018" lon="-5.3717491">
        <ele>1718.1</ele>
        <time>2016-05-03T17:01:29Z</time>
      </trkpt>
      <trkpt lat="42.8685967" lon="-5.3719068">
        <ele>1719.8</ele>
        <time>2016-05-03T17:01:31Z</time>
      </trkpt>
      <trkpt lat="42.8684731" lon="-5.372014">
        <ele>1721.6</ele>
        <time>2016-05-03T17:01:33Z</time>
      </trkpt>
      <trkpt lat="42.8683796" lon="-5.3721611">
        <ele>1722.4</ele>
        <time>2016-05-03T17:01:35Z</time>
      </trkpt>
      <trkpt lat="42.8683151" lon="-5.372329">
        <ele>1723.9</ele>
        <time>2016-05-03T17:01:37Z</time>
      </trkpt>
      <trkpt lat="42.868184" lon="-5.3724999">
        <ele>1727.2</ele>
        <time>2016-05-03T17:01:40Z</time>
      </trkpt>
      <trkpt lat="42.8679988" lon="-5.3725149">
        <ele>1729.6</ele>
        <time>2016-05-03T17:01:43Z</time>
      </trkpt>
      <trkpt lat="42.8678943" lon="-5.3724574">
        <ele>1734.5</ele>
        <time>2016-05-03T17:01:45Z</time>
      </trkpt>
      <trkpt lat="42.8678443" lon="-5.3724005">
        <ele>1734.5</ele>
        <time>2016-05-03T17:01:46Z</time>
      </trkpt>
      <trkpt lat="42.867803" lon="-5.3723259">
        <ele>1734.5</ele>
        <time>2016-05-03T17:01:47Z</time>
      </trkpt>
      <trkpt lat="42.8677593" lon="-5.3722404">
        <ele>1734.5</ele>
        <time>2016-05-03T17:01:48Z</time>
      </trkpt>
      <trkpt lat="42.8677426" lon="-5.3721425">
        <ele>1734.5</ele>
        <time>2016-05-03T17:01:49Z</time>
      </trkpt>
      <trkpt lat="42.8677357" lon="-5.3719102">
        <ele>1737.4</ele>
        <time>2016-05-03T17:01:51Z</time>
      </trkpt>
      <trkpt lat="42.8678066" lon="-5.3716685">
        <ele>1739.3</ele>
        <time>2016-05-03T17:01:53Z</time>
      </trkpt>
      <trkpt lat="42.8679007" lon="-5.3714632">
        <ele>1740.2</ele>
        <time>2016-05-03T17:01:55Z</time>
      </trkpt>
      <trkpt lat="42.8680287" lon="-5.3712479">
        <ele>1742.7</ele>
        <time>2016-05-03T17:01:57Z</time>
      </trkpt>
      <trkpt lat="42.8681804" lon="-5.3710643">
        <ele>1745.2</ele>
        <time>2016-05-03T17:01:59Z</time>
      </trkpt>
      <trkpt lat="42.8683701" lon="-5.3709139">
        <ele>1746.1</ele>
        <time>2016-05-03T17:02:01Z</time>
      </trkpt>
      <trkpt lat="42.8685397" lon="-5.370755">
        <ele>1747.6</ele>
        <time>2016-05-03T17:02:03Z</time>
      </trkpt>
      <trkpt lat="42.8686155" lon="-5.3705406">
        <ele>1751.8</ele>
        <time>2016-05-03T17:02:05Z</time>
      </trkpt>
      <trkpt lat="42.8686628" lon="-5.3703449">
        <ele>1756.2</ele>
        <time>2016-05-03T17:02:07Z</time>
      </trkpt>
      <trkpt lat="42.8686166" lon="-5.3701066">
        <ele>1762.2</ele>
        <time>2016-05-03T17:02:10Z</time>
      </trkpt>
      <trkpt lat="42.8684751" lon="-5.3698876">
        <ele>1765.5</ele>
        <time>2016-05-03T17:02:13Z</time>
      </trkpt>
      <trkpt lat="42.8683682" lon="-5.3697161">
        <ele>1769.4</ele>
        <time>2016-05-03T17:02:15Z</time>
      </trkpt>
      <trkpt lat="42.8682774" lon="-5.3694719">
        <ele>1773.0</ele>
        <time>2016-05-03T17:02:18Z</time>
      </trkpt>
      <trkpt lat="42.868238" lon="-5.3692726">
        <ele>1775.3</ele>
        <time>2016-05-03T17:02:20Z</time>
      </trkpt>
      <trkpt lat="42.8681868" lon="-5.3690945">
        <ele>1777.6</ele>
        <time>2016-05-03T17:02:22Z</time>
      </trkpt>
      <trkpt lat="42.8681463" lon="-5.3689161">
        <ele>1780.5</ele>
        <time>2016-05-03T17:02:24Z</time>
      </trkpt>
      <trkpt lat="42.8681328" lon="-5.3687024">
        <ele>1782.5</ele>
        <time>2016-05-03T17:02:26Z</time>
      </trkpt>
      <trkpt lat="42.8681307" lon="-5.3684791">
        <ele>1784.7</ele>
        <time>2016-05-03T17:02:28Z</time>
      </trkpt>
      <trkpt lat="42.8681199" lon="-5.3682578">
        <ele>1787.4</ele>
        <time>2016-05-03T17:02:30Z</time>
      </trkpt>
      <trkpt lat="42.8681043" lon="-5.368062">
        <ele>1790.8</ele>
        <time>2016-05-03T17:02:32Z</time>
      </trkpt>
      <trkpt lat="42.8681104" lon="-5.3678508">
        <ele>1792.8</ele>
        <time>2016-05-03T17:02:34Z</time>
      </trkpt>
      <trkpt lat="42.8681295" lon="-5.3676411">
        <ele>1793.3</ele>
        <time>2016-05-03T17:02:36Z</time>
      </trkpt>
      <trkpt lat="42.8681728" lon="-5.3674309">
        <ele>1793.4</ele>
        <time>2016-05-03T17:02:38Z</time>
      </trkpt>
      <trkpt lat="42.8682165" lon="-5.3672124">
        <ele>1793.4</ele>
        <time>2016-05-03T17:02:40Z</time>
      </trkpt>
      <trkpt lat="42.8682585" lon="-5.3669876">
        <ele>1793.4</ele>
        <time>2016-05-03T17:02:42Z</time>
      </trkpt>
      <trkpt lat="42.8683028" lon="-5.3667645">
        <ele>1793.4</ele>
        <time>2016-05-03T17:02:44Z</time>
      </trkpt>
      <trkpt lat="42.8683449" lon="-5.3665777">
        <ele>1793.4</ele>
        <time>2016-05-03T17:02:46Z</time>
      </trkpt>
      <trkpt lat="42.8683905" lon="-5.3663734">
        <ele>1793.4</ele>
        <time>2016-05-03T17:02:48Z</time>
      </trkpt>
      <trkpt lat="42.8684532" lon="-5.3661864">
        <ele>1793.4</ele>
        <time>2016-05-03T17:02:50Z</time>
      </trkpt>
      <trkpt lat="42.8684997" lon="-5.3659928">
        <ele>1793.4</ele>
        <time>2016-05-03T17:02:52Z</time>
      </trkpt>
      <trkpt lat="42.8685485" lon="-5.3658007">
        <ele>1793.4</ele>
        <time>2016-05-03T17:02:54Z</time>
      </trkpt>
      <trkpt lat="42.8685936" lon="-5.3656013">
        <ele>1793.4</ele>
        <time>2016-05-03T17:02:56Z</time>
      </trkpt>
      <trkpt lat="42.8686565" lon="-5.3654118">
        <ele>1793.4</ele>
        <time>2016-05-03T17:02:58Z</time>
      </trkpt>
      <trkpt lat="42.868719" lon="-5.3652307">
        <ele>1793.4</ele>
        <time>2016-05-03T17:03:00Z</time>
      </trkpt>
      <trkpt lat="42.868782" lon="-5.3649909">
        <ele>1793.4</ele>
        <time>2016-05-03T17:03:03Z</time>
      </trkpt>
      <trkpt lat="42.8688214" lon="-5.3647133">
        <ele>1792.8</ele>
        <time>2016-05-03T17:03:06Z</time>
      </trkpt>
      <trkpt lat="42.8688033" lon="-5.364439">
        <ele>1791.8</ele>
        <time>2016-05-03T17:03:09Z</time>
      </trkpt>
      <trkpt lat="42.8687946" lon="-5.3642509">
        <ele>1790.7</ele>
        <time>2016-05-03T17:03:11Z</time>
      </trkpt>
      <trkpt lat="42.8687884" lon="-5.3640671">
        <ele>1788.9</ele>
        <time>2016-05-03T17:03:13Z</time>
      </trkpt>
      <trkpt lat="42.8687655" lon="-5.3638776">
        <ele>1787.2</ele>
        <time>2016-05-03T17:03:15Z</time>
      </trkpt>
      <trkpt lat="42.8687083" lon="-5.363667">
        <ele>1786.4</ele>
        <time>2016-05-03T17:03:18Z</time>
      </trkpt>
      <trkpt lat="42.8685949" lon="-5.3634178">
        <ele>1785.0</ele>
        <time>2016-05-03T17:03:21Z</time>
      </trkpt>
      <trkpt lat="42.868541" lon="-5.3632026">
        <ele>1782.4</ele>
        <time>2016-05-03T17:03:24Z</time>
      </trkpt>
      <trkpt lat="42.8684565" lon="-5.3629455">
        <ele>1781.1</ele>
        <time>2016-05-03T17:03:27Z</time>
      </trkpt>
      <trkpt lat="42.8683791" lon="-5.3627852">
        <ele>1780.7</ele>
        <time>2016-05-03T17:03:29Z</time>
      </trkpt>
      <trkpt lat="42.8682359" lon="-5.3626129">
        <ele>1779.7</ele>
        <time>2016-05-03T17:03:32Z</time>
      </trkpt>
      <trkpt lat="42.8681384" lon="-5.3625708">
        <ele>1778.3</ele>
        <time>2016-05-03T17:03:34Z</time>
      </trkpt>
      <trkpt lat="42.8680207" lon="-5.3625348">
        <ele>1776.5</ele>
        <time>2016-05-03T17:03:37Z</time>
      </trkpt>
      <trkpt lat="42.8679028" lon="-5.3625512">
        <ele>1775.7</ele>
        <time>2016-05-03T17:03:39Z</time>
      </trkpt>
      <trkpt lat="42.8677215" lon="-5.3626253">
        <ele>1774.4</ele>
        <time>2016-05-03T17:03:42Z</time>
      </trkpt>
      <trkpt lat="42.8675813" lon="-5.3626401">
        <ele>1773.7</ele>
        <time>2016-05-03T17:03:45Z</time>
      </trkpt>
      <trkpt lat="42.8674485" lon="-5.3626946">
        <ele>1773.3</ele>
        <time>2016-05-03T17:03:47Z</time>
      </trkpt>
      <trkpt lat="42.8672988" lon="-5.362728">
        <ele>1772.1</ele>
        <time>2016-05-03T17:03:49Z</time>
      </trkpt>
      <trkpt lat="42.8672155" lon="-5.3627246">
        <ele>1772.1</ele>
        <time>2016-05-03T17:03:50Z</time>
      </trkpt>
      <trkpt lat="42.8671357" lon="-5.3627258">
        <ele>1772.1</ele>
        <time>2016-05-03T17:03:51Z</time>
      </trkpt>
      <trkpt lat="42.8670635" lon="-5.3627217">
        <ele>1772.1</ele>
        <time>2016-05-03T17:03:52Z</time>
      </trkpt>
      <trkpt lat="42.8669797" lon="-5.3627138">
        <ele>1772.1</ele>
        <time>2016-05-03T17:03:53Z</time>
      </trkpt>
      <trkpt lat="42.8668397" lon="-5.362661">
        <ele>1769.5</ele>
        <time>2016-05-03T17:03:55Z</time>
      </trkpt>
      <trkpt lat="42.8666297" lon="-5.3625879">
        <ele>1761.6</ele>
        <time>2016-05-03T17:03:58Z</time>
      </trkpt>
      <trkpt lat="42.866444" lon="-5.3625747">
        <ele>1758.4</ele>
        <time>2016-05-03T17:04:01Z</time>
      </trkpt>
      <trkpt lat="42.8662976" lon="-5.3625539">
        <ele>1757.6</ele>
        <time>2016-05-03T17:04:03Z</time>
      </trkpt>
      <trkpt lat="42.8661676" lon="-5.3625401">
        <ele>1752.5</ele>
        <time>2016-05-03T17:04:05Z</time>
      </trkpt>
      <trkpt lat="42.8660508" lon="-5.3625187">
        <ele>1752.5</ele>
        <time>2016-05-03T17:04:07Z</time>
      </trkpt>
      <trkpt lat="42.8659026" lon="-5.362494">
        <ele>1752.2</ele>
        <time>2016-05-03T17:04:09Z</time>
      </trkpt>
      <trkpt lat="42.8657783" lon="-5.362439">
        <ele>1750.5</ele>
        <time>2016-05-03T17:04:11Z</time>
      </trkpt>
      <trkpt lat="42.8657152" lon="-5.3623967">
        <ele>1750.5</ele>
        <time>2016-05-03T17:04:12Z</time>
      </trkpt>
      <trkpt lat="42.8656546" lon="-5.3623642">
        <ele>1750.5</ele>
        <time>2016-05-03T17:04:13Z</time>
      </trkpt>
      <trkpt lat="42.8655967" lon="-5.3623193">
        <ele>1750.5</ele>
        <time>2016-05-03T17:04:14Z</time>
      </trkpt>
      <trkpt lat="42.8655386" lon="-5.3622632">
        <ele>1750.5</ele>
        <time>2016-05-03T17:04:15Z</time>
      </trkpt>
      <trkpt lat="42.8654135" lon="-5.3621581">
        <ele>1749.9</ele>
        <time>2016-05-03T17:04:17Z</time>
      </trkpt>
      <trkpt lat="42.8652957" lon="-5.3620498">
        <ele>1746.8</ele>
        <time>2016-05-03T17:04:19Z</time>
      </trkpt>
      <trkpt lat="42.8651911" lon="-5.3619234">
        <ele>1743.7</ele>
        <time>2016-05-03T17:04:21Z</time>
      </trkpt>
      <trkpt lat="42.8650917" lon="-5.3617784">
        <ele>1740.9</ele>
        <time>2016-05-03T17:04:23Z</time>
      </trkpt>
      <trkpt lat="42.8649875" lon="-5.3616234">
        <ele>1737.3</ele>
        <time>2016-05-03T17:04:25Z</time>
      </trkpt>
      <trkpt lat="42.8648973" lon="-5.3614466">
        <ele>1732.5</ele>
        <time>2016-05-03T17:04:27Z</time>
      </trkpt>
      <trkpt lat="42.8648242" lon="-5.3612891">
        <ele>1728.1</ele>
        <time>2016-05-03T17:04:29Z</time>
      </trkpt>
      <trkpt lat="42.8646934" lon="-5.3611003">
        <ele>1722.6</ele>
        <time>2016-05-03T17:04:32Z</time>
      </trkpt>
      <trkpt lat="42.8645714" lon="-5.3608959">
        <ele>1715.7</ele>
        <time>2016-05-03T17:04:35Z</time>
      </trkpt>
      <trkpt lat="42.8644597" lon="-5.3606857">
        <ele>1711.6</ele>
        <time>2016-05-03T17:04:38Z</time>
      </trkpt>
      <trkpt lat="42.8643759" lon="-5.3605284">
        <ele>1707.9</ele>
        <time>2016-05-03T17:04:40Z</time>
      </trkpt>
      <trkpt lat="42.8642914" lon="-5.3603617">
        <ele>1704.9</ele>
        <time>2016-05-03T17:04:42Z</time>
      </trkpt>
      <trkpt lat="42.8642025" lon="-5.3601266">
        <ele>1701.7</ele>
        <time>2016-05-03T17:04:45Z</time>
      </trkpt>
      <trkpt lat="42.8641033" lon="-5.3599648">
        <ele>1698.0</ele>
        <time>2016-05-03T17:04:47Z</time>
      </trkpt>
      <trkpt lat="42.8640164" lon="-5.3598035">
        <ele>1694.2</ele>
        <time>2016-05-03T17:04:49Z</time>
      </trkpt>
      <trkpt lat="42.8639345" lon="-5.3595621">
        <ele>1689.5</ele>
        <time>2016-05-03T17:04:52Z</time>
      </trkpt>
      <trkpt lat="42.8638864" lon="-5.3593758">
        <ele>1686.6</ele>
        <time>2016-05-03T17:04:54Z</time>
      </trkpt>
      <trkpt lat="42.8638659" lon="-5.3591223">
        <ele>1681.1</ele>
        <time>2016-05-03T17:04:57Z</time>
      </trkpt>
      <trkpt lat="42.8638343" lon="-5.3588724">
        <ele>1677.2</ele>
        <time>2016-05-03T17:05:00Z</time>
      </trkpt>
      <trkpt lat="42.8637874" lon="-5.3586594">
        <ele>1675.1</ele>
        <time>2016-05-03T17:05:03Z</time>
      </trkpt>
      <trkpt lat="42.8637128" lon="-5.3584216">
        <ele>1671.2</ele>
        <time>2016-05-03T17:05:06Z</time>
      </trkpt>
      <trkpt lat="42.8636261" lon="-5.3582333">
        <ele>1666.5</ele>
        <time>2016-05-03T17:05:09Z</time>
      </trkpt>
      <trkpt lat="42.8635121" lon="-5.3580352">
        <ele>1661.6</ele>
        <time>2016-05-03T17:05:12Z</time>
      </trkpt>
      <trkpt lat="42.8633967" lon="-5.3578426">
        <ele>1655.4</ele>
        <time>2016-05-03T17:05:16Z</time>
      </trkpt>
      <trkpt lat="42.8633182" lon="-5.3576156">
        <ele>1649.6</ele>
        <time>2016-05-03T17:05:19Z</time>
      </trkpt>
      <trkpt lat="42.8631868" lon="-5.357503">
        <ele>1644.6</ele>
        <time>2016-05-03T17:05:23Z</time>
      </trkpt>
      <trkpt lat="42.8630978" lon="-5.357546">
        <ele>1642.1</ele>
        <time>2016-05-03T17:05:25Z</time>
      </trkpt>
      <trkpt lat="42.8630001" lon="-5.3576863">
        <ele>1640.5</ele>
        <time>2016-05-03T17:05:27Z</time>
      </trkpt>
      <trkpt lat="42.8629811" lon="-5.3578806">
        <ele>1639.3</ele>
        <time>2016-05-03T17:05:29Z</time>
      </trkpt>
      <trkpt lat="42.8629722" lon="-5.3581318">
        <ele>1638.7</ele>
        <time>2016-05-03T17:05:31Z</time>
      </trkpt>
      <trkpt lat="42.8630119" lon="-5.3583873">
        <ele>1638.4</ele>
        <time>2016-05-03T17:05:33Z</time>
      </trkpt>
      <trkpt lat="42.8630654" lon="-5.35862">
        <ele>1637.9</ele>
        <time>2016-05-03T17:05:35Z</time>
      </trkpt>
      <trkpt lat="42.8631023" lon="-5.3588384">
        <ele>1637.4</ele>
        <time>2016-05-03T17:05:38Z</time>
      </trkpt>
      <trkpt lat="42.8630833" lon="-5.3590769">
        <ele>1636.7</ele>
        <time>2016-05-03T17:05:40Z</time>
      </trkpt>
      <trkpt lat="42.8630018" lon="-5.3592817">
        <ele>1636.5</ele>
        <time>2016-05-03T17:05:42Z</time>
      </trkpt>
      <trkpt lat="42.8628844" lon="-5.3594247">
        <ele>1636.3</ele>
        <time>2016-05-03T17:05:44Z</time>
      </trkpt>
      <trkpt lat="42.8627558" lon="-5.3596113">
        <ele>1636.0</ele>
        <time>2016-05-03T17:05:47Z</time>
      </trkpt>
      <trkpt lat="42.8626171" lon="-5.3598034">
        <ele>1635.6</ele>
        <time>2016-05-03T17:05:50Z</time>
      </trkpt>
      <trkpt lat="42.8625292" lon="-5.3599446">
        <ele>1635.3</ele>
        <time>2016-05-03T17:05:52Z</time>
      </trkpt>
      <trkpt lat="42.8624662" lon="-5.3601401">
        <ele>1635.2</ele>
        <time>2016-05-03T17:05:54Z</time>
      </trkpt>
      <trkpt lat="42.8624611" lon="-5.3603733">
        <ele>1635.1</ele>
        <time>2016-05-03T17:05:56Z</time>
      </trkpt>
      <trkpt lat="42.8624586" lon="-5.3605738">
        <ele>1635.0</ele>
        <time>2016-05-03T17:05:58Z</time>
      </trkpt>
      <trkpt lat="42.8624677" lon="-5.3607795">
        <ele>1634.8</ele>
        <time>2016-05-03T17:06:00Z</time>
      </trkpt>
      <trkpt lat="42.8625104" lon="-5.3610127">
        <ele>1634.5</ele>
        <time>2016-05-03T17:06:02Z</time>
      </trkpt>
      <trkpt lat="42.8625898" lon="-5.3612446">
        <ele>1634.3</ele>
        <time>2016-05-03T17:06:04Z</time>
      </trkpt>
      <trkpt lat="42.8626708" lon="-5.3614886">
        <ele>1633.8</ele>
        <time>2016-05-03T17:06:06Z</time>
      </trkpt>
      <trkpt lat="42.8627289" lon="-5.3617226">
        <ele>1633.4</ele>
        <time>2016-05-03T17:06:08Z</time>
      </trkpt>
      <trkpt lat="42.8627548" lon="-5.3619434">
        <ele>1633.3</ele>
        <time>2016-05-03T17:06:10Z</time>
      </trkpt>
      <trkpt lat="42.8627644" lon="-5.36217">
        <ele>1632.7</ele>
        <time>2016-05-03T17:06:12Z</time>
      </trkpt>
      <trkpt lat="42.8627287" lon="-5.3623782">
        <ele>1632.4</ele>
        <time>2016-05-03T17:06:14Z</time>
      </trkpt>
      <trkpt lat="42.8626518" lon="-5.3625521">
        <ele>1632.1</ele>
        <time>2016-05-03T17:06:16Z</time>
      </trkpt>
      <trkpt lat="42.8625157" lon="-5.3627148">
        <ele>1631.6</ele>
        <time>2016-05-03T17:06:19Z</time>
      </trkpt>
      <trkpt lat="42.8623573" lon="-5.3626991">
        <ele>1630.0</ele>
        <time>2016-05-03T17:06:22Z</time>
      </trkpt>
      <trkpt lat="42.8621852" lon="-5.362571">
        <ele>1628.6</ele>
        <time>2016-05-03T17:06:25Z</time>
      </trkpt>
      <trkpt lat="42.8620816" lon="-5.3624474">
        <ele>1626.8</ele>
        <time>2016-05-03T17:06:27Z</time>
      </trkpt>
      <trkpt lat="42.8620135" lon="-5.362283">
        <ele>1625.6</ele>
        <time>2016-05-03T17:06:29Z</time>
      </trkpt>
      <trkpt lat="42.8619484" lon="-5.3620811">
        <ele>1623.3</ele>
        <time>2016-05-03T17:06:31Z</time>
      </trkpt>
      <trkpt lat="42.8618945" lon="-5.3618939">
        <ele>1619.3</ele>
        <time>2016-05-03T17:06:33Z</time>
      </trkpt>
      <trkpt lat="42.8617978" lon="-5.3617063">
        <ele>1615.9</ele>
        <time>2016-05-03T17:06:35Z</time>
      </trkpt>
      <trkpt lat="42.861705" lon="-5.3615138">
        <ele>1612.2</ele>
        <time>2016-05-03T17:06:37Z</time>
      </trkpt>
      <trkpt lat="42.861622" lon="-5.3613666">
        <ele>1609.4</ele>
        <time>2016-05-03T17:06:39Z</time>
      </trkpt>
      <trkpt lat="42.8615049" lon="-5.3612747">
        <ele>1607.9</ele>
        <time>2016-05-03T17:06:41Z</time>
      </trkpt>
      <trkpt lat="42.8613559" lon="-5.3612461">
        <ele>1605.5</ele>
        <time>2016-05-03T17:06:43Z</time>
      </trkpt>
      <trkpt lat="42.8612115" lon="-5.3612453">
        <ele>1603.2</ele>
        <time>2016-05-03T17:06:45Z</time>
      </trkpt>
      <trkpt lat="42.8610945" lon="-5.3612886">
        <ele>1600.4</ele>
        <time>2016-05-03T17:06:47Z</time>
      </trkpt>
      <trkpt lat="42.8609861" lon="-5.3613363">
        <ele>1596.8</ele>
        <time>2016-05-03T17:06:49Z</time>
      </trkpt>
      <trkpt lat="42.8608595" lon="-5.3614818">
        <ele>1594.3</ele>
        <time>2016-05-03T17:06:51Z</time>
      </trkpt>
      <trkpt lat="42.8608118" lon="-5.3616547">
        <ele>1591.7</ele>
        <time>2016-05-03T17:06:53Z</time>
      </trkpt>
      <trkpt lat="42.8607733" lon="-5.3618388">
        <ele>1588.9</ele>
        <time>2016-05-03T17:06:55Z</time>
      </trkpt>
      <trkpt lat="42.8607876" lon="-5.3620574">
        <ele>1585.5</ele>
        <time>2016-05-03T17:06:57Z</time>
      </trkpt>
      <trkpt lat="42.8608389" lon="-5.3622867">
        <ele>1581.7</ele>
        <time>2016-05-03T17:06:59Z</time>
      </trkpt>
      <trkpt lat="42.8609112" lon="-5.3624971">
        <ele>1577.5</ele>
        <time>2016-05-03T17:07:01Z</time>
      </trkpt>
      <trkpt lat="42.8610124" lon="-5.3626976">
        <ele>1574.0</ele>
        <time>2016-05-03T17:07:03Z</time>
      </trkpt>
      <trkpt lat="42.8611474" lon="-5.3628939">
        <ele>1570.9</ele>
        <time>2016-05-03T17:07:05Z</time>
      </trkpt>
      <trkpt lat="42.8613483" lon="-5.3630653">
        <ele>1565.3</ele>
        <time>2016-05-03T17:07:07Z</time>
      </trkpt>
      <trkpt lat="42.8615338" lon="-5.3632131">
        <ele>1560.8</ele>
        <time>2016-05-03T17:07:09Z</time>
      </trkpt>
      <trkpt lat="42.8617181" lon="-5.3633754">
        <ele>1557.9</ele>
        <time>2016-05-03T17:07:11Z</time>
      </trkpt>
      <trkpt lat="42.8619025" lon="-5.363549">
        <ele>1553.2</ele>
        <time>2016-05-03T17:07:13Z</time>
      </trkpt>
      <trkpt lat="42.8620767" lon="-5.3637186">
        <ele>1547.8</ele>
        <time>2016-05-03T17:07:15Z</time>
      </trkpt>
      <trkpt lat="42.862245" lon="-5.3639403">
        <ele>1544.2</ele>
        <time>2016-05-03T17:07:17Z</time>
      </trkpt>
      <trkpt lat="42.8623905" lon="-5.3641601">
        <ele>1541.7</ele>
        <time>2016-05-03T17:07:19Z</time>
      </trkpt>
      <trkpt lat="42.8624832" lon="-5.3643977">
        <ele>1538.2</ele>
        <time>2016-05-03T17:07:21Z</time>
      </trkpt>
      <trkpt lat="42.862552" lon="-5.3646187">
        <ele>1536.7</ele>
        <time>2016-05-03T17:07:23Z</time>
      </trkpt>
      <trkpt lat="42.8626183" lon="-5.3648522">
        <ele>1535.2</ele>
        <time>2016-05-03T17:07:25Z</time>
      </trkpt>
      <trkpt lat="42.8626942" lon="-5.3650991">
        <ele>1533.6</ele>
        <time>2016-05-03T17:07:27Z</time>
      </trkpt>
      <trkpt lat="42.8627853" lon="-5.3653536">
        <ele>1531.9</ele>
        <time>2016-05-03T17:07:29Z</time>
      </trkpt>
      <trkpt lat="42.8628824" lon="-5.3656029">
        <ele>1530.3</ele>
        <time>2016-05-03T17:07:31Z</time>
      </trkpt>
      <trkpt lat="42.8629777" lon="-5.3658533">
        <ele>1528.0</ele>
        <time>2016-05-03T17:07:33Z</time>
      </trkpt>
      <trkpt lat="42.8630639" lon="-5.3660771">
        <ele>1524.0</ele>
        <time>2016-05-03T17:07:35Z</time>
      </trkpt>
      <trkpt lat="42.863141" lon="-5.3663007">
        <ele>1519.4</ele>
        <time>2016-05-03T17:07:37Z</time>
      </trkpt>
      <trkpt lat="42.8632287" lon="-5.366567">
        <ele>1515.9</ele>
        <time>2016-05-03T17:07:39Z</time>
      </trkpt>
      <trkpt lat="42.863285" lon="-5.3667857">
        <ele>1512.4</ele>
        <time>2016-05-03T17:07:41Z</time>
      </trkpt>
      <trkpt lat="42.8633198" lon="-5.3670066">
        <ele>1508.6</ele>
        <time>2016-05-03T17:07:43Z</time>
      </trkpt>
      <trkpt lat="42.8633712" lon="-5.3672347">
        <ele>1505.6</ele>
        <time>2016-05-03T17:07:45Z</time>
      </trkpt>
      <trkpt lat="42.8633652" lon="-5.3674311">
        <ele>1502.8</ele>
        <time>2016-05-03T17:07:47Z</time>
      </trkpt>
      <trkpt lat="42.8632988" lon="-5.367631">
        <ele>1499.2</ele>
        <time>2016-05-03T17:07:49Z</time>
      </trkpt>
      <trkpt lat="42.8632249" lon="-5.3678242">
        <ele>1495.9</ele>
        <time>2016-05-03T17:07:51Z</time>
      </trkpt>
      <trkpt lat="42.8631481" lon="-5.3679864">
        <ele>1492.1</ele>
        <time>2016-05-03T17:07:53Z</time>
      </trkpt>
      <trkpt lat="42.8630337" lon="-5.3681569">
        <ele>1489.2</ele>
        <time>2016-05-03T17:07:55Z</time>
      </trkpt>
      <trkpt lat="42.8629375" lon="-5.3683025">
        <ele>1485.5</ele>
        <time>2016-05-03T17:07:57Z</time>
      </trkpt>
      <trkpt lat="42.8628341" lon="-5.3684872">
        <ele>1480.5</ele>
        <time>2016-05-03T17:08:00Z</time>
      </trkpt>
      <trkpt lat="42.8627193" lon="-5.3686149">
        <ele>1477.7</ele>
        <time>2016-05-03T17:08:02Z</time>
      </trkpt>
      <trkpt lat="42.8625863" lon="-5.3687273">
        <ele>1474.4</ele>
        <time>2016-05-03T17:08:05Z</time>
      </trkpt>
      <trkpt lat="42.862425" lon="-5.3688443">
        <ele>1470.8</ele>
        <time>2016-05-03T17:08:08Z</time>
      </trkpt>
      <trkpt lat="42.8621464" lon="-5.368978">
        <ele>1466.0</ele>
        <time>2016-05-03T17:08:12Z</time>
      </trkpt>
      <trkpt lat="42.8620399" lon="-5.3690847">
        <ele>1464.6</ele>
        <time>2016-05-03T17:08:14Z</time>
      </trkpt>
      <trkpt lat="42.8619721" lon="-5.369265">
        <ele>1460.2</ele>
        <time>2016-05-03T17:08:16Z</time>
      </trkpt>
      <trkpt lat="42.8619089" lon="-5.3694867">
        <ele>1456.7</ele>
        <time>2016-05-03T17:08:18Z</time>
      </trkpt>
      <trkpt lat="42.8618957" lon="-5.3697214">
        <ele>1451.9</ele>
        <time>2016-05-03T17:08:20Z</time>
      </trkpt>
      <trkpt lat="42.8618931" lon="-5.369927">
        <ele>1446.7</ele>
        <time>2016-05-03T17:08:22Z</time>
      </trkpt>
      <trkpt lat="42.8618943" lon="-5.3701603">
        <ele>1443.4</ele>
        <time>2016-05-03T17:08:24Z</time>
      </trkpt>
      <trkpt lat="42.8619171" lon="-5.3704227">
        <ele>1439.2</ele>
        <time>2016-05-03T17:08:26Z</time>
      </trkpt>
      <trkpt lat="42.8619738" lon="-5.3706779">
        <ele>1437.0</ele>
        <time>2016-05-03T17:08:28Z</time>
      </trkpt>
      <trkpt lat="42.8620036" lon="-5.3709208">
        <ele>1435.7</ele>
        <time>2016-05-03T17:08:30Z</time>
      </trkpt>
      <trkpt lat="42.8620353" lon="-5.3711821">
        <ele>1432.0</ele>
        <time>2016-05-03T17:08:32Z</time>
      </trkpt>
      <trkpt lat="42.8621315" lon="-5.3714462">
        <ele>1430.3</ele>
        <time>2016-05-03T17:08:34Z</time>
      </trkpt>
      <trkpt lat="42.8622406" lon="-5.3717142">
        <ele>1429.4</ele>
        <time>2016-05-03T17:08:36Z</time>
      </trkpt>
      <trkpt lat="42.8623615" lon="-5.3719287">
        <ele>1427.9</ele>
        <time>2016-05-03T17:08:38Z</time>
      </trkpt>
      <trkpt lat="42.862526" lon="-5.3721212">
        <ele>1424.1</ele>
        <time>2016-05-03T17:08:40Z</time>
      </trkpt>
      <trkpt lat="42.8626847" lon="-5.3723176">
        <ele>1420.3</ele>
        <time>2016-05-03T17:08:42Z</time>
      </trkpt>
      <trkpt lat="42.8628485" lon="-5.3725271">
        <ele>1418.2</ele>
        <time>2016-05-03T17:08:44Z</time>
      </trkpt>
      <trkpt lat="42.8630219" lon="-5.3727196">
        <ele>1416.4</ele>
        <time>2016-05-03T17:08:46Z</time>
      </trkpt>
      <trkpt lat="42.8631797" lon="-5.372933">
        <ele>1413.8</ele>
        <time>2016-05-03T17:08:48Z</time>
      </trkpt>
      <trkpt lat="42.8633072" lon="-5.3731802">
        <ele>1410.2</ele>
        <time>2016-05-03T17:08:50Z</time>
      </trkpt>
      <trkpt lat="42.8634499" lon="-5.3734146">
        <ele>1407.1</ele>
        <time>2016-05-03T17:08:52Z</time>
      </trkpt>
      <trkpt lat="42.8636737" lon="-5.3735471">
        <ele>1404.8</ele>
        <time>2016-05-03T17:08:54Z</time>
      </trkpt>
      <trkpt lat="42.8639036" lon="-5.3735457">
        <ele>1401.8</ele>
        <time>2016-05-03T17:08:56Z</time>
      </trkpt>
      <trkpt lat="42.864114" lon="-5.3734149">
        <ele>1398.6</ele>
        <time>2016-05-03T17:08:58Z</time>
      </trkpt>
      <trkpt lat="42.8642161" lon="-5.3731795">
        <ele>1397.3</ele>
        <time>2016-05-03T17:09:00Z</time>
      </trkpt>
      <trkpt lat="42.8642598" lon="-5.3729566">
        <ele>1396.1</ele>
        <time>2016-05-03T17:09:02Z</time>
      </trkpt>
      <trkpt lat="42.8641831" lon="-5.3727383">
        <ele>1392.5</ele>
        <time>2016-05-03T17:09:05Z</time>
      </trkpt>
      <trkpt lat="42.8640662" lon="-5.3725517">
        <ele>1391.2</ele>
        <time>2016-05-03T17:09:08Z</time>
      </trkpt>
      <trkpt lat="42.8639452" lon="-5.3724839">
        <ele>1390.7</ele>
        <time>2016-05-03T17:09:10Z</time>
      </trkpt>
      <trkpt lat="42.8638368" lon="-5.372449">
        <ele>1389.4</ele>
        <time>2016-05-03T17:09:12Z</time>
      </trkpt>
      <trkpt lat="42.8636" lon="-5.372406">
        <ele>1388.1</ele>
        <time>2016-05-03T17:09:16Z</time>
      </trkpt>
      <trkpt lat="42.8634805" lon="-5.372412">
        <ele>1387.8</ele>
        <time>2016-05-03T17:09:18Z</time>
      </trkpt>
      <trkpt lat="42.8633648" lon="-5.3724249">
        <ele>1387.7</ele>
        <time>2016-05-03T17:09:20Z</time>
      </trkpt>
      <trkpt lat="42.8632017" lon="-5.3724709">
        <ele>1385.4</ele>
        <time>2016-05-03T17:09:23Z</time>
      </trkpt>
      <trkpt lat="42.8630823" lon="-5.3725289">
        <ele>1384.0</ele>
        <time>2016-05-03T17:09:25Z</time>
      </trkpt>
      <trkpt lat="42.8629669" lon="-5.3726318">
        <ele>1382.8</ele>
        <time>2016-05-03T17:09:27Z</time>
      </trkpt>
      <trkpt lat="42.8628154" lon="-5.3727532">
        <ele>1381.4</ele>
        <time>2016-05-03T17:09:30Z</time>
      </trkpt>
      <trkpt lat="42.8626495" lon="-5.3729506">
        <ele>1379.0</ele>
        <time>2016-05-03T17:09:33Z</time>
      </trkpt>
      <trkpt lat="42.8625637" lon="-5.3731008">
        <ele>1378.1</ele>
        <time>2016-05-03T17:09:35Z</time>
      </trkpt>
      <trkpt lat="42.8624272" lon="-5.3732507">
        <ele>1374.8</ele>
        <time>2016-05-03T17:09:38Z</time>
      </trkpt>
      <trkpt lat="42.8623328" lon="-5.3733956">
        <ele>1372.3</ele>
        <time>2016-05-03T17:09:40Z</time>
      </trkpt>
      <trkpt lat="42.86225" lon="-5.3735574">
        <ele>1370.0</ele>
        <time>2016-05-03T17:09:42Z</time>
      </trkpt>
      <trkpt lat="42.8621656" lon="-5.3737292">
        <ele>1367.6</ele>
        <time>2016-05-03T17:09:44Z</time>
      </trkpt>
      <trkpt lat="42.8620493" lon="-5.3738402">
        <ele>1366.4</ele>
        <time>2016-05-03T17:09:46Z</time>
      </trkpt>
      <trkpt lat="42.8618486" lon="-5.3739213">
        <ele>1365.3</ele>
        <time>2016-05-03T17:09:49Z</time>
      </trkpt>
      <trkpt lat="42.8616836" lon="-5.3737706">
        <ele>1365.1</ele>
        <time>2016-05-03T17:09:52Z</time>
      </trkpt>
      <trkpt lat="42.8616914" lon="-5.3735727">
        <ele>1365.1</ele>
        <time>2016-05-03T17:09:54Z</time>
      </trkpt>
      <trkpt lat="42.8617918" lon="-5.3733764">
        <ele>1365.1</ele>
        <time>2016-05-03T17:09:56Z</time>
      </trkpt>
      <trkpt lat="42.8619563" lon="-5.3732429">
        <ele>1365.1</ele>
        <time>2016-05-03T17:09:58Z</time>
      </trkpt>
      <trkpt lat="42.8621894" lon="-5.3732174">
        <ele>1365.1</ele>
        <time>2016-05-03T17:10:00Z</time>
      </trkpt>
      <trkpt lat="42.8624077" lon="-5.3733446">
        <ele>1365.1</ele>
        <time>2016-05-03T17:10:02Z</time>
      </trkpt>
      <trkpt lat="42.8625305" lon="-5.3735831">
        <ele>1365.1</ele>
        <time>2016-05-03T17:10:04Z</time>
      </trkpt>
      <trkpt lat="42.8625555" lon="-5.3738134">
        <ele>1365.1</ele>
        <time>2016-05-03T17:10:06Z</time>
      </trkpt>
      <trkpt lat="42.8624979" lon="-5.3739826">
        <ele>1365.1</ele>
        <time>2016-05-03T17:10:08Z</time>
      </trkpt>
      <trkpt lat="42.8623267" lon="-5.3739576">
        <ele>1365.1</ele>
        <time>2016-05-03T17:10:11Z</time>
      </trkpt>
      <trkpt lat="42.8622788" lon="-5.3737813">
        <ele>1365.1</ele>
        <time>2016-05-03T17:10:13Z</time>
      </trkpt>
      <trkpt lat="42.8623368" lon="-5.3735881">
        <ele>1365.1</ele>
        <time>2016-05-03T17:10:15Z</time>
      </trkpt>
      <trkpt lat="42.8624658" lon="-5.3734423">
        <ele>1365.1</ele>
        <time>2016-05-03T17:10:17Z</time>
      </trkpt>
      <trkpt lat="42.8626246" lon="-5.3733138">
        <ele>1365.4</ele>
        <time>2016-05-03T17:10:19Z</time>
      </trkpt>
      <trkpt lat="42.8628347" lon="-5.3732916">
        <ele>1366.2</ele>
        <time>2016-05-03T17:10:21Z</time>
      </trkpt>
      <trkpt lat="42.8629421" lon="-5.3733359">
        <ele>1367.4</ele>
        <time>2016-05-03T17:10:22Z</time>
      </trkpt>
      <trkpt lat="42.8630469" lon="-5.3733638">
        <ele>1367.4</ele>
        <time>2016-05-03T17:10:23Z</time>
      </trkpt>
      <trkpt lat="42.8631569" lon="-5.3733799">
        <ele>1367.4</ele>
        <time>2016-05-03T17:10:24Z</time>
      </trkpt>
      <trkpt lat="42.8632694" lon="-5.3734073">
        <ele>1367.4</ele>
        <time>2016-05-03T17:10:25Z</time>
      </trkpt>
      <trkpt lat="42.8634575" lon="-5.3735264">
        <ele>1367.6</ele>
        <time>2016-05-03T17:10:27Z</time>
      </trkpt>
      <trkpt lat="42.8635995" lon="-5.3737787">
        <ele>1367.9</ele>
        <time>2016-05-03T17:10:29Z</time>
      </trkpt>
      <trkpt lat="42.8636683" lon="-5.3740451">
        <ele>1368.2</ele>
        <time>2016-05-03T17:10:31Z</time>
      </trkpt>
      <trkpt lat="42.8636981" lon="-5.3743064">
        <ele>1368.4</ele>
        <time>2016-05-03T17:10:33Z</time>
      </trkpt>
      <trkpt lat="42.8637092" lon="-5.3745699">
        <ele>1368.7</ele>
        <time>2016-05-03T17:10:35Z</time>
      </trkpt>
      <trkpt lat="42.8636717" lon="-5.3748078">
        <ele>1369.0</ele>
        <time>2016-05-03T17:10:37Z</time>
      </trkpt>
      <trkpt lat="42.8635629" lon="-5.3749735">
        <ele>1369.1</ele>
        <time>2016-05-03T17:10:39Z</time>
      </trkpt>
      <trkpt lat="42.8634416" lon="-5.3750822">
        <ele>1369.3</ele>
        <time>2016-05-03T17:10:41Z</time>
      </trkpt>
      <trkpt lat="42.8632681" lon="-5.3751787">
        <ele>1369.5</ele>
        <time>2016-05-03T17:10:44Z</time>
      </trkpt>
      <trkpt lat="42.8631705" lon="-5.3752879">
        <ele>1369.6</ele>
        <time>2016-05-03T17:10:46Z</time>
      </trkpt>
      <trkpt lat="42.8630408" lon="-5.375421">
        <ele>1369.6</ele>
        <time>2016-05-03T17:10:48Z</time>
      </trkpt>
      <trkpt lat="42.8628795" lon="-5.3754295">
        <ele>1369.8</ele>
        <time>2016-05-03T17:10:50Z</time>
      </trkpt>
      <trkpt lat="42.8627604" lon="-5.3753578">
        <ele>1370.0</ele>
        <time>2016-05-03T17:10:52Z</time>
      </trkpt>
      <trkpt lat="42.8627006" lon="-5.3753132">
        <ele>1370.0</ele>
        <time>2016-05-03T17:10:53Z</time>
      </trkpt>
      <trkpt lat="42.8626444" lon="-5.3752693">
        <ele>1370.0</ele>
        <time>2016-05-03T17:10:54Z</time>
      </trkpt>
      <trkpt lat="42.8625857" lon="-5.3752064">
        <ele>1370.0</ele>
        <time>2016-05-03T17:10:55Z</time>
      </trkpt>
      <trkpt lat="42.8625321" lon="-5.3751102">
        <ele>1370.0</ele>
        <time>2016-05-03T17:10:56Z</time>
      </trkpt>
      <trkpt lat="42.8624883" lon="-5.3749008">
        <ele>1370.2</ele>
        <time>2016-05-03T17:10:58Z</time>
      </trkpt>
      <trkpt lat="42.8625399" lon="-5.3746973">
        <ele>1370.6</ele>
        <time>2016-05-03T17:11:00Z</time>
      </trkpt>
      <trkpt lat="42.8626458" lon="-5.37451">
        <ele>1371.7</ele>
        <time>2016-05-03T17:11:02Z</time>
      </trkpt>
      <trkpt lat="42.8628074" lon="-5.3743774">
        <ele>1372.1</ele>
        <time>2016-05-03T17:11:04Z</time>
      </trkpt>
      <trkpt lat="42.8629946" lon="-5.3743368">
        <ele>1372.3</ele>
        <time>2016-05-03T17:11:06Z</time>
      </trkpt>
      <trkpt lat="42.863184" lon="-5.3744176">
        <ele>1372.3</ele>
        <time>2016-05-03T17:11:08Z</time>
      </trkpt>
      <trkpt lat="42.8633319" lon="-5.3746284">
        <ele>1372.9</ele>
        <time>2016-05-03T17:11:10Z</time>
      </trkpt>
      <trkpt lat="42.8634094" lon="-5.3749066">
        <ele>1375.5</ele>
        <time>2016-05-03T17:11:12Z</time>
      </trkpt>
      <trkpt lat="42.8634264" lon="-5.375149">
        <ele>1378.7</ele>
        <time>2016-05-03T17:11:14Z</time>
      </trkpt>
      <trkpt lat="42.8634279" lon="-5.3753423">
        <ele>1380.8</ele>
        <time>2016-05-03T17:11:16Z</time>
      </trkpt>
      <trkpt lat="42.8634176" lon="-5.3755524">
        <ele>1382.1</ele>
        <time>2016-05-03T17:11:18Z</time>
      </trkpt>
      <trkpt lat="42.8634366" lon="-5.3757945">
        <ele>1382.5</ele>
        <time>2016-05-03T17:11:20Z</time>
      </trkpt>
      <trkpt lat="42.8634681" lon="-5.3759944">
        <ele>1384.3</ele>
        <time>2016-05-03T17:11:22Z</time>
      </trkpt>
      <trkpt lat="42.863515" lon="-5.376198">
        <ele>1387.5</ele>
        <time>2016-05-03T17:11:24Z</time>
      </trkpt>
      <trkpt lat="42.863595" lon="-5.3764042">
        <ele>1388.6</ele>
        <time>2016-05-03T17:11:26Z</time>
      </trkpt>
      <trkpt lat="42.8636517" lon="-5.3766195">
        <ele>1390.9</ele>
        <time>2016-05-03T17:11:28Z</time>
      </trkpt>
      <trkpt lat="42.8636012" lon="-5.3768017">
        <ele>1394.3</ele>
        <time>2016-05-03T17:11:30Z</time>
      </trkpt>
      <trkpt lat="42.8634212" lon="-5.3768991">
        <ele>1399.8</ele>
        <time>2016-05-03T17:11:33Z</time>
      </trkpt>
      <trkpt lat="42.8632489" lon="-5.3767652">
        <ele>1403.0</ele>
        <time>2016-05-03T17:11:36Z</time>
      </trkpt>
      <trkpt lat="42.863214" lon="-5.3765607">
        <ele>1403.6</ele>
        <time>2016-05-03T17:11:38Z</time>
      </trkpt>
      <trkpt lat="42.8632466" lon="-5.3763544">
        <ele>1404.1</ele>
        <time>2016-05-03T17:11:40Z</time>
      </trkpt>
      <trkpt lat="42.8633706" lon="-5.3761674">
        <ele>1404.3</ele>
        <time>2016-05-03T17:11:42Z</time>
      </trkpt>
      <trkpt lat="42.8635403" lon="-5.3760848">
        <ele>1407.7</ele>
        <time>2016-05-03T17:11:44Z</time>
      </trkpt>
      <trkpt lat="42.863717" lon="-5.3761337">
        <ele>1411.6</ele>
        <time>2016-05-03T17:11:46Z</time>
      </trkpt>
      <trkpt lat="42.8638545" lon="-5.3762963">
        <ele>1413.6</ele>
        <time>2016-05-03T17:11:48Z</time>
      </trkpt>
      <trkpt lat="42.8638961" lon="-5.376505">
        <ele>1414.8</ele>
        <time>2016-05-03T17:11:50Z</time>
      </trkpt>
      <trkpt lat="42.8638357" lon="-5.3766868">
        <ele>1417.0</ele>
        <time>2016-05-03T17:11:52Z</time>
      </trkpt>
      <trkpt lat="42.8637171" lon="-5.3767858">
        <ele>1419.2</ele>
        <time>2016-05-03T17:11:54Z</time>
      </trkpt>
      <trkpt lat="42.863534" lon="-5.3767895">
        <ele>1422.8</ele>
        <time>2016-05-03T17:11:57Z</time>
      </trkpt>
      <trkpt lat="42.8634435" lon="-5.3766912">
        <ele>1429.2</ele>
        <time>2016-05-03T17:11:59Z</time>
      </trkpt>
      <trkpt lat="42.8634068" lon="-5.3766268">
        <ele>1429.2</ele>
        <time>2016-05-03T17:12:00Z</time>
      </trkpt>
      <trkpt lat="42.8633553" lon="-5.3765407">
        <ele>1429.2</ele>
        <time>2016-05-03T17:12:01Z</time>
      </trkpt>
      <trkpt lat="42.8633108" lon="-5.3764642">
        <ele>1429.2</ele>
        <time>2016-05-03T17:12:02Z</time>
      </trkpt>
      <trkpt lat="42.8632722" lon="-5.3763938">
        <ele>1429.2</ele>
        <time>2016-05-03T17:12:03Z</time>
      </trkpt>
      <trkpt lat="42.8631749" lon="-5.3761887">
        <ele>1432.8</ele>
        <time>2016-05-03T17:12:06Z</time>
      </trkpt>
      <trkpt lat="42.8630541" lon="-5.3759789">
        <ele>1436.5</ele>
        <time>2016-05-03T17:12:09Z</time>
      </trkpt>
      <trkpt lat="42.8629857" lon="-5.3757274">
        <ele>1438.7</ele>
        <time>2016-05-03T17:12:12Z</time>
      </trkpt>
      <trkpt lat="42.8629128" lon="-5.3755685">
        <ele>1440.2</ele>
        <time>2016-05-03T17:12:14Z</time>
      </trkpt>
      <trkpt lat="42.8628454" lon="-5.375355">
        <ele>1442.8</ele>
        <time>2016-05-03T17:12:16Z</time>
      </trkpt>
      <trkpt lat="42.8628022" lon="-5.3751387">
        <ele>1445.6</ele>
        <time>2016-05-03T17:12:18Z</time>
      </trkpt>
      <trkpt lat="42.8627598" lon="-5.3749378">
        <ele>1448.6</ele>
        <time>2016-05-03T17:12:20Z</time>
      </trkpt>
      <trkpt lat="42.8627043" lon="-5.3747286">
        <ele>1450.5</ele>
        <time>2016-05-03T17:12:22Z</time>
      </trkpt>
      <trkpt lat="42.8627023" lon="-5.374493">
        <ele>1452.7</ele>
        <time>2016-05-03T17:12:24Z</time>
      </trkpt>
      <trkpt lat="42.8627132" lon="-5.3742466">
        <ele>1458.5</ele>
        <time>2016-05-03T17:12:27Z</time>
      </trkpt>
      <trkpt lat="42.8627002" lon="-5.3739848">
        <ele>1463.4</ele>
        <time>2016-05-03T17:12:30Z</time>
      </trkpt>
      <trkpt lat="42.8627374" lon="-5.3737953">
        <ele>1466.0</ele>
        <time>2016-05-03T17:12:32Z</time>
      </trkpt>
      <trkpt lat="42.8627622" lon="-5.3735945">
        <ele>1469.3</ele>
        <time>2016-05-03T17:12:34Z</time>
      </trkpt>
      <trkpt lat="42.8627781" lon="-5.3733894">
        <ele>1473.1</ele>
        <time>2016-05-03T17:12:36Z</time>
      </trkpt>
      <trkpt lat="42.8627896" lon="-5.3731779">
        <ele>1475.6</ele>
        <time>2016-05-03T17:12:38Z</time>
      </trkpt>
      <trkpt lat="42.8628297" lon="-5.3729813">
        <ele>1477.0</ele>
        <time>2016-05-03T17:12:40Z</time>
      </trkpt>
      <trkpt lat="42.8628854" lon="-5.3727255">
        <ele>1479.6</ele>
        <time>2016-05-03T17:12:43Z</time>
      </trkpt>
      <trkpt lat="42.862922" lon="-5.3725403">
        <ele>1480.2</ele>
        <time>2016-05-03T17:12:45Z</time>
      </trkpt>
      <trkpt lat="42.8629911" lon="-5.3723492">
        <ele>1480.4</ele>
        <time>2016-05-03T17:12:47Z</time>
      </trkpt>
      <trkpt lat="42.8630433" lon="-5.3721607">
        <ele>1480.5</ele>
        <time>2016-05-03T17:12:49Z</time>
      </trkpt>
      <trkpt lat="42.8631273" lon="-5.3718926">
        <ele>1480.5</ele>
        <time>2016-05-03T17:12:52Z</time>
      </trkpt>
      <trkpt lat="42.8632106" lon="-5.3716667">
        <ele>1480.5</ele>
        <time>2016-05-03T17:12:54Z</time>
      </trkpt>
      <trkpt lat="42.8632624" lon="-5.3714291">
        <ele>1480.5</ele>
        <time>2016-05-03T17:12:56Z</time>
      </trkpt>
      <trkpt lat="42.8632829" lon="-5.3712339">
        <ele>1480.5</ele>
        <time>2016-05-03T17:12:58Z</time>
      </trkpt>
      <trkpt lat="42.8632921" lon="-5.3710384">
        <ele>1480.5</ele>
        <time>2016-05-03T17:13:00Z</time>
      </trkpt>
      <trkpt lat="42.863286" lon="-5.3707517">
        <ele>1480.5</ele>
        <time>2016-05-03T17:13:03Z</time>
      </trkpt>
      <trkpt lat="42.863279" lon="-5.3705408">
        <ele>1480.5</ele>
        <time>2016-05-03T17:13:05Z</time>
      </trkpt>
      <trkpt lat="42.8632589" lon="-5.370349">
        <ele>1480.5</ele>
        <time>2016-05-03T17:13:07Z</time>
      </trkpt>
      <trkpt lat="42.8632499" lon="-5.3700546">
        <ele>1480.5</ele>
        <time>2016-05-03T17:13:10Z</time>
      </trkpt>
      <trkpt lat="42.8632452" lon="-5.3698301">
        <ele>1480.5</ele>
        <time>2016-05-03T17:13:12Z</time>
      </trkpt>
      <trkpt lat="42.8632358" lon="-5.3696122">
        <ele>1480.5</ele>
        <time>2016-05-03T17:13:14Z</time>
      </trkpt>
      <trkpt lat="42.863244" lon="-5.3693926">
        <ele>1480.5</ele>
        <time>2016-05-03T17:13:16Z</time>
      </trkpt>
      <trkpt lat="42.8632468" lon="-5.3691598">
        <ele>1479.9</ele>
        <time>2016-05-03T17:13:18Z</time>
      </trkpt>
      <trkpt lat="42.8632497" lon="-5.3689363">
        <ele>1479.0</ele>
        <time>2016-05-03T17:13:20Z</time>
      </trkpt>
      <trkpt lat="42.8632762" lon="-5.3687388">
        <ele>1477.3</ele>
        <time>2016-05-03T17:13:22Z</time>
      </trkpt>
      <trkpt lat="42.8633126" lon="-5.368519">
        <ele>1474.9</ele>
        <time>2016-05-03T17:13:24Z</time>
      </trkpt>
      <trkpt lat="42.8633401" lon="-5.3682845">
        <ele>1470.0</ele>
        <time>2016-05-03T17:13:26Z</time>
      </trkpt>
      <trkpt lat="42.8633569" lon="-5.3680361">
        <ele>1464.9</ele>
        <time>2016-05-03T17:13:28Z</time>
      </trkpt>
      <trkpt lat="42.8633835" lon="-5.3678285">
        <ele>1462.7</ele>
        <time>2016-05-03T17:13:30Z</time>
      </trkpt>
      <trkpt lat="42.8634391" lon="-5.3675993">
        <ele>1461.3</ele>
        <time>2016-05-03T17:13:32Z</time>
      </trkpt>
      <trkpt lat="42.863489" lon="-5.3673668">
        <ele>1459.7</ele>
        <time>2016-05-03T17:13:34Z</time>
      </trkpt>
      <trkpt lat="42.8635372" lon="-5.367175">
        <ele>1457.3</ele>
        <time>2016-05-03T17:13:36Z</time>
      </trkpt>
      <trkpt lat="42.8635937" lon="-5.3669784">
        <ele>1456.1</ele>
        <time>2016-05-03T17:13:38Z</time>
      </trkpt>
      <trkpt lat="42.8636502" lon="-5.3667527">
        <ele>1455.0</ele>
        <time>2016-05-03T17:13:40Z</time>
      </trkpt>
      <trkpt lat="42.8636926" lon="-5.3665602">
        <ele>1453.5</ele>
        <time>2016-05-03T17:13:42Z</time>
      </trkpt>
      <trkpt lat="42.8637243" lon="-5.3663742">
        <ele>1451.6</ele>
        <time>2016-05-03T17:13:44Z</time>
      </trkpt>
      <trkpt lat="42.8637431" lon="-5.3661093">
        <ele>1448.9</ele>
        <time>2016-05-03T17:13:47Z</time>
      </trkpt>
      <trkpt lat="42.8637469" lon="-5.3659103">
        <ele>1445.8</ele>
        <time>2016-05-03T17:13:49Z</time>
      </trkpt>
      <trkpt lat="42.8637302" lon="-5.3656544">
        <ele>1442.3</ele>
        <time>2016-05-03T17:13:52Z</time>
      </trkpt>
      <trkpt lat="42.8637314" lon="-5.3654465">
        <ele>1441.8</ele>
        <time>2016-05-03T17:13:54Z</time>
      </trkpt>
      <trkpt lat="42.8637348" lon="-5.3652447">
        <ele>1441.7</ele>
        <time>2016-05-03T17:13:56Z</time>
      </trkpt>
      <trkpt lat="42.8637244" lon="-5.3650331">
        <ele>1441.6</ele>
        <time>2016-05-03T17:13:58Z</time>
      </trkpt>
      <trkpt lat="42.8637497" lon="-5.3648484">
        <ele>1441.6</ele>
        <time>2016-05-03T17:14:00Z</time>
      </trkpt>
      <trkpt lat="42.8637322" lon="-5.3645929">
        <ele>1441.6</ele>
        <time>2016-05-03T17:14:03Z</time>
      </trkpt>
      <trkpt lat="42.8636799" lon="-5.3643604">
        <ele>1441.6</ele>
        <time>2016-05-03T17:14:06Z</time>
      </trkpt>
      <trkpt lat="42.8636113" lon="-5.3641191">
        <ele>1441.6</ele>
        <time>2016-05-03T17:14:09Z</time>
      </trkpt>
      <trkpt lat="42.8635517" lon="-5.3638689">
        <ele>1441.6</ele>
        <time>2016-05-03T17:14:12Z</time>
      </trkpt>
      <trkpt lat="42.8635241" lon="-5.3636264">
        <ele>1441.6</ele>
        <time>2016-05-03T17:14:15Z</time>
      </trkpt>
      <trkpt lat="42.8635071" lon="-5.3633597">
        <ele>1441.6</ele>
        <time>2016-05-03T17:14:17Z</time>
      </trkpt>
      <trkpt lat="42.8635074" lon="-5.3631563">
        <ele>1441.6</ele>
        <time>2016-05-03T17:14:19Z</time>
      </trkpt>
      <trkpt lat="42.8634953" lon="-5.3629463">
        <ele>1441.5</ele>
        <time>2016-05-03T17:14:21Z</time>
      </trkpt>
      <trkpt lat="42.863491" lon="-5.3627227">
        <ele>1441.3</ele>
        <time>2016-05-03T17:14:23Z</time>
      </trkpt>
      <trkpt lat="42.8635172" lon="-5.362516">
        <ele>1441.3</ele>
        <time>2016-05-03T17:14:25Z</time>
      </trkpt>
      <trkpt lat="42.8635525" lon="-5.3623201">
        <ele>1441.2</ele>
        <time>2016-05-03T17:14:27Z</time>
      </trkpt>
      <trkpt lat="42.8636085" lon="-5.3621207">
        <ele>1441.2</ele>
        <time>2016-05-03T17:14:29Z</time>
      </trkpt>
      <trkpt lat="42.8636794" lon="-5.3619239">
        <ele>1441.2</ele>
        <time>2016-05-03T17:14:31Z</time>
      </trkpt>
      <trkpt lat="42.8637629" lon="-5.3616975">
        <ele>1441.2</ele>
        <time>2016-05-03T17:14:33Z</time>
      </trkpt>
      <trkpt lat="42.863868" lon="-5.3614908">
        <ele>1441.2</ele>
        <time>2016-05-03T17:14:35Z</time>
      </trkpt>
      <trkpt lat="42.863947" lon="-5.3612743">
        <ele>1441.2</ele>
        <time>2016-05-03T17:14:37Z</time>
      </trkpt>
      <trkpt lat="42.8640347" lon="-5.3610744">
        <ele>1441.2</ele>
        <time>2016-05-03T17:14:39Z</time>
      </trkpt>
      <trkpt lat="42.8641257" lon="-5.3608317">
        <ele>1441.2</ele>
        <time>2016-05-03T17:14:41Z</time>
      </trkpt>
      <trkpt lat="42.8641754" lon="-5.3605849">
        <ele>1441.2</ele>
        <time>2016-05-03T17:14:43Z</time>
      </trkpt>
      <trkpt lat="42.8641794" lon="-5.3603683">
        <ele>1441.2</ele>
        <time>2016-05-03T17:14:45Z</time>
      </trkpt>
      <trkpt lat="42.8641231" lon="-5.3602001">
        <ele>1441.2</ele>
        <time>2016-05-03T17:14:48Z</time>
      </trkpt>
      <trkpt lat="42.8639428" lon="-5.3601803">
        <ele>1440.4</ele>
        <time>2016-05-03T17:14:51Z</time>
      </trkpt>
      <trkpt lat="42.8638274" lon="-5.3602618">
        <ele>1436.8</ele>
        <time>2016-05-03T17:14:53Z</time>
      </trkpt>
      <trkpt lat="42.8636432" lon="-5.3603779">
        <ele>1432.4</ele>
        <time>2016-05-03T17:14:56Z</time>
      </trkpt>
      <trkpt lat="42.863515" lon="-5.360429">
        <ele>1430.7</ele>
        <time>2016-05-03T17:14:58Z</time>
      </trkpt>
      <trkpt lat="42.8634492" lon="-5.3604833">
        <ele>1426.1</ele>
        <time>2016-05-03T17:15:00Z</time>
      </trkpt>
      <trkpt lat="42.8633876" lon="-5.3605199">
        <ele>1426.1</ele>
        <time>2016-05-03T17:15:02Z</time>
      </trkpt>
      <trkpt lat="42.8632989" lon="-5.3605587">
        <ele>1426.1</ele>
        <time>2016-05-03T17:15:04Z</time>
      </trkpt>
      <trkpt lat="42.8631974" lon="-5.360618">
        <ele>1425.7</ele>
        <time>2016-05-03T17:15:06Z</time>
      </trkpt>
      <trkpt lat="42.8630397" lon="-5.3607281">
        <ele>1424.7</ele>
        <time>2016-05-03T17:15:09Z</time>
      </trkpt>
      <trkpt lat="42.8629346" lon="-5.3608113">
        <ele>1424.1</ele>
        <time>2016-05-03T17:15:11Z</time>
      </trkpt>
      <trkpt lat="42.8628413" lon="-5.3610485">
        <ele>1423.1</ele>
        <time>2016-05-03T17:15:14Z</time>
      </trkpt>
      <trkpt lat="42.8628026" lon="-5.3613166">
        <ele>1422.2</ele>
        <time>2016-05-03T17:15:17Z</time>
      </trkpt>
      <trkpt lat="42.8628046" lon="-5.3615212">
        <ele>1421.7</ele>
        <time>2016-05-03T17:15:19Z</time>
      </trkpt>
      <trkpt lat="42.8628066" lon="-5.3617201">
        <ele>1421.3</ele>
        <time>2016-05-03T17:15:21Z</time>
      </trkpt>
      <trkpt lat="42.8628017" lon="-5.3619206">
        <ele>1421.1</ele>
        <time>2016-05-03T17:15:23Z</time>
      </trkpt>
      <trkpt lat="42.8628071" lon="-5.3621706">
        <ele>1420.5</ele>
        <time>2016-05-03T17:15:25Z</time>
      </trkpt>
      <trkpt lat="42.8628317" lon="-5.3623864">
        <ele>1419.1</ele>
        <time>2016-05-03T17:15:27Z</time>
      </trkpt>
      <trkpt lat="42.8629219" lon="-5.3625808">
        <ele>1417.4</ele>
        <time>2016-05-03T17:15:29Z</time>
      </trkpt>
      <trkpt lat="42.8631201" lon="-5.3627696">
        <ele>1416.4</ele>
        <time>2016-05-03T17:15:31Z</time>
      </trkpt>
      <trkpt lat="42.8633664" lon="-5.3628449">
        <ele>1416.2</ele>
        <time>2016-05-03T17:15:33Z</time>
      </trkpt>
      <trkpt lat="42.8634893" lon="-5.3628262">
        <ele>1409.4</ele>
        <time>2016-05-03T17:15:34Z</time>
      </trkpt>
      <trkpt lat="42.8636039" lon="-5.3627784">
        <ele>1409.4</ele>
        <time>2016-05-03T17:15:35Z</time>
      </trkpt>
      <trkpt lat="42.8637153" lon="-5.3627079">
        <ele>1409.4</ele>
        <time>2016-05-03T17:15:36Z</time>
      </trkpt>
      <trkpt lat="42.8638207" lon="-5.3626291">
        <ele>1409.4</ele>
        <time>2016-05-03T17:15:37Z</time>
      </trkpt>
      <trkpt lat="42.8639166" lon="-5.362548">
        <ele>1409.4</ele>
        <time>2016-05-03T17:15:38Z</time>
      </trkpt>
      <trkpt lat="42.8640762" lon="-5.3623367">
        <ele>1403.9</ele>
        <time>2016-05-03T17:15:40Z</time>
      </trkpt>
      <trkpt lat="42.8642098" lon="-5.3621043">
        <ele>1400.5</ele>
        <time>2016-05-03T17:15:42Z</time>
      </trkpt>
      <trkpt lat="42.8643339" lon="-5.3618931">
        <ele>1397.7</ele>
        <time>2016-05-03T17:15:44Z</time>
      </trkpt>
      <trkpt lat="42.8644389" lon="-5.3616311">
        <ele>1396.0</ele>
        <time>2016-05-03T17:15:46Z</time>
      </trkpt>
      <trkpt lat="42.8645128" lon="-5.36137">
        <ele>1393.3</ele>
        <time>2016-05-03T17:15:48Z</time>
      </trkpt>
      <trkpt lat="42.8645686" lon="-5.3611679">
        <ele>1389.7</ele>
        <time>2016-05-03T17:15:50Z</time>
      </trkpt>
      <trkpt lat="42.8646106" lon="-5.3609754">
        <ele>1386.3</ele>
        <time>2016-05-03T17:15:52Z</time>
      </trkpt>
      <trkpt lat="42.8647136" lon="-5.3607711">
        <ele>1383.1</ele>
        <time>2016-05-03T17:15:54Z</time>
      </trkpt>
      <trkpt lat="42.8648177" lon="-5.3605247">
        <ele>1378.8</ele>
        <time>2016-05-03T17:15:56Z</time>
      </trkpt>
      <trkpt lat="42.864831" lon="-5.3602759">
        <ele>1376.2</ele>
        <time>2016-05-03T17:15:58Z</time>
      </trkpt>
      <trkpt lat="42.8648355" lon="-5.3600154">
        <ele>1374.0</ele>
        <time>2016-05-03T17:16:00Z</time>
      </trkpt>
      <trkpt lat="42.8648157" lon="-5.3598127">
        <ele>1369.8</ele>
        <time>2016-05-03T17:16:02Z</time>
      </trkpt>
      <trkpt lat="42.864758" lon="-5.3596357">
        <ele>1366.2</ele>
        <time>2016-05-03T17:16:04Z</time>
      </trkpt>
      <trkpt lat="42.8646662" lon="-5.359426">
        <ele>1361.5</ele>
        <time>2016-05-03T17:16:07Z</time>
      </trkpt>
      <trkpt lat="42.8645199" lon="-5.3593121">
        <ele>1357.0</ele>
        <time>2016-05-03T17:16:10Z</time>
      </trkpt>
      <trkpt lat="42.8644281" lon="-5.3592495">
        <ele>1353.7</ele>
        <time>2016-05-03T17:16:12Z</time>
      </trkpt>
      <trkpt lat="42.8643192" lon="-5.3592402">
        <ele>1352.0</ele>
        <time>2016-05-03T17:16:14Z</time>
      </trkpt>
      <trkpt lat="42.864214" lon="-5.3592409">
        <ele>1349.1</ele>
        <time>2016-05-03T17:16:16Z</time>
      </trkpt>
      <trkpt lat="42.8641134" lon="-5.359276">
        <ele>1345.4</ele>
        <time>2016-05-03T17:16:18Z</time>
      </trkpt>
      <trkpt lat="42.863934" lon="-5.3593855">
        <ele>1342.3</ele>
        <time>2016-05-03T17:16:22Z</time>
      </trkpt>
      <trkpt lat="42.8638214" lon="-5.3594508">
        <ele>1329.4</ele>
        <time>2016-05-03T17:16:24Z</time>
      </trkpt>
      <trkpt lat="42.8637602" lon="-5.3594784">
        <ele>1329.4</ele>
        <time>2016-05-03T17:16:25Z</time>
      </trkpt>
      <trkpt lat="42.8637141" lon="-5.3594999">
        <ele>1329.4</ele>
        <time>2016-05-03T17:16:26Z</time>
      </trkpt>
      <trkpt lat="42.8636505" lon="-5.3594844">
        <ele>1329.4</ele>
        <time>2016-05-03T17:16:28Z</time>
      </trkpt>
      <trkpt lat="42.863528" lon="-5.3595181">
        <ele>1324.2</ele>
        <time>2016-05-03T17:16:30Z</time>
      </trkpt>
      <trkpt lat="42.863395" lon="-5.3595167">
        <ele>1318.0</ele>
        <time>2016-05-03T17:16:32Z</time>
      </trkpt>
      <trkpt lat="42.8633508" lon="-5.3594945">
        <ele>1318.0</ele>
        <time>2016-05-03T17:16:33Z</time>
      </trkpt>
      <trkpt lat="42.8633054" lon="-5.3594801">
        <ele>1318.0</ele>
        <time>2016-05-03T17:16:34Z</time>
      </trkpt>
      <trkpt lat="42.8632621" lon="-5.3594569">
        <ele>1318.0</ele>
        <time>2016-05-03T17:16:35Z</time>
      </trkpt>
      <trkpt lat="42.8632186" lon="-5.359419">
        <ele>1318.0</ele>
        <time>2016-05-03T17:16:36Z</time>
      </trkpt>
      <trkpt lat="42.8630729" lon="-5.3592319">
        <ele>1314.3</ele>
        <time>2016-05-03T17:16:39Z</time>
      </trkpt>
      <trkpt lat="42.8629561" lon="-5.3590517">
        <ele>1311.9</ele>
        <time>2016-05-03T17:16:42Z</time>
      </trkpt>
      <trkpt lat="42.862889" lon="-5.3588535">
        <ele>1309.3</ele>
        <time>2016-05-03T17:16:45Z</time>
      </trkpt>
      <trkpt lat="42.8628864" lon="-5.3586408">
        <ele>1307.2</ele>
        <time>2016-05-03T17:16:47Z</time>
      </trkpt>
      <trkpt lat="42.8628776" lon="-5.3584147">
        <ele>1305.1</ele>
        <time>2016-05-03T17:16:49Z</time>
      </trkpt>
      <trkpt lat="42.8627517" lon="-5.3583443">
        <ele>1303.5</ele>
        <time>2016-05-03T17:16:51Z</time>
      </trkpt>
      <trkpt lat="42.8626412" lon="-5.3583735">
        <ele>1300.9</ele>
        <time>2016-05-03T17:16:53Z</time>
      </trkpt>
      <trkpt lat="42.8625502" lon="-5.3584888">
        <ele>1298.0</ele>
        <time>2016-05-03T17:16:55Z</time>
      </trkpt>
      <trkpt lat="42.862465" lon="-5.3586747">
        <ele>1295.2</ele>
        <time>2016-05-03T17:16:57Z</time>
      </trkpt>
      <trkpt lat="42.8624542" lon="-5.3589305">
        <ele>1289.0</ele>
        <time>2016-05-03T17:17:00Z</time>
      </trkpt>
      <trkpt lat="42.8624719" lon="-5.3591793">
        <ele>1285.5</ele>
        <time>2016-05-03T17:17:02Z</time>
      </trkpt>
      <trkpt lat="42.8625151" lon="-5.3594611">
        <ele>1282.8</ele>
        <time>2016-05-03T17:17:04Z</time>
      </trkpt>
      <trkpt lat="42.8625574" lon="-5.3597284">
        <ele>1280.2</ele>
        <time>2016-05-03T17:17:06Z</time>
      </trkpt>
      <trkpt lat="42.8626026" lon="-5.359965">
        <ele>1276.3</ele>
        <time>2016-05-03T17:17:08Z</time>
      </trkpt>
      <trkpt lat="42.8626483" lon="-5.3602006">
        <ele>1274.0</ele>
        <time>2016-05-03T17:17:10Z</time>
      </trkpt>
      <trkpt lat="42.8626509" lon="-5.3604407">
        <ele>1273.1</ele>
        <time>2016-05-03T17:17:13Z</time>
      </trkpt>
      <trkpt lat="42.862638" lon="-5.3607102">
        <ele>1272.6</ele>
        <time>2016-05-03T17:17:15Z</time>
      </trkpt>
      <trkpt lat="42.8625841" lon="-5.3609565">
        <ele>1272.2</ele>
        <time>2016-05-03T17:17:17Z</time>
      </trkpt>
      <trkpt lat="42.8625194" lon="-5.3611779">
        <ele>1271.9</ele>
        <time>2016-05-03T17:17:19Z</time>
      </trkpt>
      <trkpt lat="42.8624748" lon="-5.3614086">
        <ele>1271.3</ele>
        <time>2016-05-03T17:17:21Z</time>
      </trkpt>
      <trkpt lat="42.8624273" lon="-5.3616539">
        <ele>1270.9</ele>
        <time>2016-05-03T17:17:23Z</time>
      </trkpt>
      <trkpt lat="42.8623605" lon="-5.3618579">
        <ele>1269.8</ele>
        <time>2016-05-03T17:17:25Z</time>
      </trkpt>
      <trkpt lat="42.862314" lon="-5.3620495">
        <ele>1269.3</ele>
        <time>2016-05-03T17:17:27Z</time>
      </trkpt>
      <trkpt lat="42.8622733" lon="-5.3622496">
        <ele>1267.8</ele>
        <time>2016-05-03T17:17:29Z</time>
      </trkpt>
      <trkpt lat="42.8622333" lon="-5.362427">
        <ele>1267.1</ele>
        <time>2016-05-03T17:17:31Z</time>
      </trkpt>
      <trkpt lat="42.8622046" lon="-5.3627087">
        <ele>1266.1</ele>
        <time>2016-05-03T17:17:34Z</time>
      </trkpt>
      <trkpt lat="42.8622031" lon="-5.3629345">
        <ele>1264.7</ele>
        <time>2016-05-03T17:17:36Z</time>
      </trkpt>
      <trkpt lat="42.8622001" lon="-5.3631731">
        <ele>1263.8</ele>
        <time>2016-05-03T17:17:38Z</time>
      </trkpt>
      <trkpt lat="42.8621961" lon="-5.3634138">
        <ele>1263.4</ele>
        <time>2016-05-03T17:17:40Z</time>
      </trkpt>
      <trkpt lat="42.8621773" lon="-5.3636573">
        <ele>1263.1</ele>
        <time>2016-05-03T17:17:42Z</time>
      </trkpt>
      <trkpt lat="42.8621593" lon="-5.3638912">
        <ele>1261.5</ele>
        <time>2016-05-03T17:17:44Z</time>
      </trkpt>
      <trkpt lat="42.8621566" lon="-5.3641038">
        <ele>1259.1</ele>
        <time>2016-05-03T17:17:46Z</time>
      </trkpt>
      <trkpt lat="42.8621733" lon="-5.3643395">
        <ele>1257.2</ele>
        <time>2016-05-03T17:17:48Z</time>
      </trkpt>
      <trkpt lat="42.8621565" lon="-5.3645746">
        <ele>1256.1</ele>
        <time>2016-05-03T17:17:50Z</time>
      </trkpt>
      <trkpt lat="42.8621163" lon="-5.3647774">
        <ele>1255.6</ele>
        <time>2016-05-03T17:17:52Z</time>
      </trkpt>
      <trkpt lat="42.8620496" lon="-5.3650001">
        <ele>1255.3</ele>
        <time>2016-05-03T17:17:55Z</time>
      </trkpt>
      <trkpt lat="42.8619228" lon="-5.3651644">
        <ele>1254.7</ele>
        <time>2016-05-03T17:17:58Z</time>
      </trkpt>
      <trkpt lat="42.8617839" lon="-5.3652019">
        <ele>1254.3</ele>
        <time>2016-05-03T17:18:01Z</time>
      </trkpt>
      <trkpt lat="42.8616637" lon="-5.3651745">
        <ele>1253.6</ele>
        <time>2016-05-03T17:18:03Z</time>
      </trkpt>
      <trkpt lat="42.8615996" lon="-5.3651587">
        <ele>1253.6</ele>
        <time>2016-05-03T17:18:04Z</time>
      </trkpt>
      <trkpt lat="42.8615474" lon="-5.3651271">
        <ele>1253.6</ele>
        <time>2016-05-03T17:18:05Z</time>
      </trkpt>
      <trkpt lat="42.861478" lon="-5.3650772">
        <ele>1253.6</ele>
        <time>2016-05-03T17:18:07Z</time>
      </trkpt>
      <trkpt lat="42.8613602" lon="-5.3649442">
        <ele>1253.4</ele>
        <time>2016-05-03T17:18:10Z</time>
      </trkpt>
      <trkpt lat="42.861265" lon="-5.3647452">
        <ele>1252.9</ele>
        <time>2016-05-03T17:18:13Z</time>
      </trkpt>
      <trkpt lat="42.861146" lon="-5.3645576">
        <ele>1252.6</ele>
        <time>2016-05-03T17:18:16Z</time>
      </trkpt>
      <trkpt lat="42.8610503" lon="-5.3644027">
        <ele>1252.4</ele>
        <time>2016-05-03T17:18:19Z</time>
      </trkpt>
      <trkpt lat="42.8609387" lon="-5.364227">
        <ele>1251.3</ele>
        <time>2016-05-03T17:18:22Z</time>
      </trkpt>
      <trkpt lat="42.8607857" lon="-5.3641528">
        <ele>1250.0</ele>
        <time>2016-05-03T17:18:26Z</time>
      </trkpt>
      <trkpt lat="42.860703" lon="-5.3642402">
        <ele>1247.3</ele>
        <time>2016-05-03T17:18:28Z</time>
      </trkpt>
      <trkpt lat="42.860608" lon="-5.3643729">
        <ele>1243.1</ele>
        <time>2016-05-03T17:18:30Z</time>
      </trkpt>
      <trkpt lat="42.8605097" lon="-5.3642061">
        <ele>1236.1</ele>
        <time>2016-05-03T17:18:35Z</time>
      </trkpt>
      <trkpt lat="42.8606345" lon="-5.3639939">
        <ele>1233.8</ele>
        <time>2016-05-03T17:18:38Z</time>
      </trkpt>
      <trkpt lat="42.8607048" lon="-5.3637942">
        <ele>1232.5</ele>
        <time>2016-05-03T17:18:40Z</time>
      </trkpt>
      <trkpt lat="42.860668" lon="-5.3635938">
        <ele>1228.1</ele>
        <time>2016-05-03T17:18:42Z</time>
      </trkpt>
      <trkpt lat="42.8605411" lon="-5.3635182">
        <ele>1224.0</ele>
        <time>2016-05-03T17:18:45Z</time>
      </trkpt>
      <trkpt lat="42.8604354" lon="-5.3635571">
        <ele>1221.6</ele>
        <time>2016-05-03T17:18:47Z</time>
      </trkpt>
      <trkpt lat="42.8603679" lon="-5.3637224">
        <ele>1219.8</ele>
        <time>2016-05-03T17:18:49Z</time>
      </trkpt>
      <trkpt lat="42.8603301" lon="-5.3639699">
        <ele>1218.9</ele>
        <time>2016-05-03T17:18:51Z</time>
      </trkpt>
      <trkpt lat="42.8602359" lon="-5.3641289">
        <ele>1218.2</ele>
        <time>2016-05-03T17:18:53Z</time>
      </trkpt>
      <trkpt lat="42.8600976" lon="-5.3641346">
        <ele>1216.9</ele>
        <time>2016-05-03T17:18:56Z</time>
      </trkpt>
      <trkpt lat="42.8600047" lon="-5.3639803">
        <ele>1216.3</ele>
        <time>2016-05-03T17:18:59Z</time>
      </trkpt>
      <trkpt lat="42.8600267" lon="-5.3637219">
        <ele>1215.5</ele>
        <time>2016-05-03T17:19:02Z</time>
      </trkpt>
      <trkpt lat="42.8600774" lon="-5.3635487">
        <ele>1215.3</ele>
        <time>2016-05-03T17:19:04Z</time>
      </trkpt>
      <trkpt lat="42.8601618" lon="-5.3633586">
        <ele>1215.2</ele>
        <time>2016-05-03T17:19:06Z</time>
      </trkpt>
      <trkpt lat="42.8602758" lon="-5.3631726">
        <ele>1215.0</ele>
        <time>2016-05-03T17:19:08Z</time>
      </trkpt>
      <trkpt lat="42.8603897" lon="-5.3629499">
        <ele>1214.8</ele>
        <time>2016-05-03T17:19:10Z</time>
      </trkpt>
      <trkpt lat="42.860483" lon="-5.3627479">
        <ele>1214.6</ele>
        <time>2016-05-03T17:19:12Z</time>
      </trkpt>
      <trkpt lat="42.8605791" lon="-5.362547">
        <ele>1214.3</ele>
        <time>2016-05-03T17:19:14Z</time>
      </trkpt>
      <trkpt lat="42.8606653" lon="-5.3623421">
        <ele>1214.0</ele>
        <time>2016-05-03T17:19:16Z</time>
      </trkpt>
      <trkpt lat="42.8607232" lon="-5.3621217">
        <ele>1213.8</ele>
        <time>2016-05-03T17:19:18Z</time>
      </trkpt>
      <trkpt lat="42.8608136" lon="-5.3619311">
        <ele>1213.7</ele>
        <time>2016-05-03T17:19:20Z</time>
      </trkpt>
      <trkpt lat="42.8609184" lon="-5.3617582">
        <ele>1213.2</ele>
        <time>2016-05-03T17:19:22Z</time>
      </trkpt>
      <trkpt lat="42.8610674" lon="-5.3616008">
        <ele>1212.9</ele>
        <time>2016-05-03T17:19:24Z</time>
      </trkpt>
      <trkpt lat="42.8612183" lon="-5.3614492">
        <ele>1212.4</ele>
        <time>2016-05-03T17:19:26Z</time>
      </trkpt>
      <trkpt lat="42.8612994" lon="-5.3612903">
        <ele>1212.2</ele>
        <time>2016-05-03T17:19:28Z</time>
      </trkpt>
      <trkpt lat="42.8613719" lon="-5.3610461">
        <ele>1211.4</ele>
        <time>2016-05-03T17:19:31Z</time>
      </trkpt>
      <trkpt lat="42.8614176" lon="-5.3608584">
        <ele>1210.2</ele>
        <time>2016-05-03T17:19:33Z</time>
      </trkpt>
      <trkpt lat="42.8615055" lon="-5.3606076">
        <ele>1207.5</ele>
        <time>2016-05-03T17:19:36Z</time>
      </trkpt>
      <trkpt lat="42.8615455" lon="-5.3603604">
        <ele>1203.3</ele>
        <time>2016-05-03T17:19:39Z</time>
      </trkpt>
      <trkpt lat="42.8615202" lon="-5.3601112">
        <ele>1198.5</ele>
        <time>2016-05-03T17:19:42Z</time>
      </trkpt>
      <trkpt lat="42.8613842" lon="-5.3600485">
        <ele>1197.0</ele>
        <time>2016-05-03T17:19:45Z</time>
      </trkpt>
      <trkpt lat="42.8612838" lon="-5.3601513">
        <ele>1196.1</ele>
        <time>2016-05-03T17:19:48Z</time>
      </trkpt>
      <trkpt lat="42.861213" lon="-5.360414">
        <ele>1195.4</ele>
        <time>2016-05-03T17:19:51Z</time>
      </trkpt>
      <trkpt lat="42.8612089" lon="-5.3606074">
        <ele>1195.1</ele>
        <time>2016-05-03T17:19:53Z</time>
      </trkpt>
      <trkpt lat="42.8612126" lon="-5.360819">
        <ele>1194.8</ele>
        <time>2016-05-03T17:19:55Z</time>
      </trkpt>
      <trkpt lat="42.8612399" lon="-5.3610505">
        <ele>1194.5</ele>
        <time>2016-05-03T17:19:57Z</time>
      </trkpt>
      <trkpt lat="42.8612941" lon="-5.3612672">
        <ele>1194.2</ele>
        <time>2016-05-03T17:19:59Z</time>
      </trkpt>
      <trkpt lat="42.8613608" lon="-5.3614979">
        <ele>1194.1</ele>
        <time>2016-05-03T17:20:01Z</time>
      </trkpt>
      <trkpt lat="42.8613261" lon="-5.3616888">
        <ele>1194.1</ele>
        <time>2016-05-03T17:20:03Z</time>
      </trkpt>
      <trkpt lat="42.8611798" lon="-5.3616977">
        <ele>1194.1</ele>
        <time>2016-05-03T17:20:06Z</time>
      </trkpt>
      <trkpt lat="42.8611273" lon="-5.3615005">
        <ele>1194.1</ele>
        <time>2016-05-03T17:20:09Z</time>
      </trkpt>
      <trkpt lat="42.8611957" lon="-5.3612969">
        <ele>1194.1</ele>
        <time>2016-05-03T17:20:11Z</time>
      </trkpt>
      <trkpt lat="42.8613544" lon="-5.3610639">
        <ele>1194.1</ele>
        <time>2016-05-03T17:20:13Z</time>
      </trkpt>
      <trkpt lat="42.8615176" lon="-5.3608708">
        <ele>1194.1</ele>
        <time>2016-05-03T17:20:15Z</time>
      </trkpt>
      <trkpt lat="42.861641" lon="-5.3606846">
        <ele>1194.3</ele>
        <time>2016-05-03T17:20:17Z</time>
      </trkpt>
      <trkpt lat="42.8614284" lon="-5.3606686">
        <ele>1194.4</ele>
        <time>2016-05-03T17:20:20Z</time>
      </trkpt>
      <trkpt lat="42.8613604" lon="-5.3607859">
        <ele>1193.8</ele>
        <time>2016-05-03T17:20:22Z</time>
      </trkpt>
      <trkpt lat="42.8612879" lon="-5.3609974">
        <ele>1193.6</ele>
        <time>2016-05-03T17:20:25Z</time>
      </trkpt>
      <trkpt lat="42.8612764" lon="-5.3612273">
        <ele>1193.4</ele>
        <time>2016-05-03T17:20:27Z</time>
      </trkpt>
      <trkpt lat="42.8612779" lon="-5.3614665">
        <ele>1193.1</ele>
        <time>2016-05-03T17:20:29Z</time>
      </trkpt>
      <trkpt lat="42.861287" lon="-5.3616726">
        <ele>1192.7</ele>
        <time>2016-05-03T17:20:31Z</time>
      </trkpt>
      <trkpt lat="42.8613008" lon="-5.3619004">
        <ele>1192.3</ele>
        <time>2016-05-03T17:20:33Z</time>
      </trkpt>
      <trkpt lat="42.8612989" lon="-5.3621508">
        <ele>1191.6</ele>
        <time>2016-05-03T17:20:35Z</time>
      </trkpt>
      <trkpt lat="42.8612381" lon="-5.3623676">
        <ele>1190.3</ele>
        <time>2016-05-03T17:20:37Z</time>
      </trkpt>
      <trkpt lat="42.8611066" lon="-5.3625579">
        <ele>1189.0</ele>
        <time>2016-05-03T17:20:40Z</time>
      </trkpt>
      <trkpt lat="42.8609375" lon="-5.362517">
        <ele>1187.6</ele>
        <time>2016-05-03T17:20:43Z</time>
      </trkpt>
      <trkpt lat="42.8608344" lon="-5.3623878">
        <ele>1187.2</ele>
        <time>2016-05-03T17:20:46Z</time>
      </trkpt>
      <trkpt lat="42.860711" lon="-5.3622076">
        <ele>1187.1</ele>
        <time>2016-05-03T17:20:50Z</time>
      </trkpt>
      <trkpt lat="42.8607046" lon="-5.3619904">
        <ele>1186.2</ele>
        <time>2016-05-03T17:20:52Z</time>
      </trkpt>
      <trkpt lat="42.860699" lon="-5.3617875">
        <ele>1185.6</ele>
        <time>2016-05-03T17:20:54Z</time>
      </trkpt>
      <trkpt lat="42.8606646" lon="-5.3615963">
        <ele>1184.1</ele>
        <time>2016-05-03T17:20:56Z</time>
      </trkpt>
      <trkpt lat="42.860642" lon="-5.3614123">
        <ele>1180.7</ele>
        <time>2016-05-03T17:20:58Z</time>
      </trkpt>
      <trkpt lat="42.8606113" lon="-5.3611808">
        <ele>1178.9</ele>
        <time>2016-05-03T17:21:00Z</time>
      </trkpt>
      <trkpt lat="42.8605874" lon="-5.3608926">
        <ele>1177.7</ele>
        <time>2016-05-03T17:21:03Z</time>
      </trkpt>
      <trkpt lat="42.8605929" lon="-5.3606181">
        <ele>1175.7</ele>
        <time>2016-05-03T17:21:06Z</time>
      </trkpt>
      <trkpt lat="42.8605868" lon="-5.3604272">
        <ele>1173.9</ele>
        <time>2016-05-03T17:21:08Z</time>
      </trkpt>
      <trkpt lat="42.8605168" lon="-5.3601973">
        <ele>1171.8</ele>
        <time>2016-05-03T17:21:11Z</time>
      </trkpt>
      <trkpt lat="42.8603758" lon="-5.3601726">
        <ele>1171.0</ele>
        <time>2016-05-03T17:21:14Z</time>
      </trkpt>
      <trkpt lat="42.8602798" lon="-5.3602869">
        <ele>1169.8</ele>
        <time>2016-05-03T17:21:15Z</time>
      </trkpt>
      <trkpt lat="42.8602032" lon="-5.3604381">
        <ele>1168.7</ele>
        <time>2016-05-03T17:21:17Z</time>
      </trkpt>
      <trkpt lat="42.8600835" lon="-5.3606691">
        <ele>1166.7</ele>
        <time>2016-05-03T17:21:20Z</time>
      </trkpt>
      <trkpt lat="42.8599467" lon="-5.3608076">
        <ele>1162.6</ele>
        <time>2016-05-03T17:21:23Z</time>
      </trkpt>
      <trkpt lat="42.8597899" lon="-5.3608504">
        <ele>1160.8</ele>
        <time>2016-05-03T17:21:26Z</time>
      </trkpt>
      <trkpt lat="42.8596724" lon="-5.3608089">
        <ele>1157.2</ele>
        <time>2016-05-03T17:21:28Z</time>
      </trkpt>
      <trkpt lat="42.8596201" lon="-5.360781">
        <ele>1157.2</ele>
        <time>2016-05-03T17:21:29Z</time>
      </trkpt>
      <trkpt lat="42.8595597" lon="-5.3607432">
        <ele>1157.2</ele>
        <time>2016-05-03T17:21:30Z</time>
      </trkpt>
      <trkpt lat="42.8595154" lon="-5.3607077">
        <ele>1157.2</ele>
        <time>2016-05-03T17:21:31Z</time>
      </trkpt>
      <trkpt lat="42.8593939" lon="-5.3606167">
        <ele>1155.0</ele>
        <time>2016-05-03T17:21:35Z</time>
      </trkpt>
      <trkpt lat="42.859345" lon="-5.3604805">
        <ele>1147.3</ele>
        <time>2016-05-03T17:21:39Z</time>
      </trkpt>
      <trkpt lat="42.8593147" lon="-5.360355">
        <ele>1147.3</ele>
        <time>2016-05-03T17:21:41Z</time>
      </trkpt>
      <trkpt lat="42.8593514" lon="-5.3601285">
        <ele>1145.1</ele>
        <time>2016-05-03T17:21:43Z</time>
      </trkpt>
      <trkpt lat="42.8594192" lon="-5.3598819">
        <ele>1141.8</ele>
        <time>2016-05-03T17:21:45Z</time>
      </trkpt>
      <trkpt lat="42.8595024" lon="-5.3596149">
        <ele>1139.1</ele>
        <time>2016-05-03T17:21:47Z</time>
      </trkpt>
      <trkpt lat="42.8596019" lon="-5.3593163">
        <ele>1136.2</ele>
        <time>2016-05-03T17:21:49Z</time>
      </trkpt>
      <trkpt lat="42.8596866" lon="-5.3590806">
        <ele>1131.9</ele>
        <time>2016-05-03T17:21:51Z</time>
      </trkpt>
      <trkpt lat="42.8597328" lon="-5.3589061">
        <ele>1128.4</ele>
        <time>2016-05-03T17:21:53Z</time>
      </trkpt>
      <trkpt lat="42.8596651" lon="-5.3587098">
        <ele>1123.5</ele>
        <time>2016-05-03T17:21:56Z</time>
      </trkpt>
      <trkpt lat="42.8595378" lon="-5.3585893">
        <ele>1117.3</ele>
        <time>2016-05-03T17:21:59Z</time>
      </trkpt>
      <trkpt lat="42.8594343" lon="-5.3586286">
        <ele>1114.6</ele>
        <time>2016-05-03T17:22:01Z</time>
      </trkpt>
      <trkpt lat="42.8593645" lon="-5.3587923">
        <ele>1113.6</ele>
        <time>2016-05-03T17:22:03Z</time>
      </trkpt>
      <trkpt lat="42.859335" lon="-5.3590114">
        <ele>1113.0</ele>
        <time>2016-05-03T17:22:05Z</time>
      </trkpt>
      <trkpt lat="42.8592898" lon="-5.3592095">
        <ele>1111.7</ele>
        <time>2016-05-03T17:22:07Z</time>
      </trkpt>
      <trkpt lat="42.8591387" lon="-5.3592446">
        <ele>1109.3</ele>
        <time>2016-05-03T17:22:10Z</time>
      </trkpt>
      <trkpt lat="42.8591126" lon="-5.3590508">
        <ele>1106.6</ele>
        <time>2016-05-03T17:22:12Z</time>
      </trkpt>
      <trkpt lat="42.8592108" lon="-5.3587821">
        <ele>1104.0</ele>
        <time>2016-05-03T17:22:14Z</time>
      </trkpt>
      <trkpt lat="42.8592834" lon="-5.3585624">
        <ele>1102.0</ele>
        <time>2016-05-03T17:22:16Z</time>
      </trkpt>
      <trkpt lat="42.8591291" lon="-5.3586566">
        <ele>1097.9</ele>
        <time>2016-05-03T17:22:20Z</time>
      </trkpt>
      <trkpt lat="42.8589627" lon="-5.3586975">
        <ele>1096.9</ele>
        <time>2016-05-03T17:22:23Z</time>
      </trkpt>
      <trkpt lat="42.8588626" lon="-5.3585613">
        <ele>1096.3</ele>
        <time>2016-05-03T17:22:25Z</time>
      </trkpt>
      <trkpt lat="42.8587735" lon="-5.3583652">
        <ele>1095.9</ele>
        <time>2016-05-03T17:22:28Z</time>
      </trkpt>
      <trkpt lat="42.858698" lon="-5.358282">
        <ele>1092.6</ele>
        <time>2016-05-03T17:22:31Z</time>
      </trkpt>
      <trkpt lat="42.8586874" lon="-5.3582075">
        <ele>1080.5</ele>
        <time>2016-05-03T17:22:40Z</time>
      </trkpt>
      <trkpt lat="42.8587415" lon="-5.3581785">
        <ele>1051.1</ele>
        <time>2016-05-03T17:23:15Z</time>
      </trkpt>
      <trkpt lat="42.8587017" lon="-5.358223">
        <ele>1050.2</ele>
        <time>2016-05-03T17:23:21Z</time>
      </trkpt>
      <trkpt lat="42.8586811" lon="-5.3582812">
        <ele>1050.0</ele>
        <time>2016-05-03T17:23:28Z</time>
      </trkpt>
      <trkpt lat="42.8586482" lon="-5.3583272">
        <ele>1048.6</ele>
        <time>2016-05-03T17:23:46Z</time>
      </trkpt>
      <trkpt lat="42.8586309" lon="-5.358395">
        <ele>1048.5</ele>
        <time>2016-05-03T17:23:52Z</time>
      </trkpt>
      <trkpt lat="42.8585789" lon="-5.3584662">
        <ele>1048.3</ele>
        <time>2016-05-03T17:24:00Z</time>
      </trkpt>
      <trkpt lat="42.8585835" lon="-5.358535">
        <ele>1049.9</ele>
        <time>2016-05-03T17:24:52Z</time>
      </trkpt>
      <trkpt lat="42.858557" lon="-5.3584805">
        <ele>1050.6</ele>
        <time>2016-05-03T17:26:26Z</time>
      </trkpt>
      <trkpt lat="42.8585156" lon="-5.3584191">
        <ele>1050.6</ele>
        <time>2016-05-03T17:26:31Z</time>
      </trkpt>
      <trkpt lat="42.8584737" lon="-5.3583679">
        <ele>1050.6</ele>
        <time>2016-05-03T17:26:36Z</time>
      </trkpt>
      <trkpt lat="42.8583624" lon="-5.3582458">
        <ele>1050.5</ele>
        <time>2016-05-03T17:26:48Z</time>
      </trkpt>
      <trkpt lat="42.8583326" lon="-5.3581968">
        <ele>1050.0</ele>
        <time>2016-05-03T17:26:53Z</time>
      </trkpt>
      <trkpt lat="42.858291" lon="-5.3581453">
        <ele>1049.1</ele>
        <time>2016-05-03T17:27:00Z</time>
      </trkpt>
      <trkpt lat="42.8582207" lon="-5.3580752">
        <ele>1048.5</ele>
        <time>2016-05-03T17:27:08Z</time>
      </trkpt>
      <trkpt lat="42.8581815" lon="-5.358016">
        <ele>1047.5</ele>
        <time>2016-05-03T17:27:14Z</time>
      </trkpt>
      <trkpt lat="42.8581367" lon="-5.3579811">
        <ele>1047.4</ele>
        <time>2016-05-03T17:27:18Z</time>
      </trkpt>
      <trkpt lat="42.8580907" lon="-5.3579376">
        <ele>1047.0</ele>
        <time>2016-05-03T17:27:23Z</time>
      </trkpt>
      <trkpt lat="42.85808" lon="-5.3578765">
        <ele>1046.4</ele>
        <time>2016-05-03T17:27:29Z</time>
      </trkpt>
      <trkpt lat="42.858123" lon="-5.3578451">
        <ele>1042.6</ele>
        <time>2016-05-03T17:28:03Z</time>
      </trkpt>
      <trkpt lat="42.858154" lon="-5.3578385">
        <ele>1042.3</ele>
        <time>2016-05-03T17:28:08Z</time>
      </trkpt>
      <trkpt lat="42.858154" lon="-5.3578385">
        <time>2016-05-03T17:28:09Z</time>
      </trkpt>
    </trkseg>
    <trkseg>
      <trkpt lat="42.858154" lon="-5.3578385">
        <time>2016-05-03T17:28:09Z</time>
      </trkpt>
    </trkseg>
  </trk>
</gpx>